<?xml version="1.0" encoding="UTF-8" standalone="no" ?>
<gpx xmlns="http://www.topografix.com/GPX/1/1" xmlns:xsi="http://www.w3.org/2001/XMLSchema-instance" xsi:schemaLocation="http://www.topografix.com/GPX/1/1 http://www.topografix.com/GPX/1/1/gpx.xsd" version="1.1" creator="VisuGPX - https://www.visugpx.com">
  <metadata>
    <name>10mai2014</name>
    <desc><![CDATA[club vtt des rochers]]></desc>
  </metadata>
  <trk>
    <name><![CDATA[10-MAI-14 17-43-06]]></name>
    <trkseg>
      <trkpt lat="44.47209" lon="0.93419">
        <ele>78.48</ele>
        <time>2014-05-10T13:07:12Z</time>
      </trkpt>
      <trkpt lat="44.4721" lon="0.93418">
        <ele>78</ele>
        <time>2014-05-10T13:07:27Z</time>
      </trkpt>
      <trkpt lat="44.47212" lon="0.93423">
        <ele>75.6</ele>
        <time>2014-05-10T13:07:42Z</time>
      </trkpt>
      <trkpt lat="44.47212" lon="0.93423">
        <ele>74.64</ele>
        <time>2014-05-10T13:07:59Z</time>
      </trkpt>
      <trkpt lat="44.47212" lon="0.93423">
        <ele>74.16</ele>
        <time>2014-05-10T13:08:18Z</time>
      </trkpt>
      <trkpt lat="44.47212" lon="0.93422">
        <ele>74.16</ele>
        <time>2014-05-10T13:08:38Z</time>
      </trkpt>
      <trkpt lat="44.47212" lon="0.93421">
        <ele>74.64</ele>
        <time>2014-05-10T13:09:02Z</time>
      </trkpt>
      <trkpt lat="44.47213" lon="0.93421">
        <ele>74.16</ele>
        <time>2014-05-10T13:09:31Z</time>
      </trkpt>
      <trkpt lat="44.47213" lon="0.9342">
        <ele>73.68</ele>
        <time>2014-05-10T13:10:03Z</time>
      </trkpt>
      <trkpt lat="44.47214" lon="0.93422">
        <ele>73.2</ele>
        <time>2014-05-10T13:10:27Z</time>
      </trkpt>
      <trkpt lat="44.47212" lon="0.93423">
        <ele>73.68</ele>
        <time>2014-05-10T13:10:52Z</time>
      </trkpt>
      <trkpt lat="44.47212" lon="0.93425">
        <ele>74.64</ele>
        <time>2014-05-10T13:11:18Z</time>
      </trkpt>
      <trkpt lat="44.47212" lon="0.93424">
        <ele>74.64</ele>
        <time>2014-05-10T13:11:40Z</time>
      </trkpt>
      <trkpt lat="44.4721" lon="0.93425">
        <ele>74.16</ele>
        <time>2014-05-10T13:12:00Z</time>
      </trkpt>
      <trkpt lat="44.47208" lon="0.93424">
        <ele>73.2</ele>
        <time>2014-05-10T13:12:19Z</time>
      </trkpt>
      <trkpt lat="44.47207" lon="0.93422">
        <ele>72.24</ele>
        <time>2014-05-10T13:12:40Z</time>
      </trkpt>
      <trkpt lat="44.47207" lon="0.93423">
        <ele>73.2</ele>
        <time>2014-05-10T13:12:59Z</time>
      </trkpt>
      <trkpt lat="44.47208" lon="0.93423">
        <ele>73.2</ele>
        <time>2014-05-10T13:13:23Z</time>
      </trkpt>
      <trkpt lat="44.47207" lon="0.93422">
        <ele>73.2</ele>
        <time>2014-05-10T13:13:33Z</time>
      </trkpt>
      <trkpt lat="44.47197" lon="0.93431">
        <ele>73.2</ele>
        <time>2014-05-10T13:13:47Z</time>
      </trkpt>
      <trkpt lat="44.47197" lon="0.93431">
        <ele>73.2</ele>
        <time>2014-05-10T13:14:11Z</time>
      </trkpt>
      <trkpt lat="44.47197" lon="0.93431">
        <ele>73.68</ele>
        <time>2014-05-10T13:14:38Z</time>
      </trkpt>
      <trkpt lat="44.47198" lon="0.93431">
        <ele>74.16</ele>
        <time>2014-05-10T13:15:00Z</time>
      </trkpt>
      <trkpt lat="44.47198" lon="0.93431">
        <ele>74.16</ele>
        <time>2014-05-10T13:15:18Z</time>
      </trkpt>
      <trkpt lat="44.47198" lon="0.93431">
        <ele>73.68</ele>
        <time>2014-05-10T13:15:39Z</time>
      </trkpt>
      <trkpt lat="44.47197" lon="0.93431">
        <ele>73.2</ele>
        <time>2014-05-10T13:16:06Z</time>
      </trkpt>
      <trkpt lat="44.47197" lon="0.93432">
        <ele>72.72</ele>
        <time>2014-05-10T13:16:18Z</time>
      </trkpt>
      <trkpt lat="44.47194" lon="0.93452">
        <ele>73.2</ele>
        <time>2014-05-10T13:16:28Z</time>
      </trkpt>
      <trkpt lat="44.47193" lon="0.93454">
        <ele>73.68</ele>
        <time>2014-05-10T13:16:29Z</time>
      </trkpt>
      <trkpt lat="44.47192" lon="0.93456">
        <ele>73.68</ele>
        <time>2014-05-10T13:16:30Z</time>
      </trkpt>
      <trkpt lat="44.47191" lon="0.93458">
        <ele>74.16</ele>
        <time>2014-05-10T13:16:31Z</time>
      </trkpt>
      <trkpt lat="44.47189" lon="0.93458">
        <ele>74.16</ele>
        <time>2014-05-10T13:16:32Z</time>
      </trkpt>
      <trkpt lat="44.47187" lon="0.9346">
        <ele>74.16</ele>
        <time>2014-05-10T13:16:33Z</time>
      </trkpt>
      <trkpt lat="44.47184" lon="0.93461">
        <ele>74.16</ele>
        <time>2014-05-10T13:16:34Z</time>
      </trkpt>
      <trkpt lat="44.4714" lon="0.93481">
        <ele>73.68</ele>
        <time>2014-05-10T13:16:49Z</time>
      </trkpt>
      <trkpt lat="44.47111" lon="0.93491">
        <ele>72.24</ele>
        <time>2014-05-10T13:17:03Z</time>
      </trkpt>
      <trkpt lat="44.4711" lon="0.93492">
        <ele>70.79</ele>
        <time>2014-05-10T13:17:24Z</time>
      </trkpt>
      <trkpt lat="44.47109" lon="0.93491">
        <ele>70.79</ele>
        <time>2014-05-10T13:17:28Z</time>
      </trkpt>
      <trkpt lat="44.47108" lon="0.9349">
        <ele>70.79</ele>
        <time>2014-05-10T13:17:29Z</time>
      </trkpt>
      <trkpt lat="44.47107" lon="0.93488">
        <ele>70.79</ele>
        <time>2014-05-10T13:17:30Z</time>
      </trkpt>
      <trkpt lat="44.47095" lon="0.93475">
        <ele>71.27</ele>
        <time>2014-05-10T13:17:36Z</time>
      </trkpt>
      <trkpt lat="44.47092" lon="0.93476">
        <ele>71.27</ele>
        <time>2014-05-10T13:17:37Z</time>
      </trkpt>
      <trkpt lat="44.47089" lon="0.93477">
        <ele>71.27</ele>
        <time>2014-05-10T13:17:38Z</time>
      </trkpt>
      <trkpt lat="44.47086" lon="0.9348">
        <ele>71.27</ele>
        <time>2014-05-10T13:17:39Z</time>
      </trkpt>
      <trkpt lat="44.47083" lon="0.93482">
        <ele>71.76</ele>
        <time>2014-05-10T13:17:40Z</time>
      </trkpt>
      <trkpt lat="44.47019" lon="0.93543">
        <ele>72.72</ele>
        <time>2014-05-10T13:17:58Z</time>
      </trkpt>
      <trkpt lat="44.46966" lon="0.9359">
        <ele>73.2</ele>
        <time>2014-05-10T13:18:12Z</time>
      </trkpt>
      <trkpt lat="44.4695" lon="0.93594">
        <ele>74.16</ele>
        <time>2014-05-10T13:18:16Z</time>
      </trkpt>
      <trkpt lat="44.46946" lon="0.93593">
        <ele>74.16</ele>
        <time>2014-05-10T13:18:17Z</time>
      </trkpt>
      <trkpt lat="44.46942" lon="0.93591">
        <ele>74.16</ele>
        <time>2014-05-10T13:18:18Z</time>
      </trkpt>
      <trkpt lat="44.46938" lon="0.93589">
        <ele>74.16</ele>
        <time>2014-05-10T13:18:19Z</time>
      </trkpt>
      <trkpt lat="44.46934" lon="0.93587">
        <ele>74.16</ele>
        <time>2014-05-10T13:18:20Z</time>
      </trkpt>
      <trkpt lat="44.46929" lon="0.93586">
        <ele>74.16</ele>
        <time>2014-05-10T13:18:21Z</time>
      </trkpt>
      <trkpt lat="44.46925" lon="0.93584">
        <ele>74.64</ele>
        <time>2014-05-10T13:18:22Z</time>
      </trkpt>
      <trkpt lat="44.46851" lon="0.93554">
        <ele>75.12</ele>
        <time>2014-05-10T13:18:39Z</time>
      </trkpt>
      <trkpt lat="44.46816" lon="0.9354">
        <ele>75.12</ele>
        <time>2014-05-10T13:18:47Z</time>
      </trkpt>
      <trkpt lat="44.46812" lon="0.93541">
        <ele>74.64</ele>
        <time>2014-05-10T13:18:48Z</time>
      </trkpt>
      <trkpt lat="44.46808" lon="0.93543">
        <ele>74.64</ele>
        <time>2014-05-10T13:18:49Z</time>
      </trkpt>
      <trkpt lat="44.46806" lon="0.93547">
        <ele>74.64</ele>
        <time>2014-05-10T13:18:50Z</time>
      </trkpt>
      <trkpt lat="44.46796" lon="0.93587">
        <ele>76.08</ele>
        <time>2014-05-10T13:18:58Z</time>
      </trkpt>
      <trkpt lat="44.46797" lon="0.93593">
        <ele>77.04</ele>
        <time>2014-05-10T13:19:00Z</time>
      </trkpt>
      <trkpt lat="44.46799" lon="0.93596">
        <ele>77.04</ele>
        <time>2014-05-10T13:19:01Z</time>
      </trkpt>
      <trkpt lat="44.46802" lon="0.93597">
        <ele>77.04</ele>
        <time>2014-05-10T13:19:02Z</time>
      </trkpt>
      <trkpt lat="44.46806" lon="0.93598">
        <ele>77.04</ele>
        <time>2014-05-10T13:19:03Z</time>
      </trkpt>
      <trkpt lat="44.46855" lon="0.93621">
        <ele>78.97</ele>
        <time>2014-05-10T13:19:16Z</time>
      </trkpt>
      <trkpt lat="44.46856" lon="0.93622">
        <ele>79.45</ele>
        <time>2014-05-10T13:19:26Z</time>
      </trkpt>
      <trkpt lat="44.46855" lon="0.93624">
        <ele>79.45</ele>
        <time>2014-05-10T13:19:43Z</time>
      </trkpt>
      <trkpt lat="44.46856" lon="0.93626">
        <ele>79.45</ele>
        <time>2014-05-10T13:19:44Z</time>
      </trkpt>
      <trkpt lat="44.46856" lon="0.93629">
        <ele>79.45</ele>
        <time>2014-05-10T13:19:45Z</time>
      </trkpt>
      <trkpt lat="44.46857" lon="0.93644">
        <ele>79.45</ele>
        <time>2014-05-10T13:19:49Z</time>
      </trkpt>
      <trkpt lat="44.46831" lon="0.93725">
        <ele>81.37</ele>
        <time>2014-05-10T13:20:04Z</time>
      </trkpt>
      <trkpt lat="44.46788" lon="0.93854">
        <ele>82.33</ele>
        <time>2014-05-10T13:20:26Z</time>
      </trkpt>
      <trkpt lat="44.46745" lon="0.93977">
        <ele>81.85</ele>
        <time>2014-05-10T13:20:46Z</time>
      </trkpt>
      <trkpt lat="44.4673" lon="0.94021">
        <ele>82.33</ele>
        <time>2014-05-10T13:20:53Z</time>
      </trkpt>
      <trkpt lat="44.46726" lon="0.94025">
        <ele>82.33</ele>
        <time>2014-05-10T13:20:54Z</time>
      </trkpt>
      <trkpt lat="44.46722" lon="0.94028">
        <ele>82.33</ele>
        <time>2014-05-10T13:20:55Z</time>
      </trkpt>
      <trkpt lat="44.46717" lon="0.94028">
        <ele>82.33</ele>
        <time>2014-05-10T13:20:56Z</time>
      </trkpt>
      <trkpt lat="44.46712" lon="0.94027">
        <ele>82.81</ele>
        <time>2014-05-10T13:20:57Z</time>
      </trkpt>
      <trkpt lat="44.46708" lon="0.94025">
        <ele>82.81</ele>
        <time>2014-05-10T13:20:58Z</time>
      </trkpt>
      <trkpt lat="44.46704" lon="0.94024">
        <ele>82.81</ele>
        <time>2014-05-10T13:20:59Z</time>
      </trkpt>
      <trkpt lat="44.46633" lon="0.94">
        <ele>84.25</ele>
        <time>2014-05-10T13:21:15Z</time>
      </trkpt>
      <trkpt lat="44.46628" lon="0.94001">
        <ele>84.25</ele>
        <time>2014-05-10T13:21:16Z</time>
      </trkpt>
      <trkpt lat="44.46619" lon="0.94003">
        <ele>84.73</ele>
        <time>2014-05-10T13:21:18Z</time>
      </trkpt>
      <trkpt lat="44.46615" lon="0.94005">
        <ele>85.21</ele>
        <time>2014-05-10T13:21:19Z</time>
      </trkpt>
      <trkpt lat="44.4661" lon="0.94008">
        <ele>85.21</ele>
        <time>2014-05-10T13:21:20Z</time>
      </trkpt>
      <trkpt lat="44.46515" lon="0.94052">
        <ele>85.21</ele>
        <time>2014-05-10T13:21:40Z</time>
      </trkpt>
      <trkpt lat="44.4644" lon="0.94127">
        <ele>83.77</ele>
        <time>2014-05-10T13:21:57Z</time>
      </trkpt>
      <trkpt lat="44.46339" lon="0.94238">
        <ele>83.77</ele>
        <time>2014-05-10T13:22:19Z</time>
      </trkpt>
      <trkpt lat="44.46241" lon="0.94344">
        <ele>84.73</ele>
        <time>2014-05-10T13:22:40Z</time>
      </trkpt>
      <trkpt lat="44.4623" lon="0.94357">
        <ele>84.73</ele>
        <time>2014-05-10T13:22:43Z</time>
      </trkpt>
      <trkpt lat="44.46228" lon="0.94362">
        <ele>84.73</ele>
        <time>2014-05-10T13:22:44Z</time>
      </trkpt>
      <trkpt lat="44.46227" lon="0.94366">
        <ele>84.73</ele>
        <time>2014-05-10T13:22:45Z</time>
      </trkpt>
      <trkpt lat="44.46205" lon="0.94427">
        <ele>85.69</ele>
        <time>2014-05-10T13:22:59Z</time>
      </trkpt>
      <trkpt lat="44.46198" lon="0.94452">
        <ele>86.18</ele>
        <time>2014-05-10T13:23:04Z</time>
      </trkpt>
      <trkpt lat="44.46239" lon="0.94508">
        <ele>85.69</ele>
        <time>2014-05-10T13:23:17Z</time>
      </trkpt>
      <trkpt lat="44.46269" lon="0.9455">
        <ele>85.21</ele>
        <time>2014-05-10T13:23:26Z</time>
      </trkpt>
      <trkpt lat="44.46302" lon="0.94595">
        <ele>85.21</ele>
        <time>2014-05-10T13:23:36Z</time>
      </trkpt>
      <trkpt lat="44.46364" lon="0.94677">
        <ele>87.62</ele>
        <time>2014-05-10T13:23:54Z</time>
      </trkpt>
      <trkpt lat="44.46385" lon="0.94706">
        <ele>89.06</ele>
        <time>2014-05-10T13:24:03Z</time>
      </trkpt>
      <trkpt lat="44.46384" lon="0.94708">
        <ele>89.06</ele>
        <time>2014-05-10T13:24:04Z</time>
      </trkpt>
      <trkpt lat="44.46382" lon="0.94709">
        <ele>89.06</ele>
        <time>2014-05-10T13:24:19Z</time>
      </trkpt>
      <trkpt lat="44.46381" lon="0.94709">
        <ele>89.54</ele>
        <time>2014-05-10T13:24:46Z</time>
      </trkpt>
      <trkpt lat="44.46361" lon="0.94742">
        <ele>90.02</ele>
        <time>2014-05-10T13:24:56Z</time>
      </trkpt>
      <trkpt lat="44.46333" lon="0.94801">
        <ele>90.98</ele>
        <time>2014-05-10T13:25:07Z</time>
      </trkpt>
      <trkpt lat="44.46331" lon="0.94806">
        <ele>90.98</ele>
        <time>2014-05-10T13:25:08Z</time>
      </trkpt>
      <trkpt lat="44.46328" lon="0.94812">
        <ele>90.98</ele>
        <time>2014-05-10T13:25:09Z</time>
      </trkpt>
      <trkpt lat="44.46291" lon="0.9491">
        <ele>88.1</ele>
        <time>2014-05-10T13:25:22Z</time>
      </trkpt>
      <trkpt lat="44.46249" lon="0.9503">
        <ele>87.14</ele>
        <time>2014-05-10T13:25:36Z</time>
      </trkpt>
      <trkpt lat="44.46245" lon="0.95036">
        <ele>87.14</ele>
        <time>2014-05-10T13:25:37Z</time>
      </trkpt>
      <trkpt lat="44.46176" lon="0.95089">
        <ele>88.1</ele>
        <time>2014-05-10T13:25:50Z</time>
      </trkpt>
      <trkpt lat="44.46086" lon="0.95148">
        <ele>89.54</ele>
        <time>2014-05-10T13:26:06Z</time>
      </trkpt>
      <trkpt lat="44.46011" lon="0.95235">
        <ele>90.02</ele>
        <time>2014-05-10T13:26:22Z</time>
      </trkpt>
      <trkpt lat="44.46006" lon="0.9524">
        <ele>90.02</ele>
        <time>2014-05-10T13:26:23Z</time>
      </trkpt>
      <trkpt lat="44.45992" lon="0.95254">
        <ele>90.5</ele>
        <time>2014-05-10T13:26:26Z</time>
      </trkpt>
      <trkpt lat="44.45967" lon="0.95278">
        <ele>91.46</ele>
        <time>2014-05-10T13:26:32Z</time>
      </trkpt>
      <trkpt lat="44.45936" lon="0.95299">
        <ele>91.46</ele>
        <time>2014-05-10T13:26:39Z</time>
      </trkpt>
      <trkpt lat="44.45918" lon="0.95299">
        <ele>91.94</ele>
        <time>2014-05-10T13:26:43Z</time>
      </trkpt>
      <trkpt lat="44.45907" lon="0.95294">
        <ele>91.94</ele>
        <time>2014-05-10T13:26:46Z</time>
      </trkpt>
      <trkpt lat="44.45898" lon="0.95293">
        <ele>91.94</ele>
        <time>2014-05-10T13:26:48Z</time>
      </trkpt>
      <trkpt lat="44.45881" lon="0.95298">
        <ele>92.42</ele>
        <time>2014-05-10T13:26:52Z</time>
      </trkpt>
      <trkpt lat="44.45838" lon="0.95325">
        <ele>93.87</ele>
        <time>2014-05-10T13:27:02Z</time>
      </trkpt>
      <trkpt lat="44.45753" lon="0.95381">
        <ele>95.79</ele>
        <time>2014-05-10T13:27:21Z</time>
      </trkpt>
      <trkpt lat="44.45672" lon="0.95441">
        <ele>97.71</ele>
        <time>2014-05-10T13:27:38Z</time>
      </trkpt>
      <trkpt lat="44.45598" lon="0.95509">
        <ele>98.19</ele>
        <time>2014-05-10T13:27:54Z</time>
      </trkpt>
      <trkpt lat="44.4552" lon="0.95599">
        <ele>100.11</ele>
        <time>2014-05-10T13:28:12Z</time>
      </trkpt>
      <trkpt lat="44.45464" lon="0.95679">
        <ele>99.63</ele>
        <time>2014-05-10T13:28:27Z</time>
      </trkpt>
      <trkpt lat="44.45406" lon="0.95785">
        <ele>100.11</ele>
        <time>2014-05-10T13:28:44Z</time>
      </trkpt>
      <trkpt lat="44.45377" lon="0.95833">
        <ele>99.63</ele>
        <time>2014-05-10T13:28:55Z</time>
      </trkpt>
      <trkpt lat="44.45378" lon="0.95833">
        <ele>101.08</ele>
        <time>2014-05-10T13:29:11Z</time>
      </trkpt>
      <trkpt lat="44.45378" lon="0.95834">
        <ele>100.11</ele>
        <time>2014-05-10T13:29:35Z</time>
      </trkpt>
      <trkpt lat="44.45378" lon="0.95836">
        <ele>100.11</ele>
        <time>2014-05-10T13:29:46Z</time>
      </trkpt>
      <trkpt lat="44.45377" lon="0.95839">
        <ele>100.11</ele>
        <time>2014-05-10T13:29:47Z</time>
      </trkpt>
      <trkpt lat="44.45378" lon="0.95842">
        <ele>100.11</ele>
        <time>2014-05-10T13:29:48Z</time>
      </trkpt>
      <trkpt lat="44.45379" lon="0.95846">
        <ele>99.63</ele>
        <time>2014-05-10T13:29:49Z</time>
      </trkpt>
      <trkpt lat="44.45381" lon="0.9585">
        <ele>99.63</ele>
        <time>2014-05-10T13:29:50Z</time>
      </trkpt>
      <trkpt lat="44.45386" lon="0.95861">
        <ele>99.63</ele>
        <time>2014-05-10T13:29:52Z</time>
      </trkpt>
      <trkpt lat="44.45388" lon="0.95867">
        <ele>99.15</ele>
        <time>2014-05-10T13:29:53Z</time>
      </trkpt>
      <trkpt lat="44.45391" lon="0.9588">
        <ele>99.15</ele>
        <time>2014-05-10T13:29:55Z</time>
      </trkpt>
      <trkpt lat="44.45391" lon="0.95886">
        <ele>99.15</ele>
        <time>2014-05-10T13:29:56Z</time>
      </trkpt>
      <trkpt lat="44.45388" lon="0.95892">
        <ele>99.15</ele>
        <time>2014-05-10T13:29:57Z</time>
      </trkpt>
      <trkpt lat="44.45367" lon="0.9593">
        <ele>98.67</ele>
        <time>2014-05-10T13:30:04Z</time>
      </trkpt>
      <trkpt lat="44.45354" lon="0.95945">
        <ele>98.19</ele>
        <time>2014-05-10T13:30:07Z</time>
      </trkpt>
      <trkpt lat="44.45339" lon="0.95954">
        <ele>98.67</ele>
        <time>2014-05-10T13:30:10Z</time>
      </trkpt>
      <trkpt lat="44.45268" lon="0.95985">
        <ele>101.08</ele>
        <time>2014-05-10T13:30:24Z</time>
      </trkpt>
      <trkpt lat="44.45263" lon="0.95988">
        <ele>101.08</ele>
        <time>2014-05-10T13:30:25Z</time>
      </trkpt>
      <trkpt lat="44.45259" lon="0.95992">
        <ele>101.56</ele>
        <time>2014-05-10T13:30:26Z</time>
      </trkpt>
      <trkpt lat="44.45251" lon="0.96">
        <ele>102.04</ele>
        <time>2014-05-10T13:30:28Z</time>
      </trkpt>
      <trkpt lat="44.45177" lon="0.9607">
        <ele>104.92</ele>
        <time>2014-05-10T13:30:46Z</time>
      </trkpt>
      <trkpt lat="44.451" lon="0.96143">
        <ele>107.32</ele>
        <time>2014-05-10T13:31:04Z</time>
      </trkpt>
      <trkpt lat="44.45042" lon="0.96206">
        <ele>109.25</ele>
        <time>2014-05-10T13:31:20Z</time>
      </trkpt>
      <trkpt lat="44.44989" lon="0.96277">
        <ele>107.81</ele>
        <time>2014-05-10T13:31:32Z</time>
      </trkpt>
      <trkpt lat="44.44978" lon="0.96296">
        <ele>106.84</ele>
        <time>2014-05-10T13:31:34Z</time>
      </trkpt>
      <trkpt lat="44.44974" lon="0.96307">
        <ele>105.88</ele>
        <time>2014-05-10T13:31:35Z</time>
      </trkpt>
      <trkpt lat="44.4497" lon="0.96318">
        <ele>105.88</ele>
        <time>2014-05-10T13:31:36Z</time>
      </trkpt>
      <trkpt lat="44.44961" lon="0.96349">
        <ele>104.44</ele>
        <time>2014-05-10T13:31:39Z</time>
      </trkpt>
      <trkpt lat="44.44959" lon="0.96357">
        <ele>103.96</ele>
        <time>2014-05-10T13:31:40Z</time>
      </trkpt>
      <trkpt lat="44.4494" lon="0.96413">
        <ele>104.92</ele>
        <time>2014-05-10T13:31:50Z</time>
      </trkpt>
      <trkpt lat="44.44941" lon="0.96415">
        <ele>105.88</ele>
        <time>2014-05-10T13:32:04Z</time>
      </trkpt>
      <trkpt lat="44.44941" lon="0.96416">
        <ele>105.88</ele>
        <time>2014-05-10T13:32:07Z</time>
      </trkpt>
      <trkpt lat="44.44941" lon="0.96418">
        <ele>105.88</ele>
        <time>2014-05-10T13:32:08Z</time>
      </trkpt>
      <trkpt lat="44.44942" lon="0.96421">
        <ele>106.36</ele>
        <time>2014-05-10T13:32:09Z</time>
      </trkpt>
      <trkpt lat="44.44944" lon="0.96424">
        <ele>105.88</ele>
        <time>2014-05-10T13:32:10Z</time>
      </trkpt>
      <trkpt lat="44.44947" lon="0.96428">
        <ele>105.88</ele>
        <time>2014-05-10T13:32:11Z</time>
      </trkpt>
      <trkpt lat="44.44951" lon="0.96431">
        <ele>105.88</ele>
        <time>2014-05-10T13:32:12Z</time>
      </trkpt>
      <trkpt lat="44.44955" lon="0.96436">
        <ele>105.4</ele>
        <time>2014-05-10T13:32:13Z</time>
      </trkpt>
      <trkpt lat="44.44959" lon="0.96441">
        <ele>105.4</ele>
        <time>2014-05-10T13:32:14Z</time>
      </trkpt>
      <trkpt lat="44.45025" lon="0.96512">
        <ele>101.56</ele>
        <time>2014-05-10T13:32:27Z</time>
      </trkpt>
      <trkpt lat="44.4504" lon="0.96532">
        <ele>101.56</ele>
        <time>2014-05-10T13:32:35Z</time>
      </trkpt>
      <trkpt lat="44.4504" lon="0.96532">
        <ele>101.56</ele>
        <time>2014-05-10T13:32:50Z</time>
      </trkpt>
      <trkpt lat="44.45045" lon="0.96537">
        <ele>101.56</ele>
        <time>2014-05-10T13:32:56Z</time>
      </trkpt>
      <trkpt lat="44.45049" lon="0.96538">
        <ele>102.04</ele>
        <time>2014-05-10T13:32:57Z</time>
      </trkpt>
      <trkpt lat="44.45057" lon="0.96537">
        <ele>102.52</ele>
        <time>2014-05-10T13:32:59Z</time>
      </trkpt>
      <trkpt lat="44.45104" lon="0.96534">
        <ele>103</ele>
        <time>2014-05-10T13:33:09Z</time>
      </trkpt>
      <trkpt lat="44.45109" lon="0.96533">
        <ele>103</ele>
        <time>2014-05-10T13:33:10Z</time>
      </trkpt>
      <trkpt lat="44.45119" lon="0.96533">
        <ele>103</ele>
        <time>2014-05-10T13:33:12Z</time>
      </trkpt>
      <trkpt lat="44.45123" lon="0.96534">
        <ele>103</ele>
        <time>2014-05-10T13:33:13Z</time>
      </trkpt>
      <trkpt lat="44.45126" lon="0.96537">
        <ele>103</ele>
        <time>2014-05-10T13:33:14Z</time>
      </trkpt>
      <trkpt lat="44.45126" lon="0.96543">
        <ele>103</ele>
        <time>2014-05-10T13:33:15Z</time>
      </trkpt>
      <trkpt lat="44.45124" lon="0.96548">
        <ele>103</ele>
        <time>2014-05-10T13:33:16Z</time>
      </trkpt>
      <trkpt lat="44.45122" lon="0.96553">
        <ele>103</ele>
        <time>2014-05-10T13:33:17Z</time>
      </trkpt>
      <trkpt lat="44.45119" lon="0.96559">
        <ele>103</ele>
        <time>2014-05-10T13:33:18Z</time>
      </trkpt>
      <trkpt lat="44.45117" lon="0.96564">
        <ele>103</ele>
        <time>2014-05-10T13:33:19Z</time>
      </trkpt>
      <trkpt lat="44.45115" lon="0.9657">
        <ele>103</ele>
        <time>2014-05-10T13:33:20Z</time>
      </trkpt>
      <trkpt lat="44.45088" lon="0.96646">
        <ele>103.48</ele>
        <time>2014-05-10T13:33:34Z</time>
      </trkpt>
      <trkpt lat="44.45061" lon="0.96706">
        <ele>104.92</ele>
        <time>2014-05-10T13:33:45Z</time>
      </trkpt>
      <trkpt lat="44.45016" lon="0.96797">
        <ele>104.92</ele>
        <time>2014-05-10T13:33:59Z</time>
      </trkpt>
      <trkpt lat="44.44977" lon="0.96871">
        <ele>107.81</ele>
        <time>2014-05-10T13:34:11Z</time>
      </trkpt>
      <trkpt lat="44.44949" lon="0.96922">
        <ele>108.77</ele>
        <time>2014-05-10T13:34:20Z</time>
      </trkpt>
      <trkpt lat="44.44922" lon="0.96978">
        <ele>109.73</ele>
        <time>2014-05-10T13:34:29Z</time>
      </trkpt>
      <trkpt lat="44.44918" lon="0.96984">
        <ele>109.73</ele>
        <time>2014-05-10T13:34:30Z</time>
      </trkpt>
      <trkpt lat="44.4487" lon="0.97078">
        <ele>110.21</ele>
        <time>2014-05-10T13:34:45Z</time>
      </trkpt>
      <trkpt lat="44.44864" lon="0.97091">
        <ele>110.69</ele>
        <time>2014-05-10T13:34:47Z</time>
      </trkpt>
      <trkpt lat="44.44815" lon="0.97181">
        <ele>112.61</ele>
        <time>2014-05-10T13:35:01Z</time>
      </trkpt>
      <trkpt lat="44.44743" lon="0.97296">
        <ele>112.61</ele>
        <time>2014-05-10T13:35:19Z</time>
      </trkpt>
      <trkpt lat="44.44671" lon="0.97416">
        <ele>110.21</ele>
        <time>2014-05-10T13:35:35Z</time>
      </trkpt>
      <trkpt lat="44.44621" lon="0.97585">
        <ele>108.77</ele>
        <time>2014-05-10T13:35:53Z</time>
      </trkpt>
      <trkpt lat="44.44604" lon="0.97713">
        <ele>110.69</ele>
        <time>2014-05-10T13:36:07Z</time>
      </trkpt>
      <trkpt lat="44.44597" lon="0.97785">
        <ele>112.61</ele>
        <time>2014-05-10T13:36:17Z</time>
      </trkpt>
      <trkpt lat="44.44587" lon="0.97824">
        <ele>113.09</ele>
        <time>2014-05-10T13:36:24Z</time>
      </trkpt>
      <trkpt lat="44.44585" lon="0.97897">
        <ele>113.57</ele>
        <time>2014-05-10T13:36:37Z</time>
      </trkpt>
      <trkpt lat="44.44584" lon="0.97904">
        <ele>113.57</ele>
        <time>2014-05-10T13:36:38Z</time>
      </trkpt>
      <trkpt lat="44.44583" lon="0.97911">
        <ele>113.09</ele>
        <time>2014-05-10T13:36:39Z</time>
      </trkpt>
      <trkpt lat="44.44582" lon="0.97918">
        <ele>113.09</ele>
        <time>2014-05-10T13:36:40Z</time>
      </trkpt>
      <trkpt lat="44.4458" lon="0.97924">
        <ele>113.09</ele>
        <time>2014-05-10T13:36:41Z</time>
      </trkpt>
      <trkpt lat="44.44578" lon="0.9793">
        <ele>113.09</ele>
        <time>2014-05-10T13:36:42Z</time>
      </trkpt>
      <trkpt lat="44.44575" lon="0.97936">
        <ele>113.09</ele>
        <time>2014-05-10T13:36:43Z</time>
      </trkpt>
      <trkpt lat="44.44572" lon="0.97942">
        <ele>113.09</ele>
        <time>2014-05-10T13:36:44Z</time>
      </trkpt>
      <trkpt lat="44.44569" lon="0.97947">
        <ele>112.61</ele>
        <time>2014-05-10T13:36:45Z</time>
      </trkpt>
      <trkpt lat="44.44536" lon="0.98033">
        <ele>111.17</ele>
        <time>2014-05-10T13:36:58Z</time>
      </trkpt>
      <trkpt lat="44.44527" lon="0.98078">
        <ele>110.21</ele>
        <time>2014-05-10T13:37:04Z</time>
      </trkpt>
      <trkpt lat="44.44525" lon="0.98085">
        <ele>110.21</ele>
        <time>2014-05-10T13:37:05Z</time>
      </trkpt>
      <trkpt lat="44.44493" lon="0.98231">
        <ele>111.17</ele>
        <time>2014-05-10T13:37:25Z</time>
      </trkpt>
      <trkpt lat="44.44472" lon="0.98368">
        <ele>113.09</ele>
        <time>2014-05-10T13:37:43Z</time>
      </trkpt>
      <trkpt lat="44.44475" lon="0.98539">
        <ele>113.09</ele>
        <time>2014-05-10T13:38:04Z</time>
      </trkpt>
      <trkpt lat="44.44499" lon="0.98683">
        <ele>113.09</ele>
        <time>2014-05-10T13:38:22Z</time>
      </trkpt>
      <trkpt lat="44.44535" lon="0.98803">
        <ele>114.05</ele>
        <time>2014-05-10T13:38:39Z</time>
      </trkpt>
      <trkpt lat="44.44548" lon="0.98901">
        <ele>115.01</ele>
        <time>2014-05-10T13:38:52Z</time>
      </trkpt>
      <trkpt lat="44.44554" lon="0.99004">
        <ele>117.42</ele>
        <time>2014-05-10T13:39:05Z</time>
      </trkpt>
      <trkpt lat="44.44561" lon="0.99137">
        <ele>118.38</ele>
        <time>2014-05-10T13:39:21Z</time>
      </trkpt>
      <trkpt lat="44.44561" lon="0.99182">
        <ele>118.38</ele>
        <time>2014-05-10T13:39:26Z</time>
      </trkpt>
      <trkpt lat="44.4456" lon="0.9919">
        <ele>118.38</ele>
        <time>2014-05-10T13:39:27Z</time>
      </trkpt>
      <trkpt lat="44.44558" lon="0.99199">
        <ele>118.38</ele>
        <time>2014-05-10T13:39:28Z</time>
      </trkpt>
      <trkpt lat="44.44555" lon="0.99207">
        <ele>117.9</ele>
        <time>2014-05-10T13:39:29Z</time>
      </trkpt>
      <trkpt lat="44.44552" lon="0.99215">
        <ele>118.38</ele>
        <time>2014-05-10T13:39:30Z</time>
      </trkpt>
      <trkpt lat="44.44548" lon="0.99222">
        <ele>118.38</ele>
        <time>2014-05-10T13:39:31Z</time>
      </trkpt>
      <trkpt lat="44.44543" lon="0.99229">
        <ele>118.38</ele>
        <time>2014-05-10T13:39:32Z</time>
      </trkpt>
      <trkpt lat="44.44538" lon="0.99235">
        <ele>118.38</ele>
        <time>2014-05-10T13:39:33Z</time>
      </trkpt>
      <trkpt lat="44.44532" lon="0.99239">
        <ele>117.9</ele>
        <time>2014-05-10T13:39:34Z</time>
      </trkpt>
      <trkpt lat="44.44526" lon="0.99243">
        <ele>118.38</ele>
        <time>2014-05-10T13:39:35Z</time>
      </trkpt>
      <trkpt lat="44.4452" lon="0.99248">
        <ele>117.9</ele>
        <time>2014-05-10T13:39:36Z</time>
      </trkpt>
      <trkpt lat="44.44515" lon="0.99252">
        <ele>117.9</ele>
        <time>2014-05-10T13:39:37Z</time>
      </trkpt>
      <trkpt lat="44.44424" lon="0.99333">
        <ele>118.86</ele>
        <time>2014-05-10T13:39:55Z</time>
      </trkpt>
      <trkpt lat="44.44351" lon="0.99418">
        <ele>119.82</ele>
        <time>2014-05-10T13:40:11Z</time>
      </trkpt>
      <trkpt lat="44.44278" lon="0.99504">
        <ele>121.74</ele>
        <time>2014-05-10T13:40:28Z</time>
      </trkpt>
      <trkpt lat="44.44231" lon="0.99549">
        <ele>122.22</ele>
        <time>2014-05-10T13:40:39Z</time>
      </trkpt>
      <trkpt lat="44.44226" lon="0.99551">
        <ele>122.22</ele>
        <time>2014-05-10T13:40:40Z</time>
      </trkpt>
      <trkpt lat="44.4422" lon="0.99552">
        <ele>122.22</ele>
        <time>2014-05-10T13:40:41Z</time>
      </trkpt>
      <trkpt lat="44.44215" lon="0.99553">
        <ele>122.71</ele>
        <time>2014-05-10T13:40:42Z</time>
      </trkpt>
      <trkpt lat="44.4421" lon="0.99553">
        <ele>122.71</ele>
        <time>2014-05-10T13:40:43Z</time>
      </trkpt>
      <trkpt lat="44.44159" lon="0.99557">
        <ele>123.19</ele>
        <time>2014-05-10T13:40:56Z</time>
      </trkpt>
      <trkpt lat="44.4415" lon="0.9956">
        <ele>123.67</ele>
        <time>2014-05-10T13:41:07Z</time>
      </trkpt>
      <trkpt lat="44.44149" lon="0.9956">
        <ele>125.59</ele>
        <time>2014-05-10T13:41:26Z</time>
      </trkpt>
      <trkpt lat="44.44149" lon="0.9956">
        <ele>126.07</ele>
        <time>2014-05-10T13:41:49Z</time>
      </trkpt>
      <trkpt lat="44.44149" lon="0.99561">
        <ele>125.59</ele>
        <time>2014-05-10T13:42:04Z</time>
      </trkpt>
      <trkpt lat="44.44149" lon="0.99561">
        <ele>125.11</ele>
        <time>2014-05-10T13:42:28Z</time>
      </trkpt>
      <trkpt lat="44.4415" lon="0.99563">
        <ele>124.63</ele>
        <time>2014-05-10T13:42:51Z</time>
      </trkpt>
      <trkpt lat="44.44151" lon="0.99563">
        <ele>124.63</ele>
        <time>2014-05-10T13:42:52Z</time>
      </trkpt>
      <trkpt lat="44.44153" lon="0.99562">
        <ele>124.63</ele>
        <time>2014-05-10T13:42:53Z</time>
      </trkpt>
      <trkpt lat="44.44154" lon="0.99561">
        <ele>124.63</ele>
        <time>2014-05-10T13:42:54Z</time>
      </trkpt>
      <trkpt lat="44.44156" lon="0.99561">
        <ele>126.07</ele>
        <time>2014-05-10T13:43:07Z</time>
      </trkpt>
      <trkpt lat="44.44157" lon="0.9956">
        <ele>125.11</ele>
        <time>2014-05-10T13:43:32Z</time>
      </trkpt>
      <trkpt lat="44.44156" lon="0.99559">
        <ele>125.11</ele>
        <time>2014-05-10T13:44:04Z</time>
      </trkpt>
      <trkpt lat="44.44154" lon="0.9956">
        <ele>124.63</ele>
        <time>2014-05-10T13:44:16Z</time>
      </trkpt>
      <trkpt lat="44.44154" lon="0.9956">
        <ele>124.63</ele>
        <time>2014-05-10T13:44:30Z</time>
      </trkpt>
      <trkpt lat="44.44154" lon="0.99561">
        <ele>124.63</ele>
        <time>2014-05-10T13:44:52Z</time>
      </trkpt>
      <trkpt lat="44.44155" lon="0.9956">
        <ele>124.63</ele>
        <time>2014-05-10T13:45:16Z</time>
      </trkpt>
      <trkpt lat="44.44155" lon="0.99561">
        <ele>125.11</ele>
        <time>2014-05-10T13:45:49Z</time>
      </trkpt>
      <trkpt lat="44.44154" lon="0.99563">
        <ele>124.63</ele>
        <time>2014-05-10T13:46:15Z</time>
      </trkpt>
      <trkpt lat="44.44154" lon="0.99563">
        <ele>124.15</ele>
        <time>2014-05-10T13:46:41Z</time>
      </trkpt>
      <trkpt lat="44.44154" lon="0.99563">
        <ele>124.15</ele>
        <time>2014-05-10T13:47:08Z</time>
      </trkpt>
      <trkpt lat="44.44153" lon="0.99563">
        <ele>124.15</ele>
        <time>2014-05-10T13:47:21Z</time>
      </trkpt>
      <trkpt lat="44.44152" lon="0.99563">
        <ele>124.63</ele>
        <time>2014-05-10T13:47:22Z</time>
      </trkpt>
      <trkpt lat="44.4415" lon="0.99563">
        <ele>124.63</ele>
        <time>2014-05-10T13:47:23Z</time>
      </trkpt>
      <trkpt lat="44.44149" lon="0.99563">
        <ele>124.63</ele>
        <time>2014-05-10T13:47:24Z</time>
      </trkpt>
      <trkpt lat="44.44147" lon="0.99563">
        <ele>124.63</ele>
        <time>2014-05-10T13:47:25Z</time>
      </trkpt>
      <trkpt lat="44.44144" lon="0.99562">
        <ele>124.15</ele>
        <time>2014-05-10T13:47:26Z</time>
      </trkpt>
      <trkpt lat="44.44107" lon="0.99558">
        <ele>124.15</ele>
        <time>2014-05-10T13:47:36Z</time>
      </trkpt>
      <trkpt lat="44.44046" lon="0.9957">
        <ele>124.63</ele>
        <time>2014-05-10T13:47:51Z</time>
      </trkpt>
      <trkpt lat="44.44025" lon="0.99574">
        <ele>125.59</ele>
        <time>2014-05-10T13:48:01Z</time>
      </trkpt>
      <trkpt lat="44.43995" lon="0.99586">
        <ele>125.59</ele>
        <time>2014-05-10T13:48:12Z</time>
      </trkpt>
      <trkpt lat="44.43952" lon="0.99607">
        <ele>125.11</ele>
        <time>2014-05-10T13:48:25Z</time>
      </trkpt>
      <trkpt lat="44.43921" lon="0.99619">
        <ele>126.55</ele>
        <time>2014-05-10T13:48:38Z</time>
      </trkpt>
      <trkpt lat="44.43885" lon="0.99616">
        <ele>128.47</ele>
        <time>2014-05-10T13:48:50Z</time>
      </trkpt>
      <trkpt lat="44.43857" lon="0.99605">
        <ele>132.32</ele>
        <time>2014-05-10T13:49:01Z</time>
      </trkpt>
      <trkpt lat="44.4381" lon="0.99583">
        <ele>133.76</ele>
        <time>2014-05-10T13:49:16Z</time>
      </trkpt>
      <trkpt lat="44.43773" lon="0.99574">
        <ele>135.68</ele>
        <time>2014-05-10T13:49:28Z</time>
      </trkpt>
      <trkpt lat="44.43748" lon="0.99572">
        <ele>137.13</ele>
        <time>2014-05-10T13:49:37Z</time>
      </trkpt>
      <trkpt lat="44.43693" lon="0.99562">
        <ele>138.09</ele>
        <time>2014-05-10T13:49:52Z</time>
      </trkpt>
      <trkpt lat="44.43659" lon="0.99552">
        <ele>138.57</ele>
        <time>2014-05-10T13:50:01Z</time>
      </trkpt>
      <trkpt lat="44.43601" lon="0.99537">
        <ele>139.53</ele>
        <time>2014-05-10T13:50:16Z</time>
      </trkpt>
      <trkpt lat="44.43573" lon="0.99532">
        <ele>140.01</ele>
        <time>2014-05-10T13:50:27Z</time>
      </trkpt>
      <trkpt lat="44.4353" lon="0.99533">
        <ele>140.01</ele>
        <time>2014-05-10T13:50:40Z</time>
      </trkpt>
      <trkpt lat="44.4348" lon="0.99531">
        <ele>142.89</ele>
        <time>2014-05-10T13:50:53Z</time>
      </trkpt>
      <trkpt lat="44.43432" lon="0.99517">
        <ele>144.82</ele>
        <time>2014-05-10T13:51:05Z</time>
      </trkpt>
      <trkpt lat="44.43394" lon="0.99496">
        <ele>143.85</ele>
        <time>2014-05-10T13:51:17Z</time>
      </trkpt>
      <trkpt lat="44.43366" lon="0.99471">
        <ele>142.89</ele>
        <time>2014-05-10T13:51:29Z</time>
      </trkpt>
      <trkpt lat="44.43352" lon="0.99453">
        <ele>143.37</ele>
        <time>2014-05-10T13:51:38Z</time>
      </trkpt>
      <trkpt lat="44.43324" lon="0.99415">
        <ele>145.78</ele>
        <time>2014-05-10T13:51:52Z</time>
      </trkpt>
      <trkpt lat="44.43292" lon="0.99371">
        <ele>146.26</ele>
        <time>2014-05-10T13:52:05Z</time>
      </trkpt>
      <trkpt lat="44.43285" lon="0.99362">
        <ele>146.74</ele>
        <time>2014-05-10T13:52:09Z</time>
      </trkpt>
      <trkpt lat="44.43254" lon="0.99338">
        <ele>148.66</ele>
        <time>2014-05-10T13:52:23Z</time>
      </trkpt>
      <trkpt lat="44.43236" lon="0.9932">
        <ele>148.18</ele>
        <time>2014-05-10T13:52:28Z</time>
      </trkpt>
      <trkpt lat="44.43184" lon="0.99294">
        <ele>147.22</ele>
        <time>2014-05-10T13:52:43Z</time>
      </trkpt>
      <trkpt lat="44.43174" lon="0.99288">
        <ele>147.22</ele>
        <time>2014-05-10T13:52:46Z</time>
      </trkpt>
      <trkpt lat="44.43163" lon="0.99279">
        <ele>147.22</ele>
        <time>2014-05-10T13:52:49Z</time>
      </trkpt>
      <trkpt lat="44.43125" lon="0.99234">
        <ele>147.7</ele>
        <time>2014-05-10T13:53:04Z</time>
      </trkpt>
      <trkpt lat="44.43103" lon="0.99206">
        <ele>147.7</ele>
        <time>2014-05-10T13:53:15Z</time>
      </trkpt>
      <trkpt lat="44.43072" lon="0.99186">
        <ele>148.18</ele>
        <time>2014-05-10T13:53:26Z</time>
      </trkpt>
      <trkpt lat="44.43016" lon="0.99174">
        <ele>149.14</ele>
        <time>2014-05-10T13:53:41Z</time>
      </trkpt>
      <trkpt lat="44.42971" lon="0.99176">
        <ele>151.54</ele>
        <time>2014-05-10T13:53:55Z</time>
      </trkpt>
      <trkpt lat="44.42961" lon="0.9918">
        <ele>152.51</ele>
        <time>2014-05-10T13:54:06Z</time>
      </trkpt>
      <trkpt lat="44.42961" lon="0.9918">
        <ele>152.51</ele>
        <time>2014-05-10T13:54:08Z</time>
      </trkpt>
      <trkpt lat="44.42932" lon="0.99193">
        <ele>151.54</ele>
        <time>2014-05-10T13:54:20Z</time>
      </trkpt>
      <trkpt lat="44.42895" lon="0.9922">
        <ele>150.1</ele>
        <time>2014-05-10T13:54:32Z</time>
      </trkpt>
      <trkpt lat="44.42854" lon="0.9926">
        <ele>152.03</ele>
        <time>2014-05-10T13:54:45Z</time>
      </trkpt>
      <trkpt lat="44.42806" lon="0.99299">
        <ele>155.87</ele>
        <time>2014-05-10T13:54:59Z</time>
      </trkpt>
      <trkpt lat="44.42762" lon="0.99328">
        <ele>157.79</ele>
        <time>2014-05-10T13:55:13Z</time>
      </trkpt>
      <trkpt lat="44.42719" lon="0.99353">
        <ele>157.79</ele>
        <time>2014-05-10T13:55:24Z</time>
      </trkpt>
      <trkpt lat="44.42684" lon="0.99393">
        <ele>160.68</ele>
        <time>2014-05-10T13:55:37Z</time>
      </trkpt>
      <trkpt lat="44.42654" lon="0.99445">
        <ele>159.24</ele>
        <time>2014-05-10T13:55:49Z</time>
      </trkpt>
      <trkpt lat="44.42619" lon="0.99495">
        <ele>160.68</ele>
        <time>2014-05-10T13:56:00Z</time>
      </trkpt>
      <trkpt lat="44.42609" lon="0.99507">
        <ele>161.16</ele>
        <time>2014-05-10T13:56:09Z</time>
      </trkpt>
      <trkpt lat="44.42607" lon="0.99507">
        <ele>162.6</ele>
        <time>2014-05-10T13:56:31Z</time>
      </trkpt>
      <trkpt lat="44.42606" lon="0.9951">
        <ele>164.04</ele>
        <time>2014-05-10T13:56:51Z</time>
      </trkpt>
      <trkpt lat="44.42596" lon="0.99516">
        <ele>163.08</ele>
        <time>2014-05-10T13:56:56Z</time>
      </trkpt>
      <trkpt lat="44.42584" lon="0.9953">
        <ele>161.64</ele>
        <time>2014-05-10T13:57:00Z</time>
      </trkpt>
      <trkpt lat="44.42577" lon="0.99559">
        <ele>160.2</ele>
        <time>2014-05-10T13:57:06Z</time>
      </trkpt>
      <trkpt lat="44.42574" lon="0.9958">
        <ele>159.72</ele>
        <time>2014-05-10T13:57:10Z</time>
      </trkpt>
      <trkpt lat="44.4256" lon="0.99619">
        <ele>157.79</ele>
        <time>2014-05-10T13:57:21Z</time>
      </trkpt>
      <trkpt lat="44.42542" lon="0.99671">
        <ele>159.72</ele>
        <time>2014-05-10T13:57:31Z</time>
      </trkpt>
      <trkpt lat="44.42515" lon="0.99735">
        <ele>162.12</ele>
        <time>2014-05-10T13:57:43Z</time>
      </trkpt>
      <trkpt lat="44.42486" lon="0.99789">
        <ele>164.04</ele>
        <time>2014-05-10T13:57:55Z</time>
      </trkpt>
      <trkpt lat="44.42457" lon="0.99824">
        <ele>165</ele>
        <time>2014-05-10T13:58:05Z</time>
      </trkpt>
      <trkpt lat="44.42421" lon="0.99868">
        <ele>166.45</ele>
        <time>2014-05-10T13:58:19Z</time>
      </trkpt>
      <trkpt lat="44.42382" lon="0.99926">
        <ele>166.93</ele>
        <time>2014-05-10T13:58:36Z</time>
      </trkpt>
      <trkpt lat="44.42362" lon="0.99978">
        <ele>167.89</ele>
        <time>2014-05-10T13:58:50Z</time>
      </trkpt>
      <trkpt lat="44.42353" lon="1.00018">
        <ele>170.77</ele>
        <time>2014-05-10T13:59:02Z</time>
      </trkpt>
      <trkpt lat="44.42346" lon="1.00069">
        <ele>171.25</ele>
        <time>2014-05-10T13:59:13Z</time>
      </trkpt>
      <trkpt lat="44.42337" lon="1.00097">
        <ele>171.73</ele>
        <time>2014-05-10T13:59:24Z</time>
      </trkpt>
      <trkpt lat="44.42336" lon="1.00096">
        <ele>171.25</ele>
        <time>2014-05-10T13:59:25Z</time>
      </trkpt>
      <trkpt lat="44.42335" lon="1.00095">
        <ele>170.77</ele>
        <time>2014-05-10T13:59:26Z</time>
      </trkpt>
      <trkpt lat="44.42308" lon="1.0007">
        <ele>169.33</ele>
        <time>2014-05-10T13:59:39Z</time>
      </trkpt>
      <trkpt lat="44.42298" lon="1.00061">
        <ele>169.33</ele>
        <time>2014-05-10T13:59:49Z</time>
      </trkpt>
      <trkpt lat="44.4227" lon="1.00052">
        <ele>172.21</ele>
        <time>2014-05-10T14:00:01Z</time>
      </trkpt>
      <trkpt lat="44.42231" lon="1.00069">
        <ele>173.66</ele>
        <time>2014-05-10T14:00:17Z</time>
      </trkpt>
      <trkpt lat="44.42201" lon="1.0009">
        <ele>177.5</ele>
        <time>2014-05-10T14:00:31Z</time>
      </trkpt>
      <trkpt lat="44.42163" lon="1.0011">
        <ele>180.87</ele>
        <time>2014-05-10T14:00:48Z</time>
      </trkpt>
      <trkpt lat="44.42128" lon="1.00125">
        <ele>184.23</ele>
        <time>2014-05-10T14:01:04Z</time>
      </trkpt>
      <trkpt lat="44.42122" lon="1.00134">
        <ele>186.63</ele>
        <time>2014-05-10T14:01:09Z</time>
      </trkpt>
      <trkpt lat="44.42116" lon="1.00141">
        <ele>187.11</ele>
        <time>2014-05-10T14:01:13Z</time>
      </trkpt>
      <trkpt lat="44.42098" lon="1.00172">
        <ele>187.59</ele>
        <time>2014-05-10T14:01:26Z</time>
      </trkpt>
      <trkpt lat="44.42073" lon="1.00206">
        <ele>187.59</ele>
        <time>2014-05-10T14:01:39Z</time>
      </trkpt>
      <trkpt lat="44.42053" lon="1.0023">
        <ele>189.04</ele>
        <time>2014-05-10T14:01:49Z</time>
      </trkpt>
      <trkpt lat="44.4203" lon="1.00252">
        <ele>191.44</ele>
        <time>2014-05-10T14:02:00Z</time>
      </trkpt>
      <trkpt lat="44.42005" lon="1.00269">
        <ele>190.96</ele>
        <time>2014-05-10T14:02:12Z</time>
      </trkpt>
      <trkpt lat="44.41979" lon="1.00293">
        <ele>190</ele>
        <time>2014-05-10T14:02:24Z</time>
      </trkpt>
      <trkpt lat="44.41944" lon="1.0032">
        <ele>192.4</ele>
        <time>2014-05-10T14:02:37Z</time>
      </trkpt>
      <trkpt lat="44.41907" lon="1.00339">
        <ele>195.28</ele>
        <time>2014-05-10T14:02:48Z</time>
      </trkpt>
      <trkpt lat="44.41866" lon="1.00358">
        <ele>194.32</ele>
        <time>2014-05-10T14:03:01Z</time>
      </trkpt>
      <trkpt lat="44.41865" lon="1.0036">
        <ele>193.84</ele>
        <time>2014-05-10T14:03:10Z</time>
      </trkpt>
      <trkpt lat="44.41865" lon="1.00362">
        <ele>194.32</ele>
        <time>2014-05-10T14:03:24Z</time>
      </trkpt>
      <trkpt lat="44.41864" lon="1.00364">
        <ele>194.32</ele>
        <time>2014-05-10T14:03:39Z</time>
      </trkpt>
      <trkpt lat="44.41863" lon="1.00363">
        <ele>194.32</ele>
        <time>2014-05-10T14:03:59Z</time>
      </trkpt>
      <trkpt lat="44.41862" lon="1.00364">
        <ele>195.28</ele>
        <time>2014-05-10T14:04:19Z</time>
      </trkpt>
      <trkpt lat="44.41862" lon="1.00366">
        <ele>194.8</ele>
        <time>2014-05-10T14:04:43Z</time>
      </trkpt>
      <trkpt lat="44.41846" lon="1.00392">
        <ele>196.25</ele>
        <time>2014-05-10T14:04:53Z</time>
      </trkpt>
      <trkpt lat="44.41818" lon="1.00442">
        <ele>200.09</ele>
        <time>2014-05-10T14:05:08Z</time>
      </trkpt>
      <trkpt lat="44.41807" lon="1.00491">
        <ele>202.49</ele>
        <time>2014-05-10T14:05:20Z</time>
      </trkpt>
      <trkpt lat="44.41803" lon="1.00539">
        <ele>206.34</ele>
        <time>2014-05-10T14:05:34Z</time>
      </trkpt>
      <trkpt lat="44.41803" lon="1.00541">
        <ele>206.82</ele>
        <time>2014-05-10T14:05:35Z</time>
      </trkpt>
      <trkpt lat="44.41801" lon="1.00542">
        <ele>206.34</ele>
        <time>2014-05-10T14:05:36Z</time>
      </trkpt>
      <trkpt lat="44.41799" lon="1.00542">
        <ele>206.34</ele>
        <time>2014-05-10T14:05:37Z</time>
      </trkpt>
      <trkpt lat="44.41797" lon="1.00543">
        <ele>205.86</ele>
        <time>2014-05-10T14:05:38Z</time>
      </trkpt>
      <trkpt lat="44.41794" lon="1.00543">
        <ele>205.38</ele>
        <time>2014-05-10T14:05:39Z</time>
      </trkpt>
      <trkpt lat="44.41783" lon="1.00543">
        <ele>204.42</ele>
        <time>2014-05-10T14:05:42Z</time>
      </trkpt>
      <trkpt lat="44.4177" lon="1.00543">
        <ele>203.46</ele>
        <time>2014-05-10T14:05:45Z</time>
      </trkpt>
      <trkpt lat="44.41686" lon="1.00536">
        <ele>201.53</ele>
        <time>2014-05-10T14:06:02Z</time>
      </trkpt>
      <trkpt lat="44.41674" lon="1.00537">
        <ele>202.01</ele>
        <time>2014-05-10T14:06:05Z</time>
      </trkpt>
      <trkpt lat="44.4167" lon="1.00536">
        <ele>201.53</ele>
        <time>2014-05-10T14:06:06Z</time>
      </trkpt>
      <trkpt lat="44.41605" lon="1.00501">
        <ele>202.49</ele>
        <time>2014-05-10T14:06:23Z</time>
      </trkpt>
      <trkpt lat="44.41556" lon="1.00454">
        <ele>207.78</ele>
        <time>2014-05-10T14:06:39Z</time>
      </trkpt>
      <trkpt lat="44.41519" lon="1.0043">
        <ele>208.26</ele>
        <time>2014-05-10T14:06:53Z</time>
      </trkpt>
      <trkpt lat="44.41511" lon="1.00429">
        <ele>207.78</ele>
        <time>2014-05-10T14:06:55Z</time>
      </trkpt>
      <trkpt lat="44.41491" lon="1.00431">
        <ele>207.3</ele>
        <time>2014-05-10T14:06:59Z</time>
      </trkpt>
      <trkpt lat="44.41415" lon="1.00465">
        <ele>204.42</ele>
        <time>2014-05-10T14:07:11Z</time>
      </trkpt>
      <trkpt lat="44.414" lon="1.00471">
        <ele>203.94</ele>
        <time>2014-05-10T14:07:13Z</time>
      </trkpt>
      <trkpt lat="44.41372" lon="1.00464">
        <ele>201.53</ele>
        <time>2014-05-10T14:07:17Z</time>
      </trkpt>
      <trkpt lat="44.41359" lon="1.00453">
        <ele>199.61</ele>
        <time>2014-05-10T14:07:19Z</time>
      </trkpt>
      <trkpt lat="44.41279" lon="1.00375">
        <ele>193.36</ele>
        <time>2014-05-10T14:07:32Z</time>
      </trkpt>
      <trkpt lat="44.41236" lon="1.00328">
        <ele>188.08</ele>
        <time>2014-05-10T14:07:41Z</time>
      </trkpt>
      <trkpt lat="44.41235" lon="1.00328">
        <ele>187.59</ele>
        <time>2014-05-10T14:07:51Z</time>
      </trkpt>
      <trkpt lat="44.41234" lon="1.00328">
        <ele>187.11</ele>
        <time>2014-05-10T14:08:20Z</time>
      </trkpt>
      <trkpt lat="44.41221" lon="1.00312">
        <ele>186.15</ele>
        <time>2014-05-10T14:08:31Z</time>
      </trkpt>
      <trkpt lat="44.41218" lon="1.00308">
        <ele>186.15</ele>
        <time>2014-05-10T14:08:32Z</time>
      </trkpt>
      <trkpt lat="44.41207" lon="1.00285">
        <ele>185.67</ele>
        <time>2014-05-10T14:08:36Z</time>
      </trkpt>
      <trkpt lat="44.41197" lon="1.00261">
        <ele>184.23</ele>
        <time>2014-05-10T14:08:39Z</time>
      </trkpt>
      <trkpt lat="44.41167" lon="1.00227">
        <ele>179.42</ele>
        <time>2014-05-10T14:08:44Z</time>
      </trkpt>
      <trkpt lat="44.41137" lon="1.00204">
        <ele>174.62</ele>
        <time>2014-05-10T14:08:49Z</time>
      </trkpt>
      <trkpt lat="44.41111" lon="1.00188">
        <ele>169.81</ele>
        <time>2014-05-10T14:08:57Z</time>
      </trkpt>
      <trkpt lat="44.4111" lon="1.00188">
        <ele>168.85</ele>
        <time>2014-05-10T14:09:12Z</time>
      </trkpt>
      <trkpt lat="44.41107" lon="1.00187">
        <ele>168.37</ele>
        <time>2014-05-10T14:09:20Z</time>
      </trkpt>
      <trkpt lat="44.41083" lon="1.00188">
        <ele>167.41</ele>
        <time>2014-05-10T14:09:29Z</time>
      </trkpt>
      <trkpt lat="44.4108" lon="1.0019">
        <ele>167.41</ele>
        <time>2014-05-10T14:09:30Z</time>
      </trkpt>
      <trkpt lat="44.41078" lon="1.00193">
        <ele>167.41</ele>
        <time>2014-05-10T14:09:31Z</time>
      </trkpt>
      <trkpt lat="44.41045" lon="1.00244">
        <ele>169.33</ele>
        <time>2014-05-10T14:09:44Z</time>
      </trkpt>
      <trkpt lat="44.41033" lon="1.00262">
        <ele>169.33</ele>
        <time>2014-05-10T14:09:48Z</time>
      </trkpt>
      <trkpt lat="44.40985" lon="1.0034">
        <ele>169.33</ele>
        <time>2014-05-10T14:10:05Z</time>
      </trkpt>
      <trkpt lat="44.40945" lon="1.0041">
        <ele>170.29</ele>
        <time>2014-05-10T14:10:20Z</time>
      </trkpt>
      <trkpt lat="44.40923" lon="1.00454">
        <ele>174.14</ele>
        <time>2014-05-10T14:10:30Z</time>
      </trkpt>
      <trkpt lat="44.40911" lon="1.00481">
        <ele>176.54</ele>
        <time>2014-05-10T14:10:35Z</time>
      </trkpt>
      <trkpt lat="44.40904" lon="1.005">
        <ele>177.02</ele>
        <time>2014-05-10T14:10:38Z</time>
      </trkpt>
      <trkpt lat="44.409" lon="1.00514">
        <ele>177.02</ele>
        <time>2014-05-10T14:10:40Z</time>
      </trkpt>
      <trkpt lat="44.40897" lon="1.00541">
        <ele>176.54</ele>
        <time>2014-05-10T14:10:44Z</time>
      </trkpt>
      <trkpt lat="44.40896" lon="1.00562">
        <ele>176.54</ele>
        <time>2014-05-10T14:10:47Z</time>
      </trkpt>
      <trkpt lat="44.40891" lon="1.00584">
        <ele>176.54</ele>
        <time>2014-05-10T14:10:50Z</time>
      </trkpt>
      <trkpt lat="44.40886" lon="1.00605">
        <ele>176.06</ele>
        <time>2014-05-10T14:10:53Z</time>
      </trkpt>
      <trkpt lat="44.40884" lon="1.0062">
        <ele>176.06</ele>
        <time>2014-05-10T14:10:55Z</time>
      </trkpt>
      <trkpt lat="44.40872" lon="1.00679">
        <ele>172.69</ele>
        <time>2014-05-10T14:11:03Z</time>
      </trkpt>
      <trkpt lat="44.40871" lon="1.00726">
        <ele>173.17</ele>
        <time>2014-05-10T14:11:11Z</time>
      </trkpt>
      <trkpt lat="44.40884" lon="1.00763">
        <ele>175.58</ele>
        <time>2014-05-10T14:11:20Z</time>
      </trkpt>
      <trkpt lat="44.4088" lon="1.00781">
        <ele>174.14</ele>
        <time>2014-05-10T14:11:31Z</time>
      </trkpt>
      <trkpt lat="44.40875" lon="1.00787">
        <ele>173.17</ele>
        <time>2014-05-10T14:11:48Z</time>
      </trkpt>
      <trkpt lat="44.40873" lon="1.00788">
        <ele>172.69</ele>
        <time>2014-05-10T14:11:49Z</time>
      </trkpt>
      <trkpt lat="44.4087" lon="1.00788">
        <ele>172.21</ele>
        <time>2014-05-10T14:11:50Z</time>
      </trkpt>
      <trkpt lat="44.40866" lon="1.00789">
        <ele>172.21</ele>
        <time>2014-05-10T14:11:51Z</time>
      </trkpt>
      <trkpt lat="44.40862" lon="1.00789">
        <ele>171.73</ele>
        <time>2014-05-10T14:11:52Z</time>
      </trkpt>
      <trkpt lat="44.40794" lon="1.00789">
        <ele>167.89</ele>
        <time>2014-05-10T14:12:02Z</time>
      </trkpt>
      <trkpt lat="44.40731" lon="1.0079">
        <ele>161.64</ele>
        <time>2014-05-10T14:12:10Z</time>
      </trkpt>
      <trkpt lat="44.40695" lon="1.0078">
        <ele>156.83</ele>
        <time>2014-05-10T14:12:15Z</time>
      </trkpt>
      <trkpt lat="44.4069" lon="1.00779">
        <ele>155.87</ele>
        <time>2014-05-10T14:12:16Z</time>
      </trkpt>
      <trkpt lat="44.40686" lon="1.0078">
        <ele>154.91</ele>
        <time>2014-05-10T14:12:17Z</time>
      </trkpt>
      <trkpt lat="44.40682" lon="1.00781">
        <ele>153.95</ele>
        <time>2014-05-10T14:12:18Z</time>
      </trkpt>
      <trkpt lat="44.4068" lon="1.00783">
        <ele>153.47</ele>
        <time>2014-05-10T14:12:19Z</time>
      </trkpt>
      <trkpt lat="44.40678" lon="1.00787">
        <ele>152.99</ele>
        <time>2014-05-10T14:12:20Z</time>
      </trkpt>
      <trkpt lat="44.40677" lon="1.00792">
        <ele>152.51</ele>
        <time>2014-05-10T14:12:21Z</time>
      </trkpt>
      <trkpt lat="44.40676" lon="1.00797">
        <ele>152.51</ele>
        <time>2014-05-10T14:12:22Z</time>
      </trkpt>
      <trkpt lat="44.40676" lon="1.00802">
        <ele>152.51</ele>
        <time>2014-05-10T14:12:23Z</time>
      </trkpt>
      <trkpt lat="44.40676" lon="1.00806">
        <ele>152.51</ele>
        <time>2014-05-10T14:12:24Z</time>
      </trkpt>
      <trkpt lat="44.40676" lon="1.00831">
        <ele>152.99</ele>
        <time>2014-05-10T14:12:32Z</time>
      </trkpt>
      <trkpt lat="44.40677" lon="1.00836">
        <ele>152.99</ele>
        <time>2014-05-10T14:12:38Z</time>
      </trkpt>
      <trkpt lat="44.40678" lon="1.00842">
        <ele>153.47</ele>
        <time>2014-05-10T14:12:40Z</time>
      </trkpt>
      <trkpt lat="44.40679" lon="1.00845">
        <ele>153.47</ele>
        <time>2014-05-10T14:12:41Z</time>
      </trkpt>
      <trkpt lat="44.4068" lon="1.00848">
        <ele>153.47</ele>
        <time>2014-05-10T14:12:42Z</time>
      </trkpt>
      <trkpt lat="44.40681" lon="1.0085">
        <ele>153.47</ele>
        <time>2014-05-10T14:12:43Z</time>
      </trkpt>
      <trkpt lat="44.40683" lon="1.00853">
        <ele>153.47</ele>
        <time>2014-05-10T14:12:44Z</time>
      </trkpt>
      <trkpt lat="44.40684" lon="1.00856">
        <ele>153.47</ele>
        <time>2014-05-10T14:12:45Z</time>
      </trkpt>
      <trkpt lat="44.40684" lon="1.00858">
        <ele>153.47</ele>
        <time>2014-05-10T14:12:46Z</time>
      </trkpt>
      <trkpt lat="44.40684" lon="1.00859">
        <ele>153.95</ele>
        <time>2014-05-10T14:12:47Z</time>
      </trkpt>
      <trkpt lat="44.40684" lon="1.00862">
        <ele>154.43</ele>
        <time>2014-05-10T14:13:00Z</time>
      </trkpt>
      <trkpt lat="44.40684" lon="1.00903">
        <ele>155.87</ele>
        <time>2014-05-10T14:13:10Z</time>
      </trkpt>
      <trkpt lat="44.40683" lon="1.00922">
        <ele>155.87</ele>
        <time>2014-05-10T14:13:13Z</time>
      </trkpt>
      <trkpt lat="44.40674" lon="1.00995">
        <ele>159.24</ele>
        <time>2014-05-10T14:13:26Z</time>
      </trkpt>
      <trkpt lat="44.40683" lon="1.01048">
        <ele>160.2</ele>
        <time>2014-05-10T14:13:34Z</time>
      </trkpt>
      <trkpt lat="44.40692" lon="1.01072">
        <ele>161.16</ele>
        <time>2014-05-10T14:13:38Z</time>
      </trkpt>
      <trkpt lat="44.40697" lon="1.01085">
        <ele>161.16</ele>
        <time>2014-05-10T14:13:40Z</time>
      </trkpt>
      <trkpt lat="44.40703" lon="1.01103">
        <ele>161.16</ele>
        <time>2014-05-10T14:13:43Z</time>
      </trkpt>
      <trkpt lat="44.40707" lon="1.01115">
        <ele>161.16</ele>
        <time>2014-05-10T14:13:45Z</time>
      </trkpt>
      <trkpt lat="44.40716" lon="1.01142">
        <ele>161.16</ele>
        <time>2014-05-10T14:13:49Z</time>
      </trkpt>
      <trkpt lat="44.40745" lon="1.01227">
        <ele>155.87</ele>
        <time>2014-05-10T14:14:03Z</time>
      </trkpt>
      <trkpt lat="44.40754" lon="1.0127">
        <ele>152.51</ele>
        <time>2014-05-10T14:14:13Z</time>
      </trkpt>
      <trkpt lat="44.40769" lon="1.01361">
        <ele>151.54</ele>
        <time>2014-05-10T14:14:29Z</time>
      </trkpt>
      <trkpt lat="44.40777" lon="1.01425">
        <ele>153.95</ele>
        <time>2014-05-10T14:14:42Z</time>
      </trkpt>
      <trkpt lat="44.40767" lon="1.0146">
        <ele>157.31</ele>
        <time>2014-05-10T14:14:52Z</time>
      </trkpt>
      <trkpt lat="44.40768" lon="1.01463">
        <ele>157.31</ele>
        <time>2014-05-10T14:15:02Z</time>
      </trkpt>
      <trkpt lat="44.40768" lon="1.01463">
        <ele>156.83</ele>
        <time>2014-05-10T14:15:10Z</time>
      </trkpt>
      <trkpt lat="44.40754" lon="1.01497">
        <ele>156.35</ele>
        <time>2014-05-10T14:15:20Z</time>
      </trkpt>
      <trkpt lat="44.40719" lon="1.01565">
        <ele>158.27</ele>
        <time>2014-05-10T14:15:36Z</time>
      </trkpt>
      <trkpt lat="44.40718" lon="1.01568">
        <ele>157.79</ele>
        <time>2014-05-10T14:15:37Z</time>
      </trkpt>
      <trkpt lat="44.40715" lon="1.01572">
        <ele>157.79</ele>
        <time>2014-05-10T14:15:47Z</time>
      </trkpt>
      <trkpt lat="44.40706" lon="1.01565">
        <ele>155.87</ele>
        <time>2014-05-10T14:15:51Z</time>
      </trkpt>
      <trkpt lat="44.40666" lon="1.01515">
        <ele>151.06</ele>
        <time>2014-05-10T14:16:00Z</time>
      </trkpt>
      <trkpt lat="44.40625" lon="1.01489">
        <ele>152.03</ele>
        <time>2014-05-10T14:16:13Z</time>
      </trkpt>
      <trkpt lat="44.40591" lon="1.01457">
        <ele>157.79</ele>
        <time>2014-05-10T14:16:31Z</time>
      </trkpt>
      <trkpt lat="44.40566" lon="1.01426">
        <ele>160.68</ele>
        <time>2014-05-10T14:16:46Z</time>
      </trkpt>
      <trkpt lat="44.40538" lon="1.01425">
        <ele>163.08</ele>
        <time>2014-05-10T14:17:00Z</time>
      </trkpt>
      <trkpt lat="44.40501" lon="1.01442">
        <ele>165.96</ele>
        <time>2014-05-10T14:17:18Z</time>
      </trkpt>
      <trkpt lat="44.40462" lon="1.01458">
        <ele>166.93</ele>
        <time>2014-05-10T14:17:35Z</time>
      </trkpt>
      <trkpt lat="44.40426" lon="1.01477">
        <ele>167.41</ele>
        <time>2014-05-10T14:17:49Z</time>
      </trkpt>
      <trkpt lat="44.40382" lon="1.01501">
        <ele>167.89</ele>
        <time>2014-05-10T14:18:04Z</time>
      </trkpt>
      <trkpt lat="44.40334" lon="1.01526">
        <ele>167.89</ele>
        <time>2014-05-10T14:18:18Z</time>
      </trkpt>
      <trkpt lat="44.40271" lon="1.01551">
        <ele>169.81</ele>
        <time>2014-05-10T14:18:36Z</time>
      </trkpt>
      <trkpt lat="44.4022" lon="1.01573">
        <ele>174.14</ele>
        <time>2014-05-10T14:18:52Z</time>
      </trkpt>
      <trkpt lat="44.40207" lon="1.01571">
        <ele>173.66</ele>
        <time>2014-05-10T14:18:58Z</time>
      </trkpt>
      <trkpt lat="44.40205" lon="1.01572">
        <ele>173.17</ele>
        <time>2014-05-10T14:19:11Z</time>
      </trkpt>
      <trkpt lat="44.40204" lon="1.01572">
        <ele>172.69</ele>
        <time>2014-05-10T14:19:39Z</time>
      </trkpt>
      <trkpt lat="44.40204" lon="1.01572">
        <ele>172.21</ele>
        <time>2014-05-10T14:19:52Z</time>
      </trkpt>
      <trkpt lat="44.40204" lon="1.01575">
        <ele>172.21</ele>
        <time>2014-05-10T14:19:53Z</time>
      </trkpt>
      <trkpt lat="44.40206" lon="1.01578">
        <ele>172.21</ele>
        <time>2014-05-10T14:19:54Z</time>
      </trkpt>
      <trkpt lat="44.40224" lon="1.0164">
        <ele>167.41</ele>
        <time>2014-05-10T14:20:01Z</time>
      </trkpt>
      <trkpt lat="44.40233" lon="1.01681">
        <ele>165.96</ele>
        <time>2014-05-10T14:20:04Z</time>
      </trkpt>
      <trkpt lat="44.40251" lon="1.01731">
        <ele>165.96</ele>
        <time>2014-05-10T14:20:08Z</time>
      </trkpt>
      <trkpt lat="44.40253" lon="1.01743">
        <ele>166.45</ele>
        <time>2014-05-10T14:20:09Z</time>
      </trkpt>
      <trkpt lat="44.40254" lon="1.01755">
        <ele>166.93</ele>
        <time>2014-05-10T14:20:10Z</time>
      </trkpt>
      <trkpt lat="44.40255" lon="1.01766">
        <ele>167.41</ele>
        <time>2014-05-10T14:20:11Z</time>
      </trkpt>
      <trkpt lat="44.40255" lon="1.01777">
        <ele>168.37</ele>
        <time>2014-05-10T14:20:12Z</time>
      </trkpt>
      <trkpt lat="44.40254" lon="1.0188">
        <ele>175.1</ele>
        <time>2014-05-10T14:20:23Z</time>
      </trkpt>
      <trkpt lat="44.40256" lon="1.01887">
        <ele>175.58</ele>
        <time>2014-05-10T14:20:24Z</time>
      </trkpt>
      <trkpt lat="44.40288" lon="1.01967">
        <ele>174.62</ele>
        <time>2014-05-10T14:20:34Z</time>
      </trkpt>
      <trkpt lat="44.4032" lon="1.02052">
        <ele>181.83</ele>
        <time>2014-05-10T14:20:47Z</time>
      </trkpt>
      <trkpt lat="44.40341" lon="1.02112">
        <ele>189.04</ele>
        <time>2014-05-10T14:21:03Z</time>
      </trkpt>
      <trkpt lat="44.4033" lon="1.02154">
        <ele>189.04</ele>
        <time>2014-05-10T14:21:15Z</time>
      </trkpt>
      <trkpt lat="44.40316" lon="1.02188">
        <ele>187.59</ele>
        <time>2014-05-10T14:21:28Z</time>
      </trkpt>
      <trkpt lat="44.40317" lon="1.02189">
        <ele>187.11</ele>
        <time>2014-05-10T14:21:52Z</time>
      </trkpt>
      <trkpt lat="44.40317" lon="1.02189">
        <ele>185.67</ele>
        <time>2014-05-10T14:22:19Z</time>
      </trkpt>
      <trkpt lat="44.40316" lon="1.02191">
        <ele>185.19</ele>
        <time>2014-05-10T14:22:20Z</time>
      </trkpt>
      <trkpt lat="44.40315" lon="1.02192">
        <ele>185.19</ele>
        <time>2014-05-10T14:22:21Z</time>
      </trkpt>
      <trkpt lat="44.40296" lon="1.0222">
        <ele>186.63</ele>
        <time>2014-05-10T14:22:34Z</time>
      </trkpt>
      <trkpt lat="44.40259" lon="1.02247">
        <ele>184.23</ele>
        <time>2014-05-10T14:22:47Z</time>
      </trkpt>
      <trkpt lat="44.4022" lon="1.0229">
        <ele>185.19</ele>
        <time>2014-05-10T14:23:01Z</time>
      </trkpt>
      <trkpt lat="44.40211" lon="1.02302">
        <ele>185.19</ele>
        <time>2014-05-10T14:23:04Z</time>
      </trkpt>
      <trkpt lat="44.40203" lon="1.02319">
        <ele>185.19</ele>
        <time>2014-05-10T14:23:07Z</time>
      </trkpt>
      <trkpt lat="44.40186" lon="1.02351">
        <ele>186.15</ele>
        <time>2014-05-10T14:23:16Z</time>
      </trkpt>
      <trkpt lat="44.40179" lon="1.02351">
        <ele>186.15</ele>
        <time>2014-05-10T14:23:21Z</time>
      </trkpt>
      <trkpt lat="44.40177" lon="1.0235">
        <ele>186.63</ele>
        <time>2014-05-10T14:23:23Z</time>
      </trkpt>
      <trkpt lat="44.40173" lon="1.02349">
        <ele>187.59</ele>
        <time>2014-05-10T14:23:27Z</time>
      </trkpt>
      <trkpt lat="44.40158" lon="1.02346">
        <ele>190.96</ele>
        <time>2014-05-10T14:23:40Z</time>
      </trkpt>
      <trkpt lat="44.40155" lon="1.02346">
        <ele>191.44</ele>
        <time>2014-05-10T14:23:42Z</time>
      </trkpt>
      <trkpt lat="44.40142" lon="1.02354">
        <ele>194.32</ele>
        <time>2014-05-10T14:23:58Z</time>
      </trkpt>
      <trkpt lat="44.40135" lon="1.02363">
        <ele>197.21</ele>
        <time>2014-05-10T14:24:11Z</time>
      </trkpt>
      <trkpt lat="44.40117" lon="1.02385">
        <ele>202.01</ele>
        <time>2014-05-10T14:24:23Z</time>
      </trkpt>
      <trkpt lat="44.40104" lon="1.02399">
        <ele>206.34</ele>
        <time>2014-05-10T14:24:36Z</time>
      </trkpt>
      <trkpt lat="44.4009" lon="1.02412">
        <ele>209.22</ele>
        <time>2014-05-10T14:24:49Z</time>
      </trkpt>
      <trkpt lat="44.4007" lon="1.02429">
        <ele>214.99</ele>
        <time>2014-05-10T14:25:03Z</time>
      </trkpt>
      <trkpt lat="44.40061" lon="1.02436">
        <ele>217.4</ele>
        <time>2014-05-10T14:25:14Z</time>
      </trkpt>
      <trkpt lat="44.40045" lon="1.02446">
        <ele>221.72</ele>
        <time>2014-05-10T14:25:28Z</time>
      </trkpt>
      <trkpt lat="44.4003" lon="1.0246">
        <ele>226.53</ele>
        <time>2014-05-10T14:25:41Z</time>
      </trkpt>
      <trkpt lat="44.40017" lon="1.02471">
        <ele>228.93</ele>
        <time>2014-05-10T14:25:52Z</time>
      </trkpt>
      <trkpt lat="44.40004" lon="1.0248">
        <ele>231.33</ele>
        <time>2014-05-10T14:26:04Z</time>
      </trkpt>
      <trkpt lat="44.39986" lon="1.02493">
        <ele>231.81</ele>
        <time>2014-05-10T14:26:18Z</time>
      </trkpt>
      <trkpt lat="44.39979" lon="1.02499">
        <ele>230.85</ele>
        <time>2014-05-10T14:26:29Z</time>
      </trkpt>
      <trkpt lat="44.39979" lon="1.025">
        <ele>230.37</ele>
        <time>2014-05-10T14:26:51Z</time>
      </trkpt>
      <trkpt lat="44.39977" lon="1.02502">
        <ele>230.85</ele>
        <time>2014-05-10T14:27:07Z</time>
      </trkpt>
      <trkpt lat="44.39976" lon="1.02502">
        <ele>231.33</ele>
        <time>2014-05-10T14:27:26Z</time>
      </trkpt>
      <trkpt lat="44.39975" lon="1.02502">
        <ele>231.81</ele>
        <time>2014-05-10T14:27:48Z</time>
      </trkpt>
      <trkpt lat="44.39975" lon="1.02502">
        <ele>231.81</ele>
        <time>2014-05-10T14:28:16Z</time>
      </trkpt>
      <trkpt lat="44.39974" lon="1.02503">
        <ele>232.3</ele>
        <time>2014-05-10T14:28:37Z</time>
      </trkpt>
      <trkpt lat="44.39973" lon="1.02503">
        <ele>232.3</ele>
        <time>2014-05-10T14:29:02Z</time>
      </trkpt>
      <trkpt lat="44.39972" lon="1.02503">
        <ele>232.3</ele>
        <time>2014-05-10T14:29:21Z</time>
      </trkpt>
      <trkpt lat="44.39972" lon="1.02503">
        <ele>232.78</ele>
        <time>2014-05-10T14:29:45Z</time>
      </trkpt>
      <trkpt lat="44.39972" lon="1.02504">
        <ele>232.78</ele>
        <time>2014-05-10T14:30:10Z</time>
      </trkpt>
      <trkpt lat="44.39973" lon="1.02505">
        <ele>232.3</ele>
        <time>2014-05-10T14:30:40Z</time>
      </trkpt>
      <trkpt lat="44.39974" lon="1.02503">
        <ele>232.3</ele>
        <time>2014-05-10T14:31:05Z</time>
      </trkpt>
      <trkpt lat="44.39974" lon="1.02503">
        <ele>231.81</ele>
        <time>2014-05-10T14:31:34Z</time>
      </trkpt>
      <trkpt lat="44.39974" lon="1.02504">
        <ele>231.81</ele>
        <time>2014-05-10T14:31:59Z</time>
      </trkpt>
      <trkpt lat="44.39969" lon="1.02504">
        <ele>232.3</ele>
        <time>2014-05-10T14:32:16Z</time>
      </trkpt>
      <trkpt lat="44.39967" lon="1.02505">
        <ele>232.78</ele>
        <time>2014-05-10T14:32:18Z</time>
      </trkpt>
      <trkpt lat="44.39939" lon="1.02506">
        <ele>234.7</ele>
        <time>2014-05-10T14:32:30Z</time>
      </trkpt>
      <trkpt lat="44.39937" lon="1.02505">
        <ele>235.18</ele>
        <time>2014-05-10T14:32:31Z</time>
      </trkpt>
      <trkpt lat="44.3992" lon="1.02484">
        <ele>234.7</ele>
        <time>2014-05-10T14:32:40Z</time>
      </trkpt>
      <trkpt lat="44.39917" lon="1.02485">
        <ele>234.7</ele>
        <time>2014-05-10T14:32:41Z</time>
      </trkpt>
      <trkpt lat="44.39882" lon="1.02499">
        <ele>238.54</ele>
        <time>2014-05-10T14:32:55Z</time>
      </trkpt>
      <trkpt lat="44.39836" lon="1.02507">
        <ele>238.06</ele>
        <time>2014-05-10T14:33:08Z</time>
      </trkpt>
      <trkpt lat="44.39794" lon="1.02517">
        <ele>239.51</ele>
        <time>2014-05-10T14:33:22Z</time>
      </trkpt>
      <trkpt lat="44.39759" lon="1.02533">
        <ele>242.39</ele>
        <time>2014-05-10T14:33:35Z</time>
      </trkpt>
      <trkpt lat="44.39714" lon="1.02562">
        <ele>242.87</ele>
        <time>2014-05-10T14:33:48Z</time>
      </trkpt>
      <trkpt lat="44.39673" lon="1.02578">
        <ele>242.87</ele>
        <time>2014-05-10T14:34:00Z</time>
      </trkpt>
      <trkpt lat="44.39634" lon="1.02593">
        <ele>242.87</ele>
        <time>2014-05-10T14:34:11Z</time>
      </trkpt>
      <trkpt lat="44.39622" lon="1.02601">
        <ele>242.87</ele>
        <time>2014-05-10T14:34:16Z</time>
      </trkpt>
      <trkpt lat="44.39619" lon="1.02605">
        <ele>242.87</ele>
        <time>2014-05-10T14:34:31Z</time>
      </trkpt>
      <trkpt lat="44.39618" lon="1.02605">
        <ele>242.39</ele>
        <time>2014-05-10T14:34:53Z</time>
      </trkpt>
      <trkpt lat="44.39618" lon="1.02606">
        <ele>242.39</ele>
        <time>2014-05-10T14:35:13Z</time>
      </trkpt>
      <trkpt lat="44.39618" lon="1.02605">
        <ele>241.91</ele>
        <time>2014-05-10T14:35:17Z</time>
      </trkpt>
      <trkpt lat="44.39617" lon="1.02608">
        <ele>241.91</ele>
        <time>2014-05-10T14:35:18Z</time>
      </trkpt>
      <trkpt lat="44.39617" lon="1.02611">
        <ele>241.91</ele>
        <time>2014-05-10T14:35:19Z</time>
      </trkpt>
      <trkpt lat="44.39617" lon="1.02616">
        <ele>241.91</ele>
        <time>2014-05-10T14:35:20Z</time>
      </trkpt>
      <trkpt lat="44.39618" lon="1.0262">
        <ele>241.43</ele>
        <time>2014-05-10T14:35:21Z</time>
      </trkpt>
      <trkpt lat="44.39622" lon="1.02642">
        <ele>241.91</ele>
        <time>2014-05-10T14:35:25Z</time>
      </trkpt>
      <trkpt lat="44.39629" lon="1.0267">
        <ele>241.91</ele>
        <time>2014-05-10T14:35:30Z</time>
      </trkpt>
      <trkpt lat="44.39654" lon="1.0277">
        <ele>240.95</ele>
        <time>2014-05-10T14:35:45Z</time>
      </trkpt>
      <trkpt lat="44.39697" lon="1.02905">
        <ele>239.02</ele>
        <time>2014-05-10T14:36:03Z</time>
      </trkpt>
      <trkpt lat="44.39699" lon="1.02912">
        <ele>238.54</ele>
        <time>2014-05-10T14:36:04Z</time>
      </trkpt>
      <trkpt lat="44.39701" lon="1.02918">
        <ele>238.54</ele>
        <time>2014-05-10T14:36:05Z</time>
      </trkpt>
      <trkpt lat="44.39702" lon="1.02924">
        <ele>238.54</ele>
        <time>2014-05-10T14:36:06Z</time>
      </trkpt>
      <trkpt lat="44.39702" lon="1.02929">
        <ele>238.54</ele>
        <time>2014-05-10T14:36:07Z</time>
      </trkpt>
      <trkpt lat="44.39698" lon="1.02932">
        <ele>238.06</ele>
        <time>2014-05-10T14:36:09Z</time>
      </trkpt>
      <trkpt lat="44.39696" lon="1.02931">
        <ele>238.06</ele>
        <time>2014-05-10T14:36:10Z</time>
      </trkpt>
      <trkpt lat="44.39693" lon="1.0293">
        <ele>238.06</ele>
        <time>2014-05-10T14:36:11Z</time>
      </trkpt>
      <trkpt lat="44.39691" lon="1.02929">
        <ele>238.06</ele>
        <time>2014-05-10T14:36:12Z</time>
      </trkpt>
      <trkpt lat="44.39684" lon="1.02926">
        <ele>237.58</ele>
        <time>2014-05-10T14:36:14Z</time>
      </trkpt>
      <trkpt lat="44.39671" lon="1.02924">
        <ele>237.1</ele>
        <time>2014-05-10T14:36:17Z</time>
      </trkpt>
      <trkpt lat="44.39603" lon="1.0293">
        <ele>235.66</ele>
        <time>2014-05-10T14:36:28Z</time>
      </trkpt>
      <trkpt lat="44.39558" lon="1.02908">
        <ele>234.22</ele>
        <time>2014-05-10T14:36:37Z</time>
      </trkpt>
      <trkpt lat="44.39541" lon="1.02899">
        <ele>233.74</ele>
        <time>2014-05-10T14:36:41Z</time>
      </trkpt>
      <trkpt lat="44.39528" lon="1.02892">
        <ele>233.74</ele>
        <time>2014-05-10T14:36:44Z</time>
      </trkpt>
      <trkpt lat="44.39472" lon="1.02864">
        <ele>235.18</ele>
        <time>2014-05-10T14:36:59Z</time>
      </trkpt>
      <trkpt lat="44.39436" lon="1.02842">
        <ele>238.54</ele>
        <time>2014-05-10T14:37:11Z</time>
      </trkpt>
      <trkpt lat="44.394" lon="1.02801">
        <ele>240.47</ele>
        <time>2014-05-10T14:37:25Z</time>
      </trkpt>
      <trkpt lat="44.39394" lon="1.02797">
        <ele>240.47</ele>
        <time>2014-05-10T14:37:27Z</time>
      </trkpt>
      <trkpt lat="44.39367" lon="1.02775">
        <ele>239.02</ele>
        <time>2014-05-10T14:37:36Z</time>
      </trkpt>
      <trkpt lat="44.39333" lon="1.02764">
        <ele>237.58</ele>
        <time>2014-05-10T14:37:43Z</time>
      </trkpt>
      <trkpt lat="44.39322" lon="1.0276">
        <ele>236.62</ele>
        <time>2014-05-10T14:37:45Z</time>
      </trkpt>
      <trkpt lat="44.39312" lon="1.02756">
        <ele>235.66</ele>
        <time>2014-05-10T14:37:47Z</time>
      </trkpt>
      <trkpt lat="44.39289" lon="1.0275">
        <ele>233.74</ele>
        <time>2014-05-10T14:37:52Z</time>
      </trkpt>
      <trkpt lat="44.39266" lon="1.02738">
        <ele>233.26</ele>
        <time>2014-05-10T14:37:57Z</time>
      </trkpt>
      <trkpt lat="44.39252" lon="1.02713">
        <ele>233.26</ele>
        <time>2014-05-10T14:38:02Z</time>
      </trkpt>
      <trkpt lat="44.3921" lon="1.02661">
        <ele>233.26</ele>
        <time>2014-05-10T14:38:14Z</time>
      </trkpt>
      <trkpt lat="44.3919" lon="1.02627">
        <ele>234.7</ele>
        <time>2014-05-10T14:38:25Z</time>
      </trkpt>
      <trkpt lat="44.39187" lon="1.02622">
        <ele>234.7</ele>
        <time>2014-05-10T14:38:39Z</time>
      </trkpt>
      <trkpt lat="44.39179" lon="1.02615">
        <ele>233.26</ele>
        <time>2014-05-10T14:38:43Z</time>
      </trkpt>
      <trkpt lat="44.39144" lon="1.02582">
        <ele>230.85</ele>
        <time>2014-05-10T14:38:54Z</time>
      </trkpt>
      <trkpt lat="44.39141" lon="1.02585">
        <ele>229.41</ele>
        <time>2014-05-10T14:39:10Z</time>
      </trkpt>
      <trkpt lat="44.39139" lon="1.02586">
        <ele>228.93</ele>
        <time>2014-05-10T14:39:12Z</time>
      </trkpt>
      <trkpt lat="44.39134" lon="1.02587">
        <ele>227.97</ele>
        <time>2014-05-10T14:39:24Z</time>
      </trkpt>
      <trkpt lat="44.39111" lon="1.02569">
        <ele>232.3</ele>
        <time>2014-05-10T14:39:37Z</time>
      </trkpt>
      <trkpt lat="44.39081" lon="1.02546">
        <ele>239.02</ele>
        <time>2014-05-10T14:39:49Z</time>
      </trkpt>
      <trkpt lat="44.39036" lon="1.02521">
        <ele>241.91</ele>
        <time>2014-05-10T14:40:04Z</time>
      </trkpt>
      <trkpt lat="44.38998" lon="1.02499">
        <ele>246.72</ele>
        <time>2014-05-10T14:40:19Z</time>
      </trkpt>
      <trkpt lat="44.38972" lon="1.02481">
        <ele>249.6</ele>
        <time>2014-05-10T14:40:30Z</time>
      </trkpt>
      <trkpt lat="44.38934" lon="1.02448">
        <ele>245.27</ele>
        <time>2014-05-10T14:40:41Z</time>
      </trkpt>
      <trkpt lat="44.38929" lon="1.02444">
        <ele>244.31</ele>
        <time>2014-05-10T14:40:42Z</time>
      </trkpt>
      <trkpt lat="44.3892" lon="1.02425">
        <ele>242.39</ele>
        <time>2014-05-10T14:40:45Z</time>
      </trkpt>
      <trkpt lat="44.38913" lon="1.02413">
        <ele>241.43</ele>
        <time>2014-05-10T14:40:47Z</time>
      </trkpt>
      <trkpt lat="44.38886" lon="1.02353">
        <ele>236.14</ele>
        <time>2014-05-10T14:40:58Z</time>
      </trkpt>
      <trkpt lat="44.38877" lon="1.02334">
        <ele>233.74</ele>
        <time>2014-05-10T14:41:09Z</time>
      </trkpt>
      <trkpt lat="44.38875" lon="1.02328">
        <ele>234.7</ele>
        <time>2014-05-10T14:41:20Z</time>
      </trkpt>
      <trkpt lat="44.38865" lon="1.02306">
        <ele>236.62</ele>
        <time>2014-05-10T14:41:31Z</time>
      </trkpt>
      <trkpt lat="44.38854" lon="1.02277">
        <ele>239.99</ele>
        <time>2014-05-10T14:41:39Z</time>
      </trkpt>
      <trkpt lat="44.38855" lon="1.02257">
        <ele>242.87</ele>
        <time>2014-05-10T14:41:49Z</time>
      </trkpt>
      <trkpt lat="44.38855" lon="1.02249">
        <ele>243.35</ele>
        <time>2014-05-10T14:41:53Z</time>
      </trkpt>
      <trkpt lat="44.38855" lon="1.02234">
        <ele>244.31</ele>
        <time>2014-05-10T14:41:57Z</time>
      </trkpt>
      <trkpt lat="44.38858" lon="1.02228">
        <ele>244.79</ele>
        <time>2014-05-10T14:42:01Z</time>
      </trkpt>
      <trkpt lat="44.38861" lon="1.0221">
        <ele>245.75</ele>
        <time>2014-05-10T14:42:11Z</time>
      </trkpt>
      <trkpt lat="44.38861" lon="1.02211">
        <ele>245.27</ele>
        <time>2014-05-10T14:42:12Z</time>
      </trkpt>
      <trkpt lat="44.38861" lon="1.02223">
        <ele>242.87</ele>
        <time>2014-05-10T14:42:18Z</time>
      </trkpt>
      <trkpt lat="44.38853" lon="1.02259">
        <ele>238.54</ele>
        <time>2014-05-10T14:42:30Z</time>
      </trkpt>
      <trkpt lat="44.38852" lon="1.02261">
        <ele>238.06</ele>
        <time>2014-05-10T14:42:31Z</time>
      </trkpt>
      <trkpt lat="44.38863" lon="1.02301">
        <ele>235.18</ele>
        <time>2014-05-10T14:42:41Z</time>
      </trkpt>
      <trkpt lat="44.38866" lon="1.02307">
        <ele>234.7</ele>
        <time>2014-05-10T14:42:43Z</time>
      </trkpt>
      <trkpt lat="44.38872" lon="1.0232">
        <ele>233.74</ele>
        <time>2014-05-10T14:42:57Z</time>
      </trkpt>
      <trkpt lat="44.38874" lon="1.02324">
        <ele>235.66</ele>
        <time>2014-05-10T14:43:09Z</time>
      </trkpt>
      <trkpt lat="44.38888" lon="1.02356">
        <ele>239.51</ele>
        <time>2014-05-10T14:43:19Z</time>
      </trkpt>
      <trkpt lat="44.38912" lon="1.02411">
        <ele>239.51</ele>
        <time>2014-05-10T14:43:31Z</time>
      </trkpt>
      <trkpt lat="44.38935" lon="1.0246">
        <ele>239.02</ele>
        <time>2014-05-10T14:43:43Z</time>
      </trkpt>
      <trkpt lat="44.38961" lon="1.0249">
        <ele>238.06</ele>
        <time>2014-05-10T14:43:54Z</time>
      </trkpt>
      <trkpt lat="44.38996" lon="1.02511">
        <ele>238.54</ele>
        <time>2014-05-10T14:44:04Z</time>
      </trkpt>
      <trkpt lat="44.39051" lon="1.02539">
        <ele>239.99</ele>
        <time>2014-05-10T14:44:17Z</time>
      </trkpt>
      <trkpt lat="44.39065" lon="1.02547">
        <ele>240.47</ele>
        <time>2014-05-10T14:44:20Z</time>
      </trkpt>
      <trkpt lat="44.39127" lon="1.02582">
        <ele>240.47</ele>
        <time>2014-05-10T14:44:33Z</time>
      </trkpt>
      <trkpt lat="44.39133" lon="1.02577">
        <ele>238.06</ele>
        <time>2014-05-10T14:44:39Z</time>
      </trkpt>
      <trkpt lat="44.39126" lon="1.02563">
        <ele>236.62</ele>
        <time>2014-05-10T14:44:43Z</time>
      </trkpt>
      <trkpt lat="44.39092" lon="1.02478">
        <ele>236.14</ele>
        <time>2014-05-10T14:44:54Z</time>
      </trkpt>
      <trkpt lat="44.39079" lon="1.0244">
        <ele>236.14</ele>
        <time>2014-05-10T14:44:58Z</time>
      </trkpt>
      <trkpt lat="44.39027" lon="1.02311">
        <ele>230.37</ele>
        <time>2014-05-10T14:45:10Z</time>
      </trkpt>
      <trkpt lat="44.3898" lon="1.02247">
        <ele>227.97</ele>
        <time>2014-05-10T14:45:18Z</time>
      </trkpt>
      <trkpt lat="44.3898" lon="1.02201">
        <ele>225.09</ele>
        <time>2014-05-10T14:45:24Z</time>
      </trkpt>
      <trkpt lat="44.39012" lon="1.02109">
        <ele>215.95</ele>
        <time>2014-05-10T14:45:34Z</time>
      </trkpt>
      <trkpt lat="44.39014" lon="1.02068">
        <ele>211.15</ele>
        <time>2014-05-10T14:45:38Z</time>
      </trkpt>
      <trkpt lat="44.39012" lon="1.02037">
        <ele>206.82</ele>
        <time>2014-05-10T14:45:41Z</time>
      </trkpt>
      <trkpt lat="44.39003" lon="1.01995">
        <ele>200.57</ele>
        <time>2014-05-10T14:45:45Z</time>
      </trkpt>
      <trkpt lat="44.38987" lon="1.01955">
        <ele>193.84</ele>
        <time>2014-05-10T14:45:49Z</time>
      </trkpt>
      <trkpt lat="44.38972" lon="1.01926">
        <ele>188.08</ele>
        <time>2014-05-10T14:45:53Z</time>
      </trkpt>
      <trkpt lat="44.3894" lon="1.01909">
        <ele>183.27</ele>
        <time>2014-05-10T14:46:01Z</time>
      </trkpt>
      <trkpt lat="44.38935" lon="1.01868">
        <ele>179.9</ele>
        <time>2014-05-10T14:46:07Z</time>
      </trkpt>
      <trkpt lat="44.38933" lon="1.01866">
        <ele>179.42</ele>
        <time>2014-05-10T14:46:08Z</time>
      </trkpt>
      <trkpt lat="44.38927" lon="1.01862">
        <ele>176.06</ele>
        <time>2014-05-10T14:46:17Z</time>
      </trkpt>
      <trkpt lat="44.38926" lon="1.01863">
        <ele>172.69</ele>
        <time>2014-05-10T14:46:29Z</time>
      </trkpt>
      <trkpt lat="44.38914" lon="1.01857">
        <ele>171.73</ele>
        <time>2014-05-10T14:46:39Z</time>
      </trkpt>
      <trkpt lat="44.38882" lon="1.01852">
        <ele>172.69</ele>
        <time>2014-05-10T14:46:46Z</time>
      </trkpt>
      <trkpt lat="44.38879" lon="1.0183">
        <ele>173.66</ele>
        <time>2014-05-10T14:46:55Z</time>
      </trkpt>
      <trkpt lat="44.38886" lon="1.01827">
        <ele>173.66</ele>
        <time>2014-05-10T14:46:57Z</time>
      </trkpt>
      <trkpt lat="44.38903" lon="1.01817">
        <ele>172.69</ele>
        <time>2014-05-10T14:47:01Z</time>
      </trkpt>
      <trkpt lat="44.38927" lon="1.01782">
        <ele>171.73</ele>
        <time>2014-05-10T14:47:07Z</time>
      </trkpt>
      <trkpt lat="44.39017" lon="1.01674">
        <ele>162.6</ele>
        <time>2014-05-10T14:47:22Z</time>
      </trkpt>
      <trkpt lat="44.39063" lon="1.0163">
        <ele>159.72</ele>
        <time>2014-05-10T14:47:30Z</time>
      </trkpt>
      <trkpt lat="44.39126" lon="1.01587">
        <ele>156.83</ele>
        <time>2014-05-10T14:47:43Z</time>
      </trkpt>
      <trkpt lat="44.39162" lon="1.01558">
        <ele>154.91</ele>
        <time>2014-05-10T14:47:53Z</time>
      </trkpt>
      <trkpt lat="44.39163" lon="1.01555">
        <ele>154.43</ele>
        <time>2014-05-10T14:47:54Z</time>
      </trkpt>
      <trkpt lat="44.39164" lon="1.01553">
        <ele>154.43</ele>
        <time>2014-05-10T14:47:55Z</time>
      </trkpt>
      <trkpt lat="44.39166" lon="1.01552">
        <ele>154.43</ele>
        <time>2014-05-10T14:47:56Z</time>
      </trkpt>
      <trkpt lat="44.39168" lon="1.01552">
        <ele>154.43</ele>
        <time>2014-05-10T14:47:57Z</time>
      </trkpt>
      <trkpt lat="44.39169" lon="1.01551">
        <ele>154.43</ele>
        <time>2014-05-10T14:47:58Z</time>
      </trkpt>
      <trkpt lat="44.39171" lon="1.0155">
        <ele>154.43</ele>
        <time>2014-05-10T14:47:59Z</time>
      </trkpt>
      <trkpt lat="44.39172" lon="1.01548">
        <ele>154.43</ele>
        <time>2014-05-10T14:48:00Z</time>
      </trkpt>
      <trkpt lat="44.39174" lon="1.01546">
        <ele>154.43</ele>
        <time>2014-05-10T14:48:01Z</time>
      </trkpt>
      <trkpt lat="44.39175" lon="1.01545">
        <ele>153.95</ele>
        <time>2014-05-10T14:48:02Z</time>
      </trkpt>
      <trkpt lat="44.39176" lon="1.01543">
        <ele>153.95</ele>
        <time>2014-05-10T14:48:03Z</time>
      </trkpt>
      <trkpt lat="44.39178" lon="1.01542">
        <ele>153.95</ele>
        <time>2014-05-10T14:48:04Z</time>
      </trkpt>
      <trkpt lat="44.3918" lon="1.0154">
        <ele>153.95</ele>
        <time>2014-05-10T14:48:05Z</time>
      </trkpt>
      <trkpt lat="44.39182" lon="1.01539">
        <ele>153.47</ele>
        <time>2014-05-10T14:48:06Z</time>
      </trkpt>
      <trkpt lat="44.39185" lon="1.01537">
        <ele>153.47</ele>
        <time>2014-05-10T14:48:07Z</time>
      </trkpt>
      <trkpt lat="44.39187" lon="1.01535">
        <ele>153.47</ele>
        <time>2014-05-10T14:48:08Z</time>
      </trkpt>
      <trkpt lat="44.39227" lon="1.01515">
        <ele>154.43</ele>
        <time>2014-05-10T14:48:22Z</time>
      </trkpt>
      <trkpt lat="44.3927" lon="1.01494">
        <ele>155.87</ele>
        <time>2014-05-10T14:48:37Z</time>
      </trkpt>
      <trkpt lat="44.39298" lon="1.01483">
        <ele>158.75</ele>
        <time>2014-05-10T14:48:49Z</time>
      </trkpt>
      <trkpt lat="44.39329" lon="1.01462">
        <ele>162.12</ele>
        <time>2014-05-10T14:49:03Z</time>
      </trkpt>
      <trkpt lat="44.39349" lon="1.01424">
        <ele>164.04</ele>
        <time>2014-05-10T14:49:15Z</time>
      </trkpt>
      <trkpt lat="44.39361" lon="1.01391">
        <ele>165.48</ele>
        <time>2014-05-10T14:49:26Z</time>
      </trkpt>
      <trkpt lat="44.39383" lon="1.01347">
        <ele>166.93</ele>
        <time>2014-05-10T14:49:39Z</time>
      </trkpt>
      <trkpt lat="44.39407" lon="1.01303">
        <ele>165</ele>
        <time>2014-05-10T14:49:48Z</time>
      </trkpt>
      <trkpt lat="44.3944" lon="1.01194">
        <ele>161.16</ele>
        <time>2014-05-10T14:50:01Z</time>
      </trkpt>
      <trkpt lat="44.39447" lon="1.0117">
        <ele>161.16</ele>
        <time>2014-05-10T14:50:04Z</time>
      </trkpt>
      <trkpt lat="44.39451" lon="1.01156">
        <ele>161.16</ele>
        <time>2014-05-10T14:50:06Z</time>
      </trkpt>
      <trkpt lat="44.39453" lon="1.01151">
        <ele>160.68</ele>
        <time>2014-05-10T14:50:07Z</time>
      </trkpt>
      <trkpt lat="44.39454" lon="1.01145">
        <ele>160.68</ele>
        <time>2014-05-10T14:50:08Z</time>
      </trkpt>
      <trkpt lat="44.39474" lon="1.01074">
        <ele>159.24</ele>
        <time>2014-05-10T14:50:22Z</time>
      </trkpt>
      <trkpt lat="44.3948" lon="1.01052">
        <ele>158.27</ele>
        <time>2014-05-10T14:50:27Z</time>
      </trkpt>
      <trkpt lat="44.39482" lon="1.01045">
        <ele>158.27</ele>
        <time>2014-05-10T14:50:31Z</time>
      </trkpt>
      <trkpt lat="44.39497" lon="1.00997">
        <ele>157.79</ele>
        <time>2014-05-10T14:50:45Z</time>
      </trkpt>
      <trkpt lat="44.39507" lon="1.00971">
        <ele>157.31</ele>
        <time>2014-05-10T14:50:51Z</time>
      </trkpt>
      <trkpt lat="44.39526" lon="1.00907">
        <ele>153.47</ele>
        <time>2014-05-10T14:51:04Z</time>
      </trkpt>
      <trkpt lat="44.39528" lon="1.00861">
        <ele>152.99</ele>
        <time>2014-05-10T14:51:16Z</time>
      </trkpt>
      <trkpt lat="44.39546" lon="1.00785">
        <ele>151.54</ele>
        <time>2014-05-10T14:51:31Z</time>
      </trkpt>
      <trkpt lat="44.39566" lon="1.00701">
        <ele>152.03</ele>
        <time>2014-05-10T14:51:47Z</time>
      </trkpt>
      <trkpt lat="44.39577" lon="1.00644">
        <ele>151.06</ele>
        <time>2014-05-10T14:51:58Z</time>
      </trkpt>
      <trkpt lat="44.39608" lon="1.00531">
        <ele>148.18</ele>
        <time>2014-05-10T14:52:16Z</time>
      </trkpt>
      <trkpt lat="44.39623" lon="1.0048">
        <ele>148.18</ele>
        <time>2014-05-10T14:52:27Z</time>
      </trkpt>
      <trkpt lat="44.39647" lon="1.00413">
        <ele>148.66</ele>
        <time>2014-05-10T14:52:44Z</time>
      </trkpt>
      <trkpt lat="44.39664" lon="1.00359">
        <ele>147.22</ele>
        <time>2014-05-10T14:52:58Z</time>
      </trkpt>
      <trkpt lat="44.39672" lon="1.00319">
        <ele>145.78</ele>
        <time>2014-05-10T14:53:10Z</time>
      </trkpt>
      <trkpt lat="44.39675" lon="1.00311">
        <ele>145.3</ele>
        <time>2014-05-10T14:53:14Z</time>
      </trkpt>
      <trkpt lat="44.39688" lon="1.00267">
        <ele>141.93</ele>
        <time>2014-05-10T14:53:27Z</time>
      </trkpt>
      <trkpt lat="44.39706" lon="1.00202">
        <ele>140.49</ele>
        <time>2014-05-10T14:53:39Z</time>
      </trkpt>
      <trkpt lat="44.3971" lon="1.0019">
        <ele>140.49</ele>
        <time>2014-05-10T14:53:41Z</time>
      </trkpt>
      <trkpt lat="44.3974" lon="1.00127">
        <ele>135.2</ele>
        <time>2014-05-10T14:53:55Z</time>
      </trkpt>
      <trkpt lat="44.39765" lon="1.00082">
        <ele>132.32</ele>
        <time>2014-05-10T14:54:07Z</time>
      </trkpt>
      <trkpt lat="44.39807" lon="1.00032">
        <ele>125.59</ele>
        <time>2014-05-10T14:54:22Z</time>
      </trkpt>
      <trkpt lat="44.39826" lon="1.00008">
        <ele>126.07</ele>
        <time>2014-05-10T14:54:32Z</time>
      </trkpt>
      <trkpt lat="44.39836" lon="0.99995">
        <ele>129.92</ele>
        <time>2014-05-10T14:54:40Z</time>
      </trkpt>
      <trkpt lat="44.39839" lon="0.99991">
        <ele>131.36</ele>
        <time>2014-05-10T14:54:43Z</time>
      </trkpt>
      <trkpt lat="44.39851" lon="0.99976">
        <ele>138.57</ele>
        <time>2014-05-10T14:54:57Z</time>
      </trkpt>
      <trkpt lat="44.39855" lon="0.99977">
        <ele>139.53</ele>
        <time>2014-05-10T14:55:10Z</time>
      </trkpt>
      <trkpt lat="44.39855" lon="0.99977">
        <ele>139.53</ele>
        <time>2014-05-10T14:55:24Z</time>
      </trkpt>
      <trkpt lat="44.39855" lon="0.99977">
        <ele>140.49</ele>
        <time>2014-05-10T14:55:50Z</time>
      </trkpt>
      <trkpt lat="44.39855" lon="0.99977">
        <ele>140.49</ele>
        <time>2014-05-10T14:56:06Z</time>
      </trkpt>
      <trkpt lat="44.39856" lon="0.99978">
        <ele>140.49</ele>
        <time>2014-05-10T14:56:23Z</time>
      </trkpt>
      <trkpt lat="44.39855" lon="0.99978">
        <ele>140.01</ele>
        <time>2014-05-10T14:56:44Z</time>
      </trkpt>
      <trkpt lat="44.39854" lon="0.99979">
        <ele>140.49</ele>
        <time>2014-05-10T14:57:08Z</time>
      </trkpt>
      <trkpt lat="44.39855" lon="0.99979">
        <ele>140.97</ele>
        <time>2014-05-10T14:57:31Z</time>
      </trkpt>
      <trkpt lat="44.39859" lon="0.99979">
        <ele>140.97</ele>
        <time>2014-05-10T14:57:47Z</time>
      </trkpt>
      <trkpt lat="44.39872" lon="0.99972">
        <ele>141.93</ele>
        <time>2014-05-10T14:57:56Z</time>
      </trkpt>
      <trkpt lat="44.39888" lon="0.99961">
        <ele>145.78</ele>
        <time>2014-05-10T14:58:09Z</time>
      </trkpt>
      <trkpt lat="44.39897" lon="0.99955">
        <ele>149.62</ele>
        <time>2014-05-10T14:58:20Z</time>
      </trkpt>
      <trkpt lat="44.39913" lon="0.99946">
        <ele>154.91</ele>
        <time>2014-05-10T14:58:34Z</time>
      </trkpt>
      <trkpt lat="44.39926" lon="0.99937">
        <ele>155.87</ele>
        <time>2014-05-10T14:58:46Z</time>
      </trkpt>
      <trkpt lat="44.39936" lon="0.99921">
        <ele>158.75</ele>
        <time>2014-05-10T14:58:58Z</time>
      </trkpt>
      <trkpt lat="44.3994" lon="0.99915">
        <ele>160.2</ele>
        <time>2014-05-10T14:59:03Z</time>
      </trkpt>
      <trkpt lat="44.39944" lon="0.99911">
        <ele>161.16</ele>
        <time>2014-05-10T14:59:07Z</time>
      </trkpt>
      <trkpt lat="44.39948" lon="0.99906">
        <ele>162.12</ele>
        <time>2014-05-10T14:59:12Z</time>
      </trkpt>
      <trkpt lat="44.39956" lon="0.99895">
        <ele>164.52</ele>
        <time>2014-05-10T14:59:23Z</time>
      </trkpt>
      <trkpt lat="44.39962" lon="0.9989">
        <ele>165.96</ele>
        <time>2014-05-10T14:59:29Z</time>
      </trkpt>
      <trkpt lat="44.39973" lon="0.99869">
        <ele>168.85</ele>
        <time>2014-05-10T14:59:44Z</time>
      </trkpt>
      <trkpt lat="44.39976" lon="0.99862">
        <ele>169.81</ele>
        <time>2014-05-10T14:59:49Z</time>
      </trkpt>
      <trkpt lat="44.39978" lon="0.99854">
        <ele>170.77</ele>
        <time>2014-05-10T14:59:54Z</time>
      </trkpt>
      <trkpt lat="44.39975" lon="0.99841">
        <ele>172.69</ele>
        <time>2014-05-10T15:00:04Z</time>
      </trkpt>
      <trkpt lat="44.3998" lon="0.99842">
        <ele>173.66</ele>
        <time>2014-05-10T15:00:09Z</time>
      </trkpt>
      <trkpt lat="44.39988" lon="0.99836">
        <ele>174.14</ele>
        <time>2014-05-10T15:00:22Z</time>
      </trkpt>
      <trkpt lat="44.39988" lon="0.99835">
        <ele>174.14</ele>
        <time>2014-05-10T15:00:38Z</time>
      </trkpt>
      <trkpt lat="44.39988" lon="0.99835">
        <ele>174.14</ele>
        <time>2014-05-10T15:00:58Z</time>
      </trkpt>
      <trkpt lat="44.39988" lon="0.99835">
        <ele>174.62</ele>
        <time>2014-05-10T15:01:17Z</time>
      </trkpt>
      <trkpt lat="44.39992" lon="0.99837">
        <ele>173.66</ele>
        <time>2014-05-10T15:01:34Z</time>
      </trkpt>
      <trkpt lat="44.39993" lon="0.99838">
        <ele>174.62</ele>
        <time>2014-05-10T15:01:55Z</time>
      </trkpt>
      <trkpt lat="44.39993" lon="0.99838">
        <ele>173.66</ele>
        <time>2014-05-10T15:02:22Z</time>
      </trkpt>
      <trkpt lat="44.39994" lon="0.99837">
        <ele>173.17</ele>
        <time>2014-05-10T15:02:51Z</time>
      </trkpt>
      <trkpt lat="44.39993" lon="0.99835">
        <ele>173.17</ele>
        <time>2014-05-10T15:03:04Z</time>
      </trkpt>
      <trkpt lat="44.39993" lon="0.99835">
        <ele>172.21</ele>
        <time>2014-05-10T15:03:29Z</time>
      </trkpt>
      <trkpt lat="44.39995" lon="0.99833">
        <ele>172.69</ele>
        <time>2014-05-10T15:03:46Z</time>
      </trkpt>
      <trkpt lat="44.40017" lon="0.99816">
        <ele>175.1</ele>
        <time>2014-05-10T15:03:59Z</time>
      </trkpt>
      <trkpt lat="44.40038" lon="0.99791">
        <ele>175.1</ele>
        <time>2014-05-10T15:04:09Z</time>
      </trkpt>
      <trkpt lat="44.40044" lon="0.99783">
        <ele>174.14</ele>
        <time>2014-05-10T15:04:11Z</time>
      </trkpt>
      <trkpt lat="44.40053" lon="0.99774">
        <ele>173.17</ele>
        <time>2014-05-10T15:04:13Z</time>
      </trkpt>
      <trkpt lat="44.40083" lon="0.99747">
        <ele>170.77</ele>
        <time>2014-05-10T15:04:18Z</time>
      </trkpt>
      <trkpt lat="44.40087" lon="0.99742">
        <ele>170.29</ele>
        <time>2014-05-10T15:04:19Z</time>
      </trkpt>
      <trkpt lat="44.40091" lon="0.99737">
        <ele>170.29</ele>
        <time>2014-05-10T15:04:20Z</time>
      </trkpt>
      <trkpt lat="44.40093" lon="0.99732">
        <ele>169.81</ele>
        <time>2014-05-10T15:04:21Z</time>
      </trkpt>
      <trkpt lat="44.40095" lon="0.99727">
        <ele>169.81</ele>
        <time>2014-05-10T15:04:22Z</time>
      </trkpt>
      <trkpt lat="44.40097" lon="0.99722">
        <ele>169.81</ele>
        <time>2014-05-10T15:04:23Z</time>
      </trkpt>
      <trkpt lat="44.40106" lon="0.99689">
        <ele>169.33</ele>
        <time>2014-05-10T15:04:31Z</time>
      </trkpt>
      <trkpt lat="44.40105" lon="0.99687">
        <ele>169.33</ele>
        <time>2014-05-10T15:04:32Z</time>
      </trkpt>
      <trkpt lat="44.40106" lon="0.99686">
        <ele>168.85</ele>
        <time>2014-05-10T15:04:42Z</time>
      </trkpt>
      <trkpt lat="44.40107" lon="0.99686">
        <ele>166.45</ele>
        <time>2014-05-10T15:05:13Z</time>
      </trkpt>
      <trkpt lat="44.40107" lon="0.99687">
        <ele>166.45</ele>
        <time>2014-05-10T15:05:39Z</time>
      </trkpt>
      <trkpt lat="44.40106" lon="0.99688">
        <ele>165.96</ele>
        <time>2014-05-10T15:06:05Z</time>
      </trkpt>
      <trkpt lat="44.40106" lon="0.99688">
        <ele>165.96</ele>
        <time>2014-05-10T15:06:32Z</time>
      </trkpt>
      <trkpt lat="44.40105" lon="0.99688">
        <ele>166.45</ele>
        <time>2014-05-10T15:07:04Z</time>
      </trkpt>
      <trkpt lat="44.40106" lon="0.99689">
        <ele>166.45</ele>
        <time>2014-05-10T15:07:31Z</time>
      </trkpt>
      <trkpt lat="44.40106" lon="0.99689">
        <ele>165.96</ele>
        <time>2014-05-10T15:07:54Z</time>
      </trkpt>
      <trkpt lat="44.40105" lon="0.99689">
        <ele>165.48</ele>
        <time>2014-05-10T15:08:33Z</time>
      </trkpt>
      <trkpt lat="44.40105" lon="0.99688">
        <ele>165.96</ele>
        <time>2014-05-10T15:09:07Z</time>
      </trkpt>
      <trkpt lat="44.40104" lon="0.9969">
        <ele>166.93</ele>
        <time>2014-05-10T15:09:42Z</time>
      </trkpt>
      <trkpt lat="44.40103" lon="0.99691">
        <ele>169.33</ele>
        <time>2014-05-10T15:10:22Z</time>
      </trkpt>
      <trkpt lat="44.40103" lon="0.9969">
        <ele>169.81</ele>
        <time>2014-05-10T15:10:59Z</time>
      </trkpt>
      <trkpt lat="44.40103" lon="0.99692">
        <ele>169.81</ele>
        <time>2014-05-10T15:11:23Z</time>
      </trkpt>
      <trkpt lat="44.40103" lon="0.99692">
        <ele>168.37</ele>
        <time>2014-05-10T15:11:59Z</time>
      </trkpt>
      <trkpt lat="44.40101" lon="0.99692">
        <ele>168.85</ele>
        <time>2014-05-10T15:12:37Z</time>
      </trkpt>
      <trkpt lat="44.40099" lon="0.99691">
        <ele>167.41</ele>
        <time>2014-05-10T15:13:20Z</time>
      </trkpt>
      <trkpt lat="44.40098" lon="0.99692">
        <ele>166.93</ele>
        <time>2014-05-10T15:13:46Z</time>
      </trkpt>
      <trkpt lat="44.40098" lon="0.99693">
        <ele>166.93</ele>
        <time>2014-05-10T15:14:10Z</time>
      </trkpt>
      <trkpt lat="44.40098" lon="0.99692">
        <ele>166.45</ele>
        <time>2014-05-10T15:14:44Z</time>
      </trkpt>
      <trkpt lat="44.40098" lon="0.99691">
        <ele>165.96</ele>
        <time>2014-05-10T15:15:20Z</time>
      </trkpt>
      <trkpt lat="44.40099" lon="0.9969">
        <ele>165.48</ele>
        <time>2014-05-10T15:15:51Z</time>
      </trkpt>
      <trkpt lat="44.40098" lon="0.99691">
        <ele>165</ele>
        <time>2014-05-10T15:16:26Z</time>
      </trkpt>
      <trkpt lat="44.40098" lon="0.9969">
        <ele>165.48</ele>
        <time>2014-05-10T15:16:56Z</time>
      </trkpt>
      <trkpt lat="44.40102" lon="0.99693">
        <ele>167.41</ele>
        <time>2014-05-10T15:17:09Z</time>
      </trkpt>
      <trkpt lat="44.40105" lon="0.99694">
        <ele>168.37</ele>
        <time>2014-05-10T15:17:31Z</time>
      </trkpt>
      <trkpt lat="44.40106" lon="0.99693">
        <ele>170.29</ele>
        <time>2014-05-10T15:17:56Z</time>
      </trkpt>
      <trkpt lat="44.40106" lon="0.99693">
        <ele>171.25</ele>
        <time>2014-05-10T15:18:16Z</time>
      </trkpt>
      <trkpt lat="44.40108" lon="0.99694">
        <ele>171.25</ele>
        <time>2014-05-10T15:18:36Z</time>
      </trkpt>
      <trkpt lat="44.40109" lon="0.99693">
        <ele>171.73</ele>
        <time>2014-05-10T15:18:52Z</time>
      </trkpt>
      <trkpt lat="44.40109" lon="0.99693">
        <ele>172.69</ele>
        <time>2014-05-10T15:19:22Z</time>
      </trkpt>
      <trkpt lat="44.4011" lon="0.99693">
        <ele>173.17</ele>
        <time>2014-05-10T15:19:45Z</time>
      </trkpt>
      <trkpt lat="44.4011" lon="0.99693">
        <ele>172.69</ele>
        <time>2014-05-10T15:20:04Z</time>
      </trkpt>
      <trkpt lat="44.4011" lon="0.99693">
        <ele>172.69</ele>
        <time>2014-05-10T15:20:18Z</time>
      </trkpt>
      <trkpt lat="44.40109" lon="0.99692">
        <ele>172.21</ele>
        <time>2014-05-10T15:20:45Z</time>
      </trkpt>
      <trkpt lat="44.40109" lon="0.99691">
        <ele>174.14</ele>
        <time>2014-05-10T15:21:08Z</time>
      </trkpt>
      <trkpt lat="44.40111" lon="0.99691">
        <ele>174.14</ele>
        <time>2014-05-10T15:21:12Z</time>
      </trkpt>
      <trkpt lat="44.40112" lon="0.99691">
        <ele>174.14</ele>
        <time>2014-05-10T15:21:13Z</time>
      </trkpt>
      <trkpt lat="44.40113" lon="0.99689">
        <ele>174.14</ele>
        <time>2014-05-10T15:21:14Z</time>
      </trkpt>
      <trkpt lat="44.40121" lon="0.99676">
        <ele>173.66</ele>
        <time>2014-05-10T15:21:21Z</time>
      </trkpt>
      <trkpt lat="44.40122" lon="0.99676">
        <ele>173.66</ele>
        <time>2014-05-10T15:21:22Z</time>
      </trkpt>
      <trkpt lat="44.40126" lon="0.9967">
        <ele>173.17</ele>
        <time>2014-05-10T15:21:31Z</time>
      </trkpt>
      <trkpt lat="44.40128" lon="0.99623">
        <ele>173.66</ele>
        <time>2014-05-10T15:21:43Z</time>
      </trkpt>
      <trkpt lat="44.40139" lon="0.99559">
        <ele>176.06</ele>
        <time>2014-05-10T15:21:58Z</time>
      </trkpt>
      <trkpt lat="44.40168" lon="0.99498">
        <ele>178.94</ele>
        <time>2014-05-10T15:22:13Z</time>
      </trkpt>
      <trkpt lat="44.40202" lon="0.99436">
        <ele>178.46</ele>
        <time>2014-05-10T15:22:26Z</time>
      </trkpt>
      <trkpt lat="44.40222" lon="0.9939">
        <ele>176.54</ele>
        <time>2014-05-10T15:22:33Z</time>
      </trkpt>
      <trkpt lat="44.40224" lon="0.99382">
        <ele>176.06</ele>
        <time>2014-05-10T15:22:34Z</time>
      </trkpt>
      <trkpt lat="44.40227" lon="0.99366">
        <ele>175.1</ele>
        <time>2014-05-10T15:22:36Z</time>
      </trkpt>
      <trkpt lat="44.40228" lon="0.99358">
        <ele>174.62</ele>
        <time>2014-05-10T15:22:37Z</time>
      </trkpt>
      <trkpt lat="44.40229" lon="0.99341">
        <ele>173.66</ele>
        <time>2014-05-10T15:22:39Z</time>
      </trkpt>
      <trkpt lat="44.40226" lon="0.99315">
        <ele>172.21</ele>
        <time>2014-05-10T15:22:42Z</time>
      </trkpt>
      <trkpt lat="44.40224" lon="0.99306">
        <ele>171.73</ele>
        <time>2014-05-10T15:22:43Z</time>
      </trkpt>
      <trkpt lat="44.40219" lon="0.9929">
        <ele>170.77</ele>
        <time>2014-05-10T15:22:45Z</time>
      </trkpt>
      <trkpt lat="44.40208" lon="0.99266">
        <ele>169.33</ele>
        <time>2014-05-10T15:22:48Z</time>
      </trkpt>
      <trkpt lat="44.40203" lon="0.9926">
        <ele>168.85</ele>
        <time>2014-05-10T15:22:49Z</time>
      </trkpt>
      <trkpt lat="44.40198" lon="0.99253">
        <ele>168.85</ele>
        <time>2014-05-10T15:22:50Z</time>
      </trkpt>
      <trkpt lat="44.40186" lon="0.99242">
        <ele>167.89</ele>
        <time>2014-05-10T15:22:52Z</time>
      </trkpt>
      <trkpt lat="44.4018" lon="0.99237">
        <ele>167.41</ele>
        <time>2014-05-10T15:22:53Z</time>
      </trkpt>
      <trkpt lat="44.40096" lon="0.99176">
        <ele>161.16</ele>
        <time>2014-05-10T15:23:06Z</time>
      </trkpt>
      <trkpt lat="44.40091" lon="0.9917">
        <ele>161.16</ele>
        <time>2014-05-10T15:23:07Z</time>
      </trkpt>
      <trkpt lat="44.40088" lon="0.99162">
        <ele>160.68</ele>
        <time>2014-05-10T15:23:08Z</time>
      </trkpt>
      <trkpt lat="44.40087" lon="0.99153">
        <ele>160.68</ele>
        <time>2014-05-10T15:23:09Z</time>
      </trkpt>
      <trkpt lat="44.40087" lon="0.99146">
        <ele>161.16</ele>
        <time>2014-05-10T15:23:10Z</time>
      </trkpt>
      <trkpt lat="44.40087" lon="0.99139">
        <ele>161.16</ele>
        <time>2014-05-10T15:23:11Z</time>
      </trkpt>
      <trkpt lat="44.40088" lon="0.99132">
        <ele>161.64</ele>
        <time>2014-05-10T15:23:12Z</time>
      </trkpt>
      <trkpt lat="44.40087" lon="0.99126">
        <ele>161.64</ele>
        <time>2014-05-10T15:23:13Z</time>
      </trkpt>
      <trkpt lat="44.40087" lon="0.99121">
        <ele>161.64</ele>
        <time>2014-05-10T15:23:14Z</time>
      </trkpt>
      <trkpt lat="44.40097" lon="0.99043">
        <ele>162.6</ele>
        <time>2014-05-10T15:23:30Z</time>
      </trkpt>
      <trkpt lat="44.40115" lon="0.98987">
        <ele>163.56</ele>
        <time>2014-05-10T15:23:41Z</time>
      </trkpt>
      <trkpt lat="44.40116" lon="0.9898">
        <ele>163.56</ele>
        <time>2014-05-10T15:23:42Z</time>
      </trkpt>
      <trkpt lat="44.40139" lon="0.98891">
        <ele>161.64</ele>
        <time>2014-05-10T15:23:54Z</time>
      </trkpt>
      <trkpt lat="44.40175" lon="0.98752">
        <ele>160.2</ele>
        <time>2014-05-10T15:24:13Z</time>
      </trkpt>
      <trkpt lat="44.40212" lon="0.98626">
        <ele>160.68</ele>
        <time>2014-05-10T15:24:31Z</time>
      </trkpt>
      <trkpt lat="44.40227" lon="0.98547">
        <ele>162.12</ele>
        <time>2014-05-10T15:24:43Z</time>
      </trkpt>
      <trkpt lat="44.40228" lon="0.98541">
        <ele>162.12</ele>
        <time>2014-05-10T15:24:44Z</time>
      </trkpt>
      <trkpt lat="44.40231" lon="0.9853">
        <ele>162.6</ele>
        <time>2014-05-10T15:24:46Z</time>
      </trkpt>
      <trkpt lat="44.40242" lon="0.98417">
        <ele>160.68</ele>
        <time>2014-05-10T15:25:01Z</time>
      </trkpt>
      <trkpt lat="44.40244" lon="0.98326">
        <ele>160.68</ele>
        <time>2014-05-10T15:25:13Z</time>
      </trkpt>
      <trkpt lat="44.40254" lon="0.98214">
        <ele>162.12</ele>
        <time>2014-05-10T15:25:28Z</time>
      </trkpt>
      <trkpt lat="44.40261" lon="0.98169">
        <ele>164.04</ele>
        <time>2014-05-10T15:25:35Z</time>
      </trkpt>
      <trkpt lat="44.40262" lon="0.98162">
        <ele>164.52</ele>
        <time>2014-05-10T15:25:36Z</time>
      </trkpt>
      <trkpt lat="44.40264" lon="0.9811">
        <ele>165</ele>
        <time>2014-05-10T15:25:44Z</time>
      </trkpt>
      <trkpt lat="44.40264" lon="0.98097">
        <ele>165</ele>
        <time>2014-05-10T15:25:46Z</time>
      </trkpt>
      <trkpt lat="44.40267" lon="0.98063">
        <ele>165.48</ele>
        <time>2014-05-10T15:25:52Z</time>
      </trkpt>
      <trkpt lat="44.40267" lon="0.98057">
        <ele>165.48</ele>
        <time>2014-05-10T15:25:53Z</time>
      </trkpt>
      <trkpt lat="44.40267" lon="0.98052">
        <ele>165.96</ele>
        <time>2014-05-10T15:25:54Z</time>
      </trkpt>
      <trkpt lat="44.40274" lon="0.97943">
        <ele>166.45</ele>
        <time>2014-05-10T15:26:09Z</time>
      </trkpt>
      <trkpt lat="44.40281" lon="0.979">
        <ele>167.41</ele>
        <time>2014-05-10T15:26:15Z</time>
      </trkpt>
      <trkpt lat="44.40283" lon="0.97893">
        <ele>167.89</ele>
        <time>2014-05-10T15:26:16Z</time>
      </trkpt>
      <trkpt lat="44.40311" lon="0.97834">
        <ele>170.29</ele>
        <time>2014-05-10T15:26:26Z</time>
      </trkpt>
      <trkpt lat="44.40316" lon="0.97824">
        <ele>170.29</ele>
        <time>2014-05-10T15:26:28Z</time>
      </trkpt>
      <trkpt lat="44.40319" lon="0.97818">
        <ele>170.77</ele>
        <time>2014-05-10T15:26:29Z</time>
      </trkpt>
      <trkpt lat="44.40321" lon="0.97811">
        <ele>170.77</ele>
        <time>2014-05-10T15:26:30Z</time>
      </trkpt>
      <trkpt lat="44.40322" lon="0.97805">
        <ele>170.77</ele>
        <time>2014-05-10T15:26:31Z</time>
      </trkpt>
      <trkpt lat="44.40323" lon="0.97798">
        <ele>170.77</ele>
        <time>2014-05-10T15:26:32Z</time>
      </trkpt>
      <trkpt lat="44.40324" lon="0.97792">
        <ele>171.25</ele>
        <time>2014-05-10T15:26:33Z</time>
      </trkpt>
      <trkpt lat="44.40327" lon="0.9777">
        <ele>171.73</ele>
        <time>2014-05-10T15:26:36Z</time>
      </trkpt>
      <trkpt lat="44.40333" lon="0.97712">
        <ele>170.77</ele>
        <time>2014-05-10T15:26:42Z</time>
      </trkpt>
      <trkpt lat="44.40335" lon="0.97702">
        <ele>170.29</ele>
        <time>2014-05-10T15:26:43Z</time>
      </trkpt>
      <trkpt lat="44.40337" lon="0.97692">
        <ele>170.29</ele>
        <time>2014-05-10T15:26:44Z</time>
      </trkpt>
      <trkpt lat="44.40339" lon="0.97681">
        <ele>169.81</ele>
        <time>2014-05-10T15:26:45Z</time>
      </trkpt>
      <trkpt lat="44.4034" lon="0.9767">
        <ele>169.33</ele>
        <time>2014-05-10T15:26:46Z</time>
      </trkpt>
      <trkpt lat="44.4034" lon="0.97657">
        <ele>168.37</ele>
        <time>2014-05-10T15:26:47Z</time>
      </trkpt>
      <trkpt lat="44.40339" lon="0.97645">
        <ele>167.41</ele>
        <time>2014-05-10T15:26:48Z</time>
      </trkpt>
      <trkpt lat="44.40317" lon="0.97504">
        <ele>155.39</ele>
        <time>2014-05-10T15:26:58Z</time>
      </trkpt>
      <trkpt lat="44.403" lon="0.97386">
        <ele>147.7</ele>
        <time>2014-05-10T15:27:08Z</time>
      </trkpt>
      <trkpt lat="44.40299" lon="0.9737">
        <ele>147.22</ele>
        <time>2014-05-10T15:27:12Z</time>
      </trkpt>
      <trkpt lat="44.403" lon="0.97368">
        <ele>146.74</ele>
        <time>2014-05-10T15:27:13Z</time>
      </trkpt>
      <trkpt lat="44.40302" lon="0.97367">
        <ele>145.3</ele>
        <time>2014-05-10T15:27:28Z</time>
      </trkpt>
      <trkpt lat="44.40304" lon="0.97366">
        <ele>144.34</ele>
        <time>2014-05-10T15:27:33Z</time>
      </trkpt>
      <trkpt lat="44.40306" lon="0.97366">
        <ele>144.34</ele>
        <time>2014-05-10T15:27:34Z</time>
      </trkpt>
      <trkpt lat="44.40307" lon="0.97366">
        <ele>144.34</ele>
        <time>2014-05-10T15:27:35Z</time>
      </trkpt>
      <trkpt lat="44.40309" lon="0.97365">
        <ele>144.82</ele>
        <time>2014-05-10T15:27:36Z</time>
      </trkpt>
      <trkpt lat="44.40312" lon="0.97364">
        <ele>144.82</ele>
        <time>2014-05-10T15:27:37Z</time>
      </trkpt>
      <trkpt lat="44.40315" lon="0.97363">
        <ele>144.82</ele>
        <time>2014-05-10T15:27:38Z</time>
      </trkpt>
      <trkpt lat="44.40359" lon="0.9735">
        <ele>146.26</ele>
        <time>2014-05-10T15:27:50Z</time>
      </trkpt>
      <trkpt lat="44.40369" lon="0.9735">
        <ele>146.26</ele>
        <time>2014-05-10T15:27:52Z</time>
      </trkpt>
      <trkpt lat="44.40374" lon="0.97347">
        <ele>146.26</ele>
        <time>2014-05-10T15:27:53Z</time>
      </trkpt>
      <trkpt lat="44.40379" lon="0.97342">
        <ele>146.26</ele>
        <time>2014-05-10T15:27:54Z</time>
      </trkpt>
      <trkpt lat="44.40384" lon="0.97333">
        <ele>145.78</ele>
        <time>2014-05-10T15:27:55Z</time>
      </trkpt>
      <trkpt lat="44.40389" lon="0.97324">
        <ele>145.3</ele>
        <time>2014-05-10T15:27:56Z</time>
      </trkpt>
      <trkpt lat="44.40466" lon="0.97189">
        <ele>133.76</ele>
        <time>2014-05-10T15:28:09Z</time>
      </trkpt>
      <trkpt lat="44.40482" lon="0.97149">
        <ele>130.4</ele>
        <time>2014-05-10T15:28:13Z</time>
      </trkpt>
      <trkpt lat="44.40482" lon="0.97141">
        <ele>129.92</ele>
        <time>2014-05-10T15:28:14Z</time>
      </trkpt>
      <trkpt lat="44.40477" lon="0.97087">
        <ele>127.03</ele>
        <time>2014-05-10T15:28:20Z</time>
      </trkpt>
      <trkpt lat="44.40485" lon="0.97059">
        <ele>124.15</ele>
        <time>2014-05-10T15:28:24Z</time>
      </trkpt>
      <trkpt lat="44.40504" lon="0.97045">
        <ele>122.71</ele>
        <time>2014-05-10T15:28:27Z</time>
      </trkpt>
      <trkpt lat="44.4051" lon="0.97004">
        <ele>121.74</ele>
        <time>2014-05-10T15:28:34Z</time>
      </trkpt>
      <trkpt lat="44.40509" lon="0.96999">
        <ele>121.74</ele>
        <time>2014-05-10T15:28:35Z</time>
      </trkpt>
      <trkpt lat="44.40513" lon="0.96939">
        <ele>124.15</ele>
        <time>2014-05-10T15:28:47Z</time>
      </trkpt>
      <trkpt lat="44.40523" lon="0.96892">
        <ele>128.95</ele>
        <time>2014-05-10T15:28:58Z</time>
      </trkpt>
      <trkpt lat="44.40532" lon="0.96841">
        <ele>136.16</ele>
        <time>2014-05-10T15:29:11Z</time>
      </trkpt>
      <trkpt lat="44.40534" lon="0.96827">
        <ele>139.53</ele>
        <time>2014-05-10T15:29:15Z</time>
      </trkpt>
      <trkpt lat="44.40538" lon="0.96798">
        <ele>147.7</ele>
        <time>2014-05-10T15:29:26Z</time>
      </trkpt>
      <trkpt lat="44.40544" lon="0.9678">
        <ele>148.66</ele>
        <time>2014-05-10T15:29:34Z</time>
      </trkpt>
      <trkpt lat="44.40546" lon="0.9674">
        <ele>147.7</ele>
        <time>2014-05-10T15:29:49Z</time>
      </trkpt>
      <trkpt lat="44.40549" lon="0.96718">
        <ele>146.74</ele>
        <time>2014-05-10T15:29:57Z</time>
      </trkpt>
      <trkpt lat="44.40549" lon="0.9671">
        <ele>147.22</ele>
        <time>2014-05-10T15:30:01Z</time>
      </trkpt>
      <trkpt lat="44.40548" lon="0.96667">
        <ele>149.62</ele>
        <time>2014-05-10T15:30:16Z</time>
      </trkpt>
      <trkpt lat="44.40549" lon="0.96631">
        <ele>152.51</ele>
        <time>2014-05-10T15:30:26Z</time>
      </trkpt>
      <trkpt lat="44.40567" lon="0.96577">
        <ele>155.39</ele>
        <time>2014-05-10T15:30:40Z</time>
      </trkpt>
      <trkpt lat="44.40585" lon="0.96531">
        <ele>157.31</ele>
        <time>2014-05-10T15:30:52Z</time>
      </trkpt>
      <trkpt lat="44.4059" lon="0.96509">
        <ele>154.43</ele>
        <time>2014-05-10T15:31:03Z</time>
      </trkpt>
      <trkpt lat="44.40592" lon="0.96502">
        <ele>148.66</ele>
        <time>2014-05-10T15:31:21Z</time>
      </trkpt>
      <trkpt lat="44.40594" lon="0.965">
        <ele>147.7</ele>
        <time>2014-05-10T15:31:40Z</time>
      </trkpt>
      <trkpt lat="44.40594" lon="0.96499">
        <ele>147.22</ele>
        <time>2014-05-10T15:31:59Z</time>
      </trkpt>
      <trkpt lat="44.40596" lon="0.96499">
        <ele>146.74</ele>
        <time>2014-05-10T15:32:31Z</time>
      </trkpt>
      <trkpt lat="44.40596" lon="0.96498">
        <ele>146.26</ele>
        <time>2014-05-10T15:33:00Z</time>
      </trkpt>
      <trkpt lat="44.40597" lon="0.96497">
        <ele>145.78</ele>
        <time>2014-05-10T15:33:17Z</time>
      </trkpt>
      <trkpt lat="44.40597" lon="0.96497">
        <ele>145.3</ele>
        <time>2014-05-10T15:33:42Z</time>
      </trkpt>
      <trkpt lat="44.40597" lon="0.96497">
        <ele>145.3</ele>
        <time>2014-05-10T15:33:59Z</time>
      </trkpt>
      <trkpt lat="44.40597" lon="0.96498">
        <ele>145.78</ele>
        <time>2014-05-10T15:34:29Z</time>
      </trkpt>
      <trkpt lat="44.40597" lon="0.96498">
        <ele>145.3</ele>
        <time>2014-05-10T15:34:51Z</time>
      </trkpt>
      <trkpt lat="44.40597" lon="0.96498">
        <ele>144.82</ele>
        <time>2014-05-10T15:35:19Z</time>
      </trkpt>
      <trkpt lat="44.40596" lon="0.96498">
        <ele>144.82</ele>
        <time>2014-05-10T15:35:26Z</time>
      </trkpt>
      <trkpt lat="44.40599" lon="0.96487">
        <ele>145.78</ele>
        <time>2014-05-10T15:35:31Z</time>
      </trkpt>
      <trkpt lat="44.406" lon="0.96485">
        <ele>145.78</ele>
        <time>2014-05-10T15:35:32Z</time>
      </trkpt>
      <trkpt lat="44.406" lon="0.96482">
        <ele>145.78</ele>
        <time>2014-05-10T15:35:33Z</time>
      </trkpt>
      <trkpt lat="44.40601" lon="0.9648">
        <ele>145.78</ele>
        <time>2014-05-10T15:35:34Z</time>
      </trkpt>
      <trkpt lat="44.40602" lon="0.96477">
        <ele>145.78</ele>
        <time>2014-05-10T15:35:35Z</time>
      </trkpt>
      <trkpt lat="44.4061" lon="0.96439">
        <ele>144.82</ele>
        <time>2014-05-10T15:35:47Z</time>
      </trkpt>
      <trkpt lat="44.40611" lon="0.96429">
        <ele>144.34</ele>
        <time>2014-05-10T15:35:53Z</time>
      </trkpt>
      <trkpt lat="44.40611" lon="0.96436">
        <ele>144.82</ele>
        <time>2014-05-10T15:35:57Z</time>
      </trkpt>
      <trkpt lat="44.40609" lon="0.96446">
        <ele>144.34</ele>
        <time>2014-05-10T15:36:10Z</time>
      </trkpt>
      <trkpt lat="44.4061" lon="0.96448">
        <ele>143.85</ele>
        <time>2014-05-10T15:36:25Z</time>
      </trkpt>
      <trkpt lat="44.40609" lon="0.96449">
        <ele>143.85</ele>
        <time>2014-05-10T15:36:46Z</time>
      </trkpt>
      <trkpt lat="44.40609" lon="0.96448">
        <ele>143.37</ele>
        <time>2014-05-10T15:37:09Z</time>
      </trkpt>
      <trkpt lat="44.4061" lon="0.96448">
        <ele>144.34</ele>
        <time>2014-05-10T15:37:37Z</time>
      </trkpt>
      <trkpt lat="44.4061" lon="0.96449">
        <ele>144.34</ele>
        <time>2014-05-10T15:37:55Z</time>
      </trkpt>
      <trkpt lat="44.4061" lon="0.96447">
        <ele>143.85</ele>
        <time>2014-05-10T15:38:09Z</time>
      </trkpt>
      <trkpt lat="44.40611" lon="0.96446">
        <ele>142.89</ele>
        <time>2014-05-10T15:38:36Z</time>
      </trkpt>
      <trkpt lat="44.40613" lon="0.96436">
        <ele>143.85</ele>
        <time>2014-05-10T15:38:41Z</time>
      </trkpt>
      <trkpt lat="44.40614" lon="0.96432">
        <ele>143.85</ele>
        <time>2014-05-10T15:38:42Z</time>
      </trkpt>
      <trkpt lat="44.40615" lon="0.96429">
        <ele>143.85</ele>
        <time>2014-05-10T15:38:43Z</time>
      </trkpt>
      <trkpt lat="44.40624" lon="0.96365">
        <ele>147.22</ele>
        <time>2014-05-10T15:38:57Z</time>
      </trkpt>
      <trkpt lat="44.40628" lon="0.96321">
        <ele>149.14</ele>
        <time>2014-05-10T15:39:07Z</time>
      </trkpt>
      <trkpt lat="44.40631" lon="0.96258">
        <ele>149.14</ele>
        <time>2014-05-10T15:39:20Z</time>
      </trkpt>
      <trkpt lat="44.40631" lon="0.96241">
        <ele>149.14</ele>
        <time>2014-05-10T15:39:23Z</time>
      </trkpt>
      <trkpt lat="44.40636" lon="0.96171">
        <ele>147.7</ele>
        <time>2014-05-10T15:39:35Z</time>
      </trkpt>
      <trkpt lat="44.40637" lon="0.96165">
        <ele>147.7</ele>
        <time>2014-05-10T15:39:36Z</time>
      </trkpt>
      <trkpt lat="44.40638" lon="0.96158">
        <ele>147.7</ele>
        <time>2014-05-10T15:39:37Z</time>
      </trkpt>
      <trkpt lat="44.40639" lon="0.96151">
        <ele>147.7</ele>
        <time>2014-05-10T15:39:38Z</time>
      </trkpt>
      <trkpt lat="44.40639" lon="0.96144">
        <ele>147.7</ele>
        <time>2014-05-10T15:39:39Z</time>
      </trkpt>
      <trkpt lat="44.4064" lon="0.96129">
        <ele>147.22</ele>
        <time>2014-05-10T15:39:41Z</time>
      </trkpt>
      <trkpt lat="44.40642" lon="0.96115">
        <ele>147.22</ele>
        <time>2014-05-10T15:39:43Z</time>
      </trkpt>
      <trkpt lat="44.40643" lon="0.96108">
        <ele>146.74</ele>
        <time>2014-05-10T15:39:44Z</time>
      </trkpt>
      <trkpt lat="44.40643" lon="0.96102">
        <ele>146.74</ele>
        <time>2014-05-10T15:39:45Z</time>
      </trkpt>
      <trkpt lat="44.40651" lon="0.96021">
        <ele>145.78</ele>
        <time>2014-05-10T15:39:58Z</time>
      </trkpt>
      <trkpt lat="44.40669" lon="0.9596">
        <ele>147.22</ele>
        <time>2014-05-10T15:40:10Z</time>
      </trkpt>
      <trkpt lat="44.40671" lon="0.95955">
        <ele>147.22</ele>
        <time>2014-05-10T15:40:11Z</time>
      </trkpt>
      <trkpt lat="44.40678" lon="0.95937">
        <ele>147.22</ele>
        <time>2014-05-10T15:40:14Z</time>
      </trkpt>
      <trkpt lat="44.40683" lon="0.95916">
        <ele>147.22</ele>
        <time>2014-05-10T15:40:17Z</time>
      </trkpt>
      <trkpt lat="44.40711" lon="0.95806">
        <ele>144.82</ele>
        <time>2014-05-10T15:40:33Z</time>
      </trkpt>
      <trkpt lat="44.40721" lon="0.95786">
        <ele>144.82</ele>
        <time>2014-05-10T15:40:37Z</time>
      </trkpt>
      <trkpt lat="44.40723" lon="0.95781">
        <ele>144.82</ele>
        <time>2014-05-10T15:40:38Z</time>
      </trkpt>
      <trkpt lat="44.40765" lon="0.95697">
        <ele>147.22</ele>
        <time>2014-05-10T15:40:55Z</time>
      </trkpt>
      <trkpt lat="44.40767" lon="0.95691">
        <ele>147.22</ele>
        <time>2014-05-10T15:40:56Z</time>
      </trkpt>
      <trkpt lat="44.40789" lon="0.95652">
        <ele>149.14</ele>
        <time>2014-05-10T15:41:06Z</time>
      </trkpt>
      <trkpt lat="44.40817" lon="0.95616">
        <ele>152.99</ele>
        <time>2014-05-10T15:41:19Z</time>
      </trkpt>
      <trkpt lat="44.40844" lon="0.95581">
        <ele>155.39</ele>
        <time>2014-05-10T15:41:35Z</time>
      </trkpt>
      <trkpt lat="44.40864" lon="0.95556">
        <ele>157.79</ele>
        <time>2014-05-10T15:41:47Z</time>
      </trkpt>
      <trkpt lat="44.40877" lon="0.95544">
        <ele>160.2</ele>
        <time>2014-05-10T15:41:59Z</time>
      </trkpt>
      <trkpt lat="44.40881" lon="0.95539">
        <ele>160.68</ele>
        <time>2014-05-10T15:42:12Z</time>
      </trkpt>
      <trkpt lat="44.40897" lon="0.95525">
        <ele>162.12</ele>
        <time>2014-05-10T15:42:23Z</time>
      </trkpt>
      <trkpt lat="44.40922" lon="0.95497">
        <ele>162.12</ele>
        <time>2014-05-10T15:42:36Z</time>
      </trkpt>
      <trkpt lat="44.40937" lon="0.95486">
        <ele>161.16</ele>
        <time>2014-05-10T15:42:41Z</time>
      </trkpt>
      <trkpt lat="44.40979" lon="0.95466">
        <ele>160.68</ele>
        <time>2014-05-10T15:42:50Z</time>
      </trkpt>
      <trkpt lat="44.41014" lon="0.95463">
        <ele>161.16</ele>
        <time>2014-05-10T15:42:57Z</time>
      </trkpt>
      <trkpt lat="44.41031" lon="0.95458">
        <ele>163.08</ele>
        <time>2014-05-10T15:43:01Z</time>
      </trkpt>
      <trkpt lat="44.41072" lon="0.9544">
        <ele>168.37</ele>
        <time>2014-05-10T15:43:13Z</time>
      </trkpt>
      <trkpt lat="44.41119" lon="0.95421">
        <ele>172.21</ele>
        <time>2014-05-10T15:43:28Z</time>
      </trkpt>
      <trkpt lat="44.41153" lon="0.95392">
        <ele>174.14</ele>
        <time>2014-05-10T15:43:40Z</time>
      </trkpt>
      <trkpt lat="44.41194" lon="0.9534">
        <ele>169.81</ele>
        <time>2014-05-10T15:43:55Z</time>
      </trkpt>
      <trkpt lat="44.41208" lon="0.95319">
        <ele>167.89</ele>
        <time>2014-05-10T15:44:00Z</time>
      </trkpt>
      <trkpt lat="44.41255" lon="0.95247">
        <ele>158.27</ele>
        <time>2014-05-10T15:44:11Z</time>
      </trkpt>
      <trkpt lat="44.4127" lon="0.95217">
        <ele>155.39</ele>
        <time>2014-05-10T15:44:15Z</time>
      </trkpt>
      <trkpt lat="44.4128" lon="0.95191">
        <ele>154.91</ele>
        <time>2014-05-10T15:44:19Z</time>
      </trkpt>
      <trkpt lat="44.41309" lon="0.9512">
        <ele>151.06</ele>
        <time>2014-05-10T15:44:33Z</time>
      </trkpt>
      <trkpt lat="44.41342" lon="0.95066">
        <ele>148.66</ele>
        <time>2014-05-10T15:44:43Z</time>
      </trkpt>
      <trkpt lat="44.41374" lon="0.95031">
        <ele>148.66</ele>
        <time>2014-05-10T15:44:51Z</time>
      </trkpt>
      <trkpt lat="44.41407" lon="0.94991">
        <ele>150.58</ele>
        <time>2014-05-10T15:44:59Z</time>
      </trkpt>
      <trkpt lat="44.41414" lon="0.94979">
        <ele>151.06</ele>
        <time>2014-05-10T15:45:01Z</time>
      </trkpt>
      <trkpt lat="44.41442" lon="0.94916">
        <ele>151.54</ele>
        <time>2014-05-10T15:45:09Z</time>
      </trkpt>
      <trkpt lat="44.41456" lon="0.94881">
        <ele>151.06</ele>
        <time>2014-05-10T15:45:13Z</time>
      </trkpt>
      <trkpt lat="44.41479" lon="0.94828">
        <ele>149.62</ele>
        <time>2014-05-10T15:45:19Z</time>
      </trkpt>
      <trkpt lat="44.41488" lon="0.9481">
        <ele>148.66</ele>
        <time>2014-05-10T15:45:23Z</time>
      </trkpt>
      <trkpt lat="44.41503" lon="0.94778">
        <ele>143.85</ele>
        <time>2014-05-10T15:45:37Z</time>
      </trkpt>
      <trkpt lat="44.41514" lon="0.94754">
        <ele>142.41</ele>
        <time>2014-05-10T15:45:42Z</time>
      </trkpt>
      <trkpt lat="44.41536" lon="0.94696">
        <ele>140.49</ele>
        <time>2014-05-10T15:45:55Z</time>
      </trkpt>
      <trkpt lat="44.41551" lon="0.94656">
        <ele>140.49</ele>
        <time>2014-05-10T15:46:07Z</time>
      </trkpt>
      <trkpt lat="44.41555" lon="0.94646">
        <ele>140.49</ele>
        <time>2014-05-10T15:46:09Z</time>
      </trkpt>
      <trkpt lat="44.41562" lon="0.94606">
        <ele>140.49</ele>
        <time>2014-05-10T15:46:15Z</time>
      </trkpt>
      <trkpt lat="44.41572" lon="0.94564">
        <ele>139.53</ele>
        <time>2014-05-10T15:46:20Z</time>
      </trkpt>
      <trkpt lat="44.41593" lon="0.94474">
        <ele>139.05</ele>
        <time>2014-05-10T15:46:32Z</time>
      </trkpt>
      <trkpt lat="44.41603" lon="0.94443">
        <ele>139.05</ele>
        <time>2014-05-10T15:46:37Z</time>
      </trkpt>
      <trkpt lat="44.41654" lon="0.94333">
        <ele>132.32</ele>
        <time>2014-05-10T15:46:53Z</time>
      </trkpt>
      <trkpt lat="44.41729" lon="0.94198">
        <ele>116.46</ele>
        <time>2014-05-10T15:47:08Z</time>
      </trkpt>
      <trkpt lat="44.41761" lon="0.94134">
        <ele>115.5</ele>
        <time>2014-05-10T15:47:18Z</time>
      </trkpt>
      <trkpt lat="44.41792" lon="0.94074">
        <ele>118.38</ele>
        <time>2014-05-10T15:47:34Z</time>
      </trkpt>
      <trkpt lat="44.41809" lon="0.94039">
        <ele>119.82</ele>
        <time>2014-05-10T15:47:47Z</time>
      </trkpt>
      <trkpt lat="44.4181" lon="0.94037">
        <ele>119.82</ele>
        <time>2014-05-10T15:47:48Z</time>
      </trkpt>
      <trkpt lat="44.4182" lon="0.94023">
        <ele>121.26</ele>
        <time>2014-05-10T15:47:54Z</time>
      </trkpt>
      <trkpt lat="44.41827" lon="0.94013">
        <ele>121.74</ele>
        <time>2014-05-10T15:47:58Z</time>
      </trkpt>
      <trkpt lat="44.41833" lon="0.94004">
        <ele>121.74</ele>
        <time>2014-05-10T15:48:01Z</time>
      </trkpt>
      <trkpt lat="44.41847" lon="0.93987">
        <ele>123.67</ele>
        <time>2014-05-10T15:48:09Z</time>
      </trkpt>
      <trkpt lat="44.41865" lon="0.93945">
        <ele>122.22</ele>
        <time>2014-05-10T15:48:21Z</time>
      </trkpt>
      <trkpt lat="44.41876" lon="0.93897">
        <ele>122.22</ele>
        <time>2014-05-10T15:48:32Z</time>
      </trkpt>
      <trkpt lat="44.41877" lon="0.93895">
        <ele>122.22</ele>
        <time>2014-05-10T15:48:33Z</time>
      </trkpt>
      <trkpt lat="44.41882" lon="0.93883">
        <ele>120.3</ele>
        <time>2014-05-10T15:48:39Z</time>
      </trkpt>
      <trkpt lat="44.41893" lon="0.93848">
        <ele>116.94</ele>
        <time>2014-05-10T15:48:49Z</time>
      </trkpt>
      <trkpt lat="44.41903" lon="0.93793">
        <ele>119.34</ele>
        <time>2014-05-10T15:48:59Z</time>
      </trkpt>
      <trkpt lat="44.41916" lon="0.93713">
        <ele>125.59</ele>
        <time>2014-05-10T15:49:12Z</time>
      </trkpt>
      <trkpt lat="44.41918" lon="0.93691">
        <ele>125.11</ele>
        <time>2014-05-10T15:49:15Z</time>
      </trkpt>
      <trkpt lat="44.41921" lon="0.93627">
        <ele>123.67</ele>
        <time>2014-05-10T15:49:23Z</time>
      </trkpt>
      <trkpt lat="44.41938" lon="0.93567">
        <ele>119.82</ele>
        <time>2014-05-10T15:49:32Z</time>
      </trkpt>
      <trkpt lat="44.41963" lon="0.93523">
        <ele>115.01</ele>
        <time>2014-05-10T15:49:40Z</time>
      </trkpt>
      <trkpt lat="44.41987" lon="0.93479">
        <ele>110.69</ele>
        <time>2014-05-10T15:49:47Z</time>
      </trkpt>
      <trkpt lat="44.4202" lon="0.93421">
        <ele>107.32</ele>
        <time>2014-05-10T15:49:55Z</time>
      </trkpt>
      <trkpt lat="44.42047" lon="0.93361">
        <ele>112.61</ele>
        <time>2014-05-10T15:50:09Z</time>
      </trkpt>
      <trkpt lat="44.42073" lon="0.93302">
        <ele>113.09</ele>
        <time>2014-05-10T15:50:23Z</time>
      </trkpt>
      <trkpt lat="44.42104" lon="0.93234">
        <ele>114.53</ele>
        <time>2014-05-10T15:50:40Z</time>
      </trkpt>
      <trkpt lat="44.42132" lon="0.932">
        <ele>118.38</ele>
        <time>2014-05-10T15:50:53Z</time>
      </trkpt>
      <trkpt lat="44.42165" lon="0.93156">
        <ele>121.26</ele>
        <time>2014-05-10T15:51:07Z</time>
      </trkpt>
      <trkpt lat="44.42196" lon="0.93125">
        <ele>124.63</ele>
        <time>2014-05-10T15:51:20Z</time>
      </trkpt>
      <trkpt lat="44.42226" lon="0.93096">
        <ele>131.84</ele>
        <time>2014-05-10T15:51:32Z</time>
      </trkpt>
      <trkpt lat="44.42235" lon="0.93092">
        <ele>132.8</ele>
        <time>2014-05-10T15:51:36Z</time>
      </trkpt>
      <trkpt lat="44.42262" lon="0.93066">
        <ele>138.57</ele>
        <time>2014-05-10T15:51:48Z</time>
      </trkpt>
      <trkpt lat="44.42267" lon="0.93054">
        <ele>139.05</ele>
        <time>2014-05-10T15:51:51Z</time>
      </trkpt>
      <trkpt lat="44.42284" lon="0.93019">
        <ele>139.53</ele>
        <time>2014-05-10T15:51:58Z</time>
      </trkpt>
      <trkpt lat="44.42295" lon="0.92998">
        <ele>140.01</ele>
        <time>2014-05-10T15:52:02Z</time>
      </trkpt>
      <trkpt lat="44.42317" lon="0.9297">
        <ele>140.01</ele>
        <time>2014-05-10T15:52:08Z</time>
      </trkpt>
      <trkpt lat="44.42335" lon="0.92951">
        <ele>139.05</ele>
        <time>2014-05-10T15:52:13Z</time>
      </trkpt>
      <trkpt lat="44.42376" lon="0.92914">
        <ele>136.64</ele>
        <time>2014-05-10T15:52:24Z</time>
      </trkpt>
      <trkpt lat="44.42382" lon="0.92906">
        <ele>136.64</ele>
        <time>2014-05-10T15:52:26Z</time>
      </trkpt>
      <trkpt lat="44.42396" lon="0.92888">
        <ele>136.64</ele>
        <time>2014-05-10T15:52:30Z</time>
      </trkpt>
      <trkpt lat="44.42406" lon="0.92875">
        <ele>137.13</ele>
        <time>2014-05-10T15:52:33Z</time>
      </trkpt>
      <trkpt lat="44.42419" lon="0.92854">
        <ele>138.09</ele>
        <time>2014-05-10T15:52:37Z</time>
      </trkpt>
      <trkpt lat="44.4243" lon="0.9284">
        <ele>138.09</ele>
        <time>2014-05-10T15:52:40Z</time>
      </trkpt>
      <trkpt lat="44.42485" lon="0.92729">
        <ele>122.71</ele>
        <time>2014-05-10T15:52:54Z</time>
      </trkpt>
      <trkpt lat="44.42507" lon="0.92678">
        <ele>118.86</ele>
        <time>2014-05-10T15:53:01Z</time>
      </trkpt>
      <trkpt lat="44.42534" lon="0.92619">
        <ele>115.98</ele>
        <time>2014-05-10T15:53:14Z</time>
      </trkpt>
      <trkpt lat="44.42534" lon="0.92618">
        <ele>115.01</ele>
        <time>2014-05-10T15:53:29Z</time>
      </trkpt>
      <trkpt lat="44.42535" lon="0.92617">
        <ele>115.01</ele>
        <time>2014-05-10T15:53:34Z</time>
      </trkpt>
      <trkpt lat="44.42537" lon="0.92617">
        <ele>115.01</ele>
        <time>2014-05-10T15:53:35Z</time>
      </trkpt>
      <trkpt lat="44.42539" lon="0.92617">
        <ele>115.01</ele>
        <time>2014-05-10T15:53:36Z</time>
      </trkpt>
      <trkpt lat="44.42585" lon="0.92619">
        <ele>113.09</ele>
        <time>2014-05-10T15:53:47Z</time>
      </trkpt>
      <trkpt lat="44.42622" lon="0.92618">
        <ele>112.13</ele>
        <time>2014-05-10T15:53:54Z</time>
      </trkpt>
      <trkpt lat="44.42627" lon="0.92613">
        <ele>111.65</ele>
        <time>2014-05-10T15:53:55Z</time>
      </trkpt>
      <trkpt lat="44.42631" lon="0.92607">
        <ele>111.65</ele>
        <time>2014-05-10T15:53:56Z</time>
      </trkpt>
      <trkpt lat="44.42633" lon="0.926">
        <ele>111.17</ele>
        <time>2014-05-10T15:53:57Z</time>
      </trkpt>
      <trkpt lat="44.42636" lon="0.92593">
        <ele>110.69</ele>
        <time>2014-05-10T15:53:58Z</time>
      </trkpt>
      <trkpt lat="44.42676" lon="0.92466">
        <ele>107.81</ele>
        <time>2014-05-10T15:54:15Z</time>
      </trkpt>
      <trkpt lat="44.42687" lon="0.92351">
        <ele>104.92</ele>
        <time>2014-05-10T15:54:28Z</time>
      </trkpt>
      <trkpt lat="44.42699" lon="0.92298">
        <ele>103.96</ele>
        <time>2014-05-10T15:54:34Z</time>
      </trkpt>
      <trkpt lat="44.42702" lon="0.9229">
        <ele>103.48</ele>
        <time>2014-05-10T15:54:35Z</time>
      </trkpt>
      <trkpt lat="44.42714" lon="0.92264">
        <ele>103</ele>
        <time>2014-05-10T15:54:38Z</time>
      </trkpt>
      <trkpt lat="44.42716" lon="0.92255">
        <ele>103</ele>
        <time>2014-05-10T15:54:39Z</time>
      </trkpt>
      <trkpt lat="44.42757" lon="0.92142">
        <ele>103.96</ele>
        <time>2014-05-10T15:54:52Z</time>
      </trkpt>
      <trkpt lat="44.42816" lon="0.92016">
        <ele>104.44</ele>
        <time>2014-05-10T15:55:08Z</time>
      </trkpt>
      <trkpt lat="44.4282" lon="0.9201">
        <ele>104.92</ele>
        <time>2014-05-10T15:55:09Z</time>
      </trkpt>
      <trkpt lat="44.42825" lon="0.92004">
        <ele>104.92</ele>
        <time>2014-05-10T15:55:10Z</time>
      </trkpt>
      <trkpt lat="44.42831" lon="0.92">
        <ele>104.92</ele>
        <time>2014-05-10T15:55:11Z</time>
      </trkpt>
      <trkpt lat="44.42836" lon="0.91996">
        <ele>104.92</ele>
        <time>2014-05-10T15:55:12Z</time>
      </trkpt>
      <trkpt lat="44.42907" lon="0.91934">
        <ele>106.84</ele>
        <time>2014-05-10T15:55:27Z</time>
      </trkpt>
      <trkpt lat="44.43002" lon="0.91854">
        <ele>109.73</ele>
        <time>2014-05-10T15:55:47Z</time>
      </trkpt>
      <trkpt lat="44.43082" lon="0.9181">
        <ele>112.13</ele>
        <time>2014-05-10T15:56:05Z</time>
      </trkpt>
      <trkpt lat="44.43096" lon="0.91801">
        <ele>111.65</ele>
        <time>2014-05-10T15:56:08Z</time>
      </trkpt>
      <trkpt lat="44.43101" lon="0.91797">
        <ele>111.65</ele>
        <time>2014-05-10T15:56:09Z</time>
      </trkpt>
      <trkpt lat="44.43137" lon="0.91759">
        <ele>111.17</ele>
        <time>2014-05-10T15:56:17Z</time>
      </trkpt>
      <trkpt lat="44.43142" lon="0.91756">
        <ele>111.17</ele>
        <time>2014-05-10T15:56:18Z</time>
      </trkpt>
      <trkpt lat="44.43153" lon="0.91749">
        <ele>111.17</ele>
        <time>2014-05-10T15:56:20Z</time>
      </trkpt>
      <trkpt lat="44.43205" lon="0.91728">
        <ele>111.17</ele>
        <time>2014-05-10T15:56:29Z</time>
      </trkpt>
      <trkpt lat="44.43269" lon="0.91676">
        <ele>113.09</ele>
        <time>2014-05-10T15:56:43Z</time>
      </trkpt>
      <trkpt lat="44.43294" lon="0.91661">
        <ele>113.09</ele>
        <time>2014-05-10T15:56:48Z</time>
      </trkpt>
      <trkpt lat="44.43373" lon="0.91628">
        <ele>110.21</ele>
        <time>2014-05-10T15:56:59Z</time>
      </trkpt>
      <trkpt lat="44.43418" lon="0.91599">
        <ele>109.25</ele>
        <time>2014-05-10T15:57:06Z</time>
      </trkpt>
      <trkpt lat="44.43467" lon="0.91555">
        <ele>108.77</ele>
        <time>2014-05-10T15:57:16Z</time>
      </trkpt>
      <trkpt lat="44.43471" lon="0.91554">
        <ele>108.77</ele>
        <time>2014-05-10T15:57:17Z</time>
      </trkpt>
      <trkpt lat="44.43474" lon="0.91556">
        <ele>109.25</ele>
        <time>2014-05-10T15:57:18Z</time>
      </trkpt>
      <trkpt lat="44.43476" lon="0.91558">
        <ele>109.25</ele>
        <time>2014-05-10T15:57:19Z</time>
      </trkpt>
      <trkpt lat="44.43478" lon="0.91561">
        <ele>109.25</ele>
        <time>2014-05-10T15:57:20Z</time>
      </trkpt>
      <trkpt lat="44.43479" lon="0.91563">
        <ele>109.25</ele>
        <time>2014-05-10T15:57:21Z</time>
      </trkpt>
      <trkpt lat="44.4348" lon="0.91566">
        <ele>109.25</ele>
        <time>2014-05-10T15:57:22Z</time>
      </trkpt>
      <trkpt lat="44.4348" lon="0.91568">
        <ele>109.73</ele>
        <time>2014-05-10T15:57:23Z</time>
      </trkpt>
      <trkpt lat="44.43481" lon="0.9157">
        <ele>109.73</ele>
        <time>2014-05-10T15:57:24Z</time>
      </trkpt>
      <trkpt lat="44.43482" lon="0.91572">
        <ele>109.73</ele>
        <time>2014-05-10T15:57:25Z</time>
      </trkpt>
      <trkpt lat="44.43482" lon="0.91574">
        <ele>109.73</ele>
        <time>2014-05-10T15:57:26Z</time>
      </trkpt>
      <trkpt lat="44.43483" lon="0.91575">
        <ele>110.21</ele>
        <time>2014-05-10T15:57:27Z</time>
      </trkpt>
      <trkpt lat="44.43484" lon="0.91577">
        <ele>110.21</ele>
        <time>2014-05-10T15:57:28Z</time>
      </trkpt>
      <trkpt lat="44.43484" lon="0.91579">
        <ele>110.21</ele>
        <time>2014-05-10T15:57:29Z</time>
      </trkpt>
      <trkpt lat="44.43489" lon="0.91596">
        <ele>110.69</ele>
        <time>2014-05-10T15:57:44Z</time>
      </trkpt>
      <trkpt lat="44.43489" lon="0.91598">
        <ele>109.73</ele>
        <time>2014-05-10T15:58:05Z</time>
      </trkpt>
      <trkpt lat="44.4349" lon="0.91597">
        <ele>109.25</ele>
        <time>2014-05-10T15:58:31Z</time>
      </trkpt>
      <trkpt lat="44.4349" lon="0.91597">
        <ele>108.29</ele>
        <time>2014-05-10T15:58:53Z</time>
      </trkpt>
      <trkpt lat="44.4349" lon="0.91596">
        <ele>107.81</ele>
        <time>2014-05-10T15:59:14Z</time>
      </trkpt>
      <trkpt lat="44.43489" lon="0.91595">
        <ele>106.84</ele>
        <time>2014-05-10T15:59:42Z</time>
      </trkpt>
      <trkpt lat="44.43489" lon="0.91595">
        <ele>106.36</ele>
        <time>2014-05-10T16:00:01Z</time>
      </trkpt>
      <trkpt lat="44.4349" lon="0.91597">
        <ele>106.36</ele>
        <time>2014-05-10T16:00:09Z</time>
      </trkpt>
      <trkpt lat="44.4349" lon="0.91599">
        <ele>106.36</ele>
        <time>2014-05-10T16:00:10Z</time>
      </trkpt>
      <trkpt lat="44.43491" lon="0.91602">
        <ele>106.36</ele>
        <time>2014-05-10T16:00:11Z</time>
      </trkpt>
      <trkpt lat="44.43491" lon="0.91606">
        <ele>106.36</ele>
        <time>2014-05-10T16:00:12Z</time>
      </trkpt>
      <trkpt lat="44.43492" lon="0.9161">
        <ele>106.36</ele>
        <time>2014-05-10T16:00:13Z</time>
      </trkpt>
      <trkpt lat="44.43492" lon="0.91614">
        <ele>106.36</ele>
        <time>2014-05-10T16:00:14Z</time>
      </trkpt>
      <trkpt lat="44.43493" lon="0.91617">
        <ele>106.36</ele>
        <time>2014-05-10T16:00:15Z</time>
      </trkpt>
      <trkpt lat="44.43494" lon="0.91619">
        <ele>106.84</ele>
        <time>2014-05-10T16:00:16Z</time>
      </trkpt>
      <trkpt lat="44.43495" lon="0.91622">
        <ele>106.84</ele>
        <time>2014-05-10T16:00:17Z</time>
      </trkpt>
      <trkpt lat="44.43495" lon="0.91625">
        <ele>106.84</ele>
        <time>2014-05-10T16:00:18Z</time>
      </trkpt>
      <trkpt lat="44.43496" lon="0.91628">
        <ele>106.84</ele>
        <time>2014-05-10T16:00:19Z</time>
      </trkpt>
      <trkpt lat="44.43512" lon="0.91683">
        <ele>109.25</ele>
        <time>2014-05-10T16:00:32Z</time>
      </trkpt>
      <trkpt lat="44.4354" lon="0.91744">
        <ele>111.65</ele>
        <time>2014-05-10T16:00:46Z</time>
      </trkpt>
      <trkpt lat="44.43574" lon="0.91809">
        <ele>114.53</ele>
        <time>2014-05-10T16:01:02Z</time>
      </trkpt>
      <trkpt lat="44.43603" lon="0.9186">
        <ele>119.34</ele>
        <time>2014-05-10T16:01:16Z</time>
      </trkpt>
      <trkpt lat="44.43648" lon="0.91935">
        <ele>117.42</ele>
        <time>2014-05-10T16:01:29Z</time>
      </trkpt>
      <trkpt lat="44.43702" lon="0.91998">
        <ele>117.9</ele>
        <time>2014-05-10T16:01:40Z</time>
      </trkpt>
      <trkpt lat="44.43705" lon="0.92002">
        <ele>117.9</ele>
        <time>2014-05-10T16:01:41Z</time>
      </trkpt>
      <trkpt lat="44.43723" lon="0.92021">
        <ele>119.82</ele>
        <time>2014-05-10T16:01:46Z</time>
      </trkpt>
      <trkpt lat="44.43726" lon="0.92025">
        <ele>120.3</ele>
        <time>2014-05-10T16:01:47Z</time>
      </trkpt>
      <trkpt lat="44.43754" lon="0.92052">
        <ele>124.15</ele>
        <time>2014-05-10T16:01:55Z</time>
      </trkpt>
      <trkpt lat="44.43759" lon="0.92055">
        <ele>124.15</ele>
        <time>2014-05-10T16:01:56Z</time>
      </trkpt>
      <trkpt lat="44.43792" lon="0.92078">
        <ele>125.59</ele>
        <time>2014-05-10T16:02:06Z</time>
      </trkpt>
      <trkpt lat="44.43794" lon="0.92078">
        <ele>125.59</ele>
        <time>2014-05-10T16:02:07Z</time>
      </trkpt>
      <trkpt lat="44.43797" lon="0.92078">
        <ele>125.59</ele>
        <time>2014-05-10T16:02:08Z</time>
      </trkpt>
      <trkpt lat="44.43798" lon="0.92077">
        <ele>125.59</ele>
        <time>2014-05-10T16:02:09Z</time>
      </trkpt>
      <trkpt lat="44.43799" lon="0.92078">
        <ele>125.11</ele>
        <time>2014-05-10T16:02:20Z</time>
      </trkpt>
      <trkpt lat="44.438" lon="0.92078">
        <ele>123.67</ele>
        <time>2014-05-10T16:02:38Z</time>
      </trkpt>
      <trkpt lat="44.438" lon="0.92077">
        <ele>123.67</ele>
        <time>2014-05-10T16:02:43Z</time>
      </trkpt>
      <trkpt lat="44.438" lon="0.92075">
        <ele>123.67</ele>
        <time>2014-05-10T16:02:44Z</time>
      </trkpt>
      <trkpt lat="44.43788" lon="0.92025">
        <ele>125.11</ele>
        <time>2014-05-10T16:02:56Z</time>
      </trkpt>
      <trkpt lat="44.43785" lon="0.91993">
        <ele>125.11</ele>
        <time>2014-05-10T16:03:02Z</time>
      </trkpt>
      <trkpt lat="44.43782" lon="0.91981">
        <ele>124.63</ele>
        <time>2014-05-10T16:03:04Z</time>
      </trkpt>
      <trkpt lat="44.43766" lon="0.91921">
        <ele>121.26</ele>
        <time>2014-05-10T16:03:14Z</time>
      </trkpt>
      <trkpt lat="44.43761" lon="0.91877">
        <ele>116.94</ele>
        <time>2014-05-10T16:03:21Z</time>
      </trkpt>
      <trkpt lat="44.4376" lon="0.91858">
        <ele>115.01</ele>
        <time>2014-05-10T16:03:24Z</time>
      </trkpt>
      <trkpt lat="44.43768" lon="0.91773">
        <ele>107.81</ele>
        <time>2014-05-10T16:03:35Z</time>
      </trkpt>
      <trkpt lat="44.43773" lon="0.91718">
        <ele>103.96</ele>
        <time>2014-05-10T16:03:42Z</time>
      </trkpt>
      <trkpt lat="44.43779" lon="0.9169">
        <ele>102.52</ele>
        <time>2014-05-10T16:03:46Z</time>
      </trkpt>
      <trkpt lat="44.43784" lon="0.91677">
        <ele>102.04</ele>
        <time>2014-05-10T16:03:48Z</time>
      </trkpt>
      <trkpt lat="44.43798" lon="0.91638">
        <ele>105.4</ele>
        <time>2014-05-10T16:03:54Z</time>
      </trkpt>
      <trkpt lat="44.43849" lon="0.91565">
        <ele>106.84</ele>
        <time>2014-05-10T16:04:07Z</time>
      </trkpt>
      <trkpt lat="44.43853" lon="0.91559">
        <ele>106.36</ele>
        <time>2014-05-10T16:04:08Z</time>
      </trkpt>
      <trkpt lat="44.43871" lon="0.91538">
        <ele>104.92</ele>
        <time>2014-05-10T16:04:12Z</time>
      </trkpt>
      <trkpt lat="44.43878" lon="0.91527">
        <ele>104.44</ele>
        <time>2014-05-10T16:04:15Z</time>
      </trkpt>
      <trkpt lat="44.4389" lon="0.91532">
        <ele>103.96</ele>
        <time>2014-05-10T16:04:21Z</time>
      </trkpt>
      <trkpt lat="44.43954" lon="0.91572">
        <ele>102.52</ele>
        <time>2014-05-10T16:04:34Z</time>
      </trkpt>
      <trkpt lat="44.44019" lon="0.91613">
        <ele>102.52</ele>
        <time>2014-05-10T16:04:46Z</time>
      </trkpt>
      <trkpt lat="44.44027" lon="0.91621">
        <ele>103</ele>
        <time>2014-05-10T16:04:48Z</time>
      </trkpt>
      <trkpt lat="44.4404" lon="0.91631">
        <ele>103.48</ele>
        <time>2014-05-10T16:04:51Z</time>
      </trkpt>
      <trkpt lat="44.441" lon="0.91684">
        <ele>103.96</ele>
        <time>2014-05-10T16:05:06Z</time>
      </trkpt>
      <trkpt lat="44.44112" lon="0.91695">
        <ele>103.96</ele>
        <time>2014-05-10T16:05:09Z</time>
      </trkpt>
      <trkpt lat="44.44159" lon="0.91744">
        <ele>107.32</ele>
        <time>2014-05-10T16:05:22Z</time>
      </trkpt>
      <trkpt lat="44.44167" lon="0.91748">
        <ele>107.81</ele>
        <time>2014-05-10T16:05:31Z</time>
      </trkpt>
      <trkpt lat="44.44168" lon="0.91748">
        <ele>107.32</ele>
        <time>2014-05-10T16:05:37Z</time>
      </trkpt>
      <trkpt lat="44.4417" lon="0.91742">
        <ele>106.84</ele>
        <time>2014-05-10T16:05:41Z</time>
      </trkpt>
      <trkpt lat="44.44175" lon="0.91701">
        <ele>107.32</ele>
        <time>2014-05-10T16:05:53Z</time>
      </trkpt>
      <trkpt lat="44.44182" lon="0.91667">
        <ele>109.25</ele>
        <time>2014-05-10T16:06:03Z</time>
      </trkpt>
      <trkpt lat="44.44199" lon="0.9162">
        <ele>109.25</ele>
        <time>2014-05-10T16:06:14Z</time>
      </trkpt>
      <trkpt lat="44.44222" lon="0.91588">
        <ele>108.29</ele>
        <time>2014-05-10T16:06:21Z</time>
      </trkpt>
      <trkpt lat="44.44234" lon="0.91571">
        <ele>107.81</ele>
        <time>2014-05-10T16:06:24Z</time>
      </trkpt>
      <trkpt lat="44.44273" lon="0.91508">
        <ele>108.77</ele>
        <time>2014-05-10T16:06:36Z</time>
      </trkpt>
      <trkpt lat="44.44307" lon="0.91441">
        <ele>110.21</ele>
        <time>2014-05-10T16:06:50Z</time>
      </trkpt>
      <trkpt lat="44.44311" lon="0.91435">
        <ele>108.29</ele>
        <time>2014-05-10T16:07:01Z</time>
      </trkpt>
      <trkpt lat="44.44312" lon="0.91433">
        <ele>106.84</ele>
        <time>2014-05-10T16:07:08Z</time>
      </trkpt>
      <trkpt lat="44.44316" lon="0.91426">
        <ele>104.44</ele>
        <time>2014-05-10T16:07:12Z</time>
      </trkpt>
      <trkpt lat="44.44344" lon="0.91392">
        <ele>102.52</ele>
        <time>2014-05-10T16:07:25Z</time>
      </trkpt>
      <trkpt lat="44.44379" lon="0.91347">
        <ele>101.08</ele>
        <time>2014-05-10T16:07:36Z</time>
      </trkpt>
      <trkpt lat="44.44398" lon="0.91316">
        <ele>100.11</ele>
        <time>2014-05-10T16:07:42Z</time>
      </trkpt>
      <trkpt lat="44.4442" lon="0.91278">
        <ele>100.11</ele>
        <time>2014-05-10T16:07:49Z</time>
      </trkpt>
      <trkpt lat="44.4443" lon="0.91261">
        <ele>100.11</ele>
        <time>2014-05-10T16:07:52Z</time>
      </trkpt>
      <trkpt lat="44.4444" lon="0.91245">
        <ele>99.15</ele>
        <time>2014-05-10T16:07:55Z</time>
      </trkpt>
      <trkpt lat="44.44458" lon="0.91219">
        <ele>98.67</ele>
        <time>2014-05-10T16:08:00Z</time>
      </trkpt>
      <trkpt lat="44.44501" lon="0.91184">
        <ele>96.75</ele>
        <time>2014-05-10T16:08:09Z</time>
      </trkpt>
      <trkpt lat="44.44525" lon="0.91158">
        <ele>96.27</ele>
        <time>2014-05-10T16:08:14Z</time>
      </trkpt>
      <trkpt lat="44.44554" lon="0.91154">
        <ele>95.31</ele>
        <time>2014-05-10T16:08:19Z</time>
      </trkpt>
      <trkpt lat="44.44637" lon="0.91199">
        <ele>85.21</ele>
        <time>2014-05-10T16:08:31Z</time>
      </trkpt>
      <trkpt lat="44.44667" lon="0.91203">
        <ele>78.97</ele>
        <time>2014-05-10T16:08:36Z</time>
      </trkpt>
      <trkpt lat="44.44695" lon="0.91168">
        <ele>73.2</ele>
        <time>2014-05-10T16:08:45Z</time>
      </trkpt>
      <trkpt lat="44.44696" lon="0.9117">
        <ele>72.24</ele>
        <time>2014-05-10T16:09:01Z</time>
      </trkpt>
      <trkpt lat="44.44697" lon="0.91169">
        <ele>71.27</ele>
        <time>2014-05-10T16:09:25Z</time>
      </trkpt>
      <trkpt lat="44.44697" lon="0.91169">
        <ele>71.27</ele>
        <time>2014-05-10T16:09:45Z</time>
      </trkpt>
      <trkpt lat="44.44697" lon="0.91169">
        <ele>72.72</ele>
        <time>2014-05-10T16:10:07Z</time>
      </trkpt>
      <trkpt lat="44.44697" lon="0.91168">
        <ele>72.72</ele>
        <time>2014-05-10T16:10:26Z</time>
      </trkpt>
      <trkpt lat="44.44696" lon="0.91169">
        <ele>72.72</ele>
        <time>2014-05-10T16:10:27Z</time>
      </trkpt>
      <trkpt lat="44.44693" lon="0.9117">
        <ele>72.72</ele>
        <time>2014-05-10T16:10:30Z</time>
      </trkpt>
      <trkpt lat="44.44689" lon="0.91173">
        <ele>74.16</ele>
        <time>2014-05-10T16:10:32Z</time>
      </trkpt>
      <trkpt lat="44.44665" lon="0.91208">
        <ele>78</ele>
        <time>2014-05-10T16:10:44Z</time>
      </trkpt>
      <trkpt lat="44.44638" lon="0.91197">
        <ele>80.41</ele>
        <time>2014-05-10T16:10:54Z</time>
      </trkpt>
      <trkpt lat="44.44629" lon="0.91192">
        <ele>81.37</ele>
        <time>2014-05-10T16:10:58Z</time>
      </trkpt>
      <trkpt lat="44.44626" lon="0.91193">
        <ele>82.33</ele>
        <time>2014-05-10T16:11:13Z</time>
      </trkpt>
      <trkpt lat="44.44626" lon="0.91196">
        <ele>83.77</ele>
        <time>2014-05-10T16:11:41Z</time>
      </trkpt>
      <trkpt lat="44.44626" lon="0.91197">
        <ele>83.77</ele>
        <time>2014-05-10T16:12:05Z</time>
      </trkpt>
      <trkpt lat="44.44626" lon="0.91197">
        <ele>84.73</ele>
        <time>2014-05-10T16:12:39Z</time>
      </trkpt>
      <trkpt lat="44.44626" lon="0.91199">
        <ele>85.21</ele>
        <time>2014-05-10T16:13:11Z</time>
      </trkpt>
      <trkpt lat="44.44627" lon="0.912">
        <ele>86.18</ele>
        <time>2014-05-10T16:13:38Z</time>
      </trkpt>
      <trkpt lat="44.44629" lon="0.91202">
        <ele>86.18</ele>
        <time>2014-05-10T16:14:24Z</time>
      </trkpt>
      <trkpt lat="44.44629" lon="0.91202">
        <ele>85.69</ele>
        <time>2014-05-10T16:14:52Z</time>
      </trkpt>
      <trkpt lat="44.44628" lon="0.91203">
        <ele>85.69</ele>
        <time>2014-05-10T16:15:25Z</time>
      </trkpt>
      <trkpt lat="44.44627" lon="0.91202">
        <ele>86.66</ele>
        <time>2014-05-10T16:16:04Z</time>
      </trkpt>
      <trkpt lat="44.44627" lon="0.912">
        <ele>87.14</ele>
        <time>2014-05-10T16:16:43Z</time>
      </trkpt>
      <trkpt lat="44.44626" lon="0.91199">
        <ele>87.14</ele>
        <time>2014-05-10T16:17:21Z</time>
      </trkpt>
      <trkpt lat="44.44625" lon="0.91199">
        <ele>86.66</ele>
        <time>2014-05-10T16:17:56Z</time>
      </trkpt>
      <trkpt lat="44.44625" lon="0.91198">
        <ele>86.66</ele>
        <time>2014-05-10T16:18:31Z</time>
      </trkpt>
      <trkpt lat="44.44624" lon="0.91196">
        <ele>85.21</ele>
        <time>2014-05-10T16:18:57Z</time>
      </trkpt>
      <trkpt lat="44.44634" lon="0.912">
        <ele>84.25</ele>
        <time>2014-05-10T16:19:02Z</time>
      </trkpt>
      <trkpt lat="44.44642" lon="0.91206">
        <ele>83.29</ele>
        <time>2014-05-10T16:19:04Z</time>
      </trkpt>
      <trkpt lat="44.44672" lon="0.91193">
        <ele>80.89</ele>
        <time>2014-05-10T16:19:10Z</time>
      </trkpt>
      <trkpt lat="44.44678" lon="0.91183">
        <ele>80.41</ele>
        <time>2014-05-10T16:19:12Z</time>
      </trkpt>
      <trkpt lat="44.44691" lon="0.91172">
        <ele>77.52</ele>
        <time>2014-05-10T16:19:21Z</time>
      </trkpt>
      <trkpt lat="44.44693" lon="0.91171">
        <ele>77.04</ele>
        <time>2014-05-10T16:19:33Z</time>
      </trkpt>
      <trkpt lat="44.44696" lon="0.91172">
        <ele>74.64</ele>
        <time>2014-05-10T16:19:55Z</time>
      </trkpt>
      <trkpt lat="44.44697" lon="0.91172">
        <ele>72.24</ele>
        <time>2014-05-10T16:20:17Z</time>
      </trkpt>
      <trkpt lat="44.44698" lon="0.91171">
        <ele>70.79</ele>
        <time>2014-05-10T16:20:47Z</time>
      </trkpt>
      <trkpt lat="44.44697" lon="0.91171">
        <ele>70.79</ele>
        <time>2014-05-10T16:21:14Z</time>
      </trkpt>
      <trkpt lat="44.44698" lon="0.9117">
        <ele>70.31</ele>
        <time>2014-05-10T16:21:41Z</time>
      </trkpt>
      <trkpt lat="44.44702" lon="0.91174">
        <ele>70.31</ele>
        <time>2014-05-10T16:21:44Z</time>
      </trkpt>
      <trkpt lat="44.44723" lon="0.9122">
        <ele>71.27</ele>
        <time>2014-05-10T16:21:57Z</time>
      </trkpt>
      <trkpt lat="44.44752" lon="0.91301">
        <ele>72.24</ele>
        <time>2014-05-10T16:22:12Z</time>
      </trkpt>
      <trkpt lat="44.44782" lon="0.9144">
        <ele>74.64</ele>
        <time>2014-05-10T16:22:33Z</time>
      </trkpt>
      <trkpt lat="44.44809" lon="0.91549">
        <ele>75.12</ele>
        <time>2014-05-10T16:22:48Z</time>
      </trkpt>
      <trkpt lat="44.44821" lon="0.91601">
        <ele>74.64</ele>
        <time>2014-05-10T16:22:57Z</time>
      </trkpt>
      <trkpt lat="44.44822" lon="0.91603">
        <ele>74.16</ele>
        <time>2014-05-10T16:22:58Z</time>
      </trkpt>
      <trkpt lat="44.44824" lon="0.91604">
        <ele>74.16</ele>
        <time>2014-05-10T16:23:08Z</time>
      </trkpt>
      <trkpt lat="44.44825" lon="0.91602">
        <ele>74.16</ele>
        <time>2014-05-10T16:23:09Z</time>
      </trkpt>
      <trkpt lat="44.44826" lon="0.91601">
        <ele>74.16</ele>
        <time>2014-05-10T16:23:10Z</time>
      </trkpt>
      <trkpt lat="44.44828" lon="0.91599">
        <ele>74.16</ele>
        <time>2014-05-10T16:23:11Z</time>
      </trkpt>
      <trkpt lat="44.4483" lon="0.91598">
        <ele>73.68</ele>
        <time>2014-05-10T16:23:12Z</time>
      </trkpt>
      <trkpt lat="44.44834" lon="0.91598">
        <ele>73.68</ele>
        <time>2014-05-10T16:23:13Z</time>
      </trkpt>
      <trkpt lat="44.44838" lon="0.91598">
        <ele>73.68</ele>
        <time>2014-05-10T16:23:14Z</time>
      </trkpt>
      <trkpt lat="44.44841" lon="0.91599">
        <ele>73.2</ele>
        <time>2014-05-10T16:23:15Z</time>
      </trkpt>
      <trkpt lat="44.44855" lon="0.916">
        <ele>72.24</ele>
        <time>2014-05-10T16:23:18Z</time>
      </trkpt>
      <trkpt lat="44.4486" lon="0.91599">
        <ele>71.76</ele>
        <time>2014-05-10T16:23:19Z</time>
      </trkpt>
      <trkpt lat="44.44866" lon="0.91596">
        <ele>71.76</ele>
        <time>2014-05-10T16:23:20Z</time>
      </trkpt>
      <trkpt lat="44.44872" lon="0.91593">
        <ele>71.27</ele>
        <time>2014-05-10T16:23:21Z</time>
      </trkpt>
      <trkpt lat="44.44878" lon="0.91587">
        <ele>70.79</ele>
        <time>2014-05-10T16:23:22Z</time>
      </trkpt>
      <trkpt lat="44.44883" lon="0.91579">
        <ele>70.31</ele>
        <time>2014-05-10T16:23:23Z</time>
      </trkpt>
      <trkpt lat="44.44886" lon="0.9157">
        <ele>70.31</ele>
        <time>2014-05-10T16:23:24Z</time>
      </trkpt>
      <trkpt lat="44.44889" lon="0.91561">
        <ele>69.83</ele>
        <time>2014-05-10T16:23:25Z</time>
      </trkpt>
      <trkpt lat="44.4489" lon="0.91551">
        <ele>69.83</ele>
        <time>2014-05-10T16:23:26Z</time>
      </trkpt>
      <trkpt lat="44.44892" lon="0.91541">
        <ele>69.83</ele>
        <time>2014-05-10T16:23:27Z</time>
      </trkpt>
      <trkpt lat="44.44897" lon="0.91507">
        <ele>68.87</ele>
        <time>2014-05-10T16:23:31Z</time>
      </trkpt>
      <trkpt lat="44.44904" lon="0.91483">
        <ele>68.87</ele>
        <time>2014-05-10T16:23:34Z</time>
      </trkpt>
      <trkpt lat="44.44908" lon="0.91476">
        <ele>68.87</ele>
        <time>2014-05-10T16:23:35Z</time>
      </trkpt>
      <trkpt lat="44.44932" lon="0.91443">
        <ele>67.91</ele>
        <time>2014-05-10T16:23:41Z</time>
      </trkpt>
      <trkpt lat="44.45001" lon="0.91395">
        <ele>65.99</ele>
        <time>2014-05-10T16:23:54Z</time>
      </trkpt>
      <trkpt lat="44.45063" lon="0.91333">
        <ele>65.03</ele>
        <time>2014-05-10T16:24:09Z</time>
      </trkpt>
      <trkpt lat="44.45073" lon="0.91317">
        <ele>65.03</ele>
        <time>2014-05-10T16:24:12Z</time>
      </trkpt>
      <trkpt lat="44.45075" lon="0.91311">
        <ele>64.55</ele>
        <time>2014-05-10T16:24:13Z</time>
      </trkpt>
      <trkpt lat="44.45077" lon="0.91306">
        <ele>64.55</ele>
        <time>2014-05-10T16:24:14Z</time>
      </trkpt>
      <trkpt lat="44.4508" lon="0.91303">
        <ele>64.55</ele>
        <time>2014-05-10T16:24:15Z</time>
      </trkpt>
      <trkpt lat="44.45084" lon="0.91302">
        <ele>64.55</ele>
        <time>2014-05-10T16:24:16Z</time>
      </trkpt>
      <trkpt lat="44.45088" lon="0.91303">
        <ele>64.55</ele>
        <time>2014-05-10T16:24:17Z</time>
      </trkpt>
      <trkpt lat="44.45092" lon="0.91306">
        <ele>64.55</ele>
        <time>2014-05-10T16:24:18Z</time>
      </trkpt>
      <trkpt lat="44.45096" lon="0.91311">
        <ele>64.55</ele>
        <time>2014-05-10T16:24:19Z</time>
      </trkpt>
      <trkpt lat="44.45101" lon="0.91317">
        <ele>64.55</ele>
        <time>2014-05-10T16:24:20Z</time>
      </trkpt>
      <trkpt lat="44.4516" lon="0.91392">
        <ele>65.51</ele>
        <time>2014-05-10T16:24:33Z</time>
      </trkpt>
      <trkpt lat="44.4523" lon="0.91483">
        <ele>65.51</ele>
        <time>2014-05-10T16:24:49Z</time>
      </trkpt>
      <trkpt lat="44.45278" lon="0.9155">
        <ele>64.55</ele>
        <time>2014-05-10T16:25:00Z</time>
      </trkpt>
      <trkpt lat="44.45284" lon="0.91555">
        <ele>64.55</ele>
        <time>2014-05-10T16:25:01Z</time>
      </trkpt>
      <trkpt lat="44.45361" lon="0.91609">
        <ele>64.07</ele>
        <time>2014-05-10T16:25:15Z</time>
      </trkpt>
      <trkpt lat="44.45372" lon="0.91617">
        <ele>64.07</ele>
        <time>2014-05-10T16:25:17Z</time>
      </trkpt>
      <trkpt lat="44.45442" lon="0.917">
        <ele>65.03</ele>
        <time>2014-05-10T16:25:32Z</time>
      </trkpt>
      <trkpt lat="44.45492" lon="0.91791">
        <ele>65.03</ele>
        <time>2014-05-10T16:25:45Z</time>
      </trkpt>
      <trkpt lat="44.45511" lon="0.91839">
        <ele>66.47</ele>
        <time>2014-05-10T16:25:52Z</time>
      </trkpt>
      <trkpt lat="44.4552" lon="0.91864">
        <ele>66.47</ele>
        <time>2014-05-10T16:25:56Z</time>
      </trkpt>
      <trkpt lat="44.4552" lon="0.91883">
        <ele>66.47</ele>
        <time>2014-05-10T16:25:59Z</time>
      </trkpt>
      <trkpt lat="44.45519" lon="0.91889">
        <ele>66.95</ele>
        <time>2014-05-10T16:26:00Z</time>
      </trkpt>
      <trkpt lat="44.45519" lon="0.91895">
        <ele>66.95</ele>
        <time>2014-05-10T16:26:01Z</time>
      </trkpt>
      <trkpt lat="44.45519" lon="0.91901">
        <ele>66.95</ele>
        <time>2014-05-10T16:26:02Z</time>
      </trkpt>
      <trkpt lat="44.45521" lon="0.91906">
        <ele>66.95</ele>
        <time>2014-05-10T16:26:03Z</time>
      </trkpt>
      <trkpt lat="44.45524" lon="0.91911">
        <ele>66.95</ele>
        <time>2014-05-10T16:26:04Z</time>
      </trkpt>
      <trkpt lat="44.45531" lon="0.91919">
        <ele>66.95</ele>
        <time>2014-05-10T16:26:06Z</time>
      </trkpt>
      <trkpt lat="44.45564" lon="0.91952">
        <ele>66.95</ele>
        <time>2014-05-10T16:26:14Z</time>
      </trkpt>
      <trkpt lat="44.45632" lon="0.92016">
        <ele>66.47</ele>
        <time>2014-05-10T16:26:29Z</time>
      </trkpt>
      <trkpt lat="44.45668" lon="0.92049">
        <ele>65.99</ele>
        <time>2014-05-10T16:26:37Z</time>
      </trkpt>
      <trkpt lat="44.4572" lon="0.92107">
        <ele>65.99</ele>
        <time>2014-05-10T16:26:50Z</time>
      </trkpt>
      <trkpt lat="44.45765" lon="0.92165">
        <ele>68.39</ele>
        <time>2014-05-10T16:27:04Z</time>
      </trkpt>
      <trkpt lat="44.4577" lon="0.92173">
        <ele>67.43</ele>
        <time>2014-05-10T16:27:15Z</time>
      </trkpt>
      <trkpt lat="44.4577" lon="0.92172">
        <ele>67.91</ele>
        <time>2014-05-10T16:27:33Z</time>
      </trkpt>
      <trkpt lat="44.4577" lon="0.92173">
        <ele>67.91</ele>
        <time>2014-05-10T16:27:48Z</time>
      </trkpt>
      <trkpt lat="44.4577" lon="0.92173">
        <ele>67.91</ele>
        <time>2014-05-10T16:27:54Z</time>
      </trkpt>
      <trkpt lat="44.45779" lon="0.92176">
        <ele>67.43</ele>
        <time>2014-05-10T16:28:01Z</time>
      </trkpt>
      <trkpt lat="44.45786" lon="0.92184">
        <ele>66.95</ele>
        <time>2014-05-10T16:28:15Z</time>
      </trkpt>
      <trkpt lat="44.45786" lon="0.92186">
        <ele>66.95</ele>
        <time>2014-05-10T16:28:30Z</time>
      </trkpt>
      <trkpt lat="44.45791" lon="0.92191">
        <ele>67.91</ele>
        <time>2014-05-10T16:28:47Z</time>
      </trkpt>
      <trkpt lat="44.45811" lon="0.92212">
        <ele>65.99</ele>
        <time>2014-05-10T16:29:02Z</time>
      </trkpt>
      <trkpt lat="44.45842" lon="0.92244">
        <ele>66.47</ele>
        <time>2014-05-10T16:29:15Z</time>
      </trkpt>
      <trkpt lat="44.45887" lon="0.9229">
        <ele>65.51</ele>
        <time>2014-05-10T16:29:31Z</time>
      </trkpt>
      <trkpt lat="44.45942" lon="0.92334">
        <ele>65.99</ele>
        <time>2014-05-10T16:29:49Z</time>
      </trkpt>
      <trkpt lat="44.4595" lon="0.9234">
        <ele>66.47</ele>
        <time>2014-05-10T16:29:53Z</time>
      </trkpt>
      <trkpt lat="44.45952" lon="0.92341">
        <ele>66.47</ele>
        <time>2014-05-10T16:30:06Z</time>
      </trkpt>
      <trkpt lat="44.45952" lon="0.92341">
        <ele>65.99</ele>
        <time>2014-05-10T16:30:22Z</time>
      </trkpt>
      <trkpt lat="44.45953" lon="0.92341">
        <ele>65.99</ele>
        <time>2014-05-10T16:30:38Z</time>
      </trkpt>
      <trkpt lat="44.45953" lon="0.92341">
        <ele>65.51</ele>
        <time>2014-05-10T16:31:07Z</time>
      </trkpt>
      <trkpt lat="44.45955" lon="0.92342">
        <ele>65.99</ele>
        <time>2014-05-10T16:31:33Z</time>
      </trkpt>
      <trkpt lat="44.45981" lon="0.92319">
        <ele>65.99</ele>
        <time>2014-05-10T16:31:43Z</time>
      </trkpt>
      <trkpt lat="44.4602" lon="0.92278">
        <ele>65.99</ele>
        <time>2014-05-10T16:31:55Z</time>
      </trkpt>
      <trkpt lat="44.46067" lon="0.92204">
        <ele>65.99</ele>
        <time>2014-05-10T16:32:10Z</time>
      </trkpt>
      <trkpt lat="44.46091" lon="0.92167">
        <ele>65.51</ele>
        <time>2014-05-10T16:32:17Z</time>
      </trkpt>
      <trkpt lat="44.46095" lon="0.92163">
        <ele>65.03</ele>
        <time>2014-05-10T16:32:18Z</time>
      </trkpt>
      <trkpt lat="44.461" lon="0.9216">
        <ele>65.03</ele>
        <time>2014-05-10T16:32:19Z</time>
      </trkpt>
      <trkpt lat="44.46105" lon="0.92158">
        <ele>65.03</ele>
        <time>2014-05-10T16:32:20Z</time>
      </trkpt>
      <trkpt lat="44.4611" lon="0.92159">
        <ele>65.03</ele>
        <time>2014-05-10T16:32:21Z</time>
      </trkpt>
      <trkpt lat="44.46115" lon="0.92161">
        <ele>65.03</ele>
        <time>2014-05-10T16:32:22Z</time>
      </trkpt>
      <trkpt lat="44.4612" lon="0.92165">
        <ele>65.03</ele>
        <time>2014-05-10T16:32:23Z</time>
      </trkpt>
      <trkpt lat="44.46124" lon="0.92169">
        <ele>65.03</ele>
        <time>2014-05-10T16:32:24Z</time>
      </trkpt>
      <trkpt lat="44.46198" lon="0.92222">
        <ele>65.51</ele>
        <time>2014-05-10T16:32:40Z</time>
      </trkpt>
      <trkpt lat="44.46256" lon="0.9226">
        <ele>65.99</ele>
        <time>2014-05-10T16:32:53Z</time>
      </trkpt>
      <trkpt lat="44.46279" lon="0.92275">
        <ele>65.99</ele>
        <time>2014-05-10T16:32:58Z</time>
      </trkpt>
      <trkpt lat="44.46284" lon="0.92277">
        <ele>65.99</ele>
        <time>2014-05-10T16:32:59Z</time>
      </trkpt>
      <trkpt lat="44.4633" lon="0.92307">
        <ele>65.99</ele>
        <time>2014-05-10T16:33:09Z</time>
      </trkpt>
      <trkpt lat="44.46367" lon="0.92344">
        <ele>65.99</ele>
        <time>2014-05-10T16:33:18Z</time>
      </trkpt>
      <trkpt lat="44.46371" lon="0.92348">
        <ele>65.99</ele>
        <time>2014-05-10T16:33:19Z</time>
      </trkpt>
      <trkpt lat="44.46374" lon="0.92351">
        <ele>65.99</ele>
        <time>2014-05-10T16:33:20Z</time>
      </trkpt>
      <trkpt lat="44.46378" lon="0.92352">
        <ele>65.99</ele>
        <time>2014-05-10T16:33:21Z</time>
      </trkpt>
      <trkpt lat="44.4638" lon="0.9235">
        <ele>65.99</ele>
        <time>2014-05-10T16:33:22Z</time>
      </trkpt>
      <trkpt lat="44.46382" lon="0.92348">
        <ele>65.51</ele>
        <time>2014-05-10T16:33:23Z</time>
      </trkpt>
      <trkpt lat="44.46384" lon="0.92345">
        <ele>65.03</ele>
        <time>2014-05-10T16:33:24Z</time>
      </trkpt>
      <trkpt lat="44.46385" lon="0.92341">
        <ele>64.55</ele>
        <time>2014-05-10T16:33:25Z</time>
      </trkpt>
      <trkpt lat="44.46406" lon="0.92302">
        <ele>64.55</ele>
        <time>2014-05-10T16:33:37Z</time>
      </trkpt>
      <trkpt lat="44.46426" lon="0.9226">
        <ele>64.07</ele>
        <time>2014-05-10T16:33:50Z</time>
      </trkpt>
      <trkpt lat="44.46444" lon="0.92223">
        <ele>64.55</ele>
        <time>2014-05-10T16:34:03Z</time>
      </trkpt>
      <trkpt lat="44.46463" lon="0.92184">
        <ele>63.58</ele>
        <time>2014-05-10T16:34:19Z</time>
      </trkpt>
      <trkpt lat="44.46496" lon="0.92156">
        <ele>65.03</ele>
        <time>2014-05-10T16:34:32Z</time>
      </trkpt>
      <trkpt lat="44.46526" lon="0.92133">
        <ele>65.03</ele>
        <time>2014-05-10T16:34:40Z</time>
      </trkpt>
      <trkpt lat="44.4656" lon="0.92109">
        <ele>65.51</ele>
        <time>2014-05-10T16:34:48Z</time>
      </trkpt>
      <trkpt lat="44.46624" lon="0.92061">
        <ele>65.03</ele>
        <time>2014-05-10T16:35:02Z</time>
      </trkpt>
      <trkpt lat="44.46691" lon="0.92012">
        <ele>65.03</ele>
        <time>2014-05-10T16:35:16Z</time>
      </trkpt>
      <trkpt lat="44.46712" lon="0.91997">
        <ele>65.03</ele>
        <time>2014-05-10T16:35:20Z</time>
      </trkpt>
      <trkpt lat="44.46803" lon="0.91932">
        <ele>63.58</ele>
        <time>2014-05-10T16:35:38Z</time>
      </trkpt>
      <trkpt lat="44.46818" lon="0.91922">
        <ele>63.58</ele>
        <time>2014-05-10T16:35:42Z</time>
      </trkpt>
      <trkpt lat="44.46821" lon="0.91922">
        <ele>62.62</ele>
        <time>2014-05-10T16:35:55Z</time>
      </trkpt>
      <trkpt lat="44.46821" lon="0.91921">
        <ele>62.62</ele>
        <time>2014-05-10T16:36:10Z</time>
      </trkpt>
      <trkpt lat="44.46821" lon="0.91923">
        <ele>61.66</ele>
        <time>2014-05-10T16:36:36Z</time>
      </trkpt>
      <trkpt lat="44.46821" lon="0.91923">
        <ele>62.62</ele>
        <time>2014-05-10T16:36:59Z</time>
      </trkpt>
      <trkpt lat="44.46821" lon="0.91923">
        <ele>62.62</ele>
        <time>2014-05-10T16:37:03Z</time>
      </trkpt>
      <trkpt lat="44.46833" lon="0.91961">
        <ele>62.62</ele>
        <time>2014-05-10T16:37:15Z</time>
      </trkpt>
      <trkpt lat="44.46858" lon="0.92052">
        <ele>62.62</ele>
        <time>2014-05-10T16:37:32Z</time>
      </trkpt>
      <trkpt lat="44.46877" lon="0.92159">
        <ele>62.14</ele>
        <time>2014-05-10T16:37:49Z</time>
      </trkpt>
      <trkpt lat="44.46894" lon="0.92282">
        <ele>62.14</ele>
        <time>2014-05-10T16:38:07Z</time>
      </trkpt>
      <trkpt lat="44.4691" lon="0.92407">
        <ele>61.66</ele>
        <time>2014-05-10T16:38:24Z</time>
      </trkpt>
      <trkpt lat="44.4692" lon="0.9251">
        <ele>60.22</ele>
        <time>2014-05-10T16:38:37Z</time>
      </trkpt>
      <trkpt lat="44.46919" lon="0.92519">
        <ele>60.22</ele>
        <time>2014-05-10T16:38:38Z</time>
      </trkpt>
      <trkpt lat="44.46915" lon="0.92543">
        <ele>59.74</ele>
        <time>2014-05-10T16:38:41Z</time>
      </trkpt>
      <trkpt lat="44.46913" lon="0.9255">
        <ele>59.26</ele>
        <time>2014-05-10T16:38:42Z</time>
      </trkpt>
      <trkpt lat="44.4689" lon="0.92605">
        <ele>58.78</ele>
        <time>2014-05-10T16:38:50Z</time>
      </trkpt>
      <trkpt lat="44.46889" lon="0.92611">
        <ele>58.78</ele>
        <time>2014-05-10T16:38:51Z</time>
      </trkpt>
      <trkpt lat="44.46887" lon="0.92623">
        <ele>59.26</ele>
        <time>2014-05-10T16:38:53Z</time>
      </trkpt>
      <trkpt lat="44.46887" lon="0.92628">
        <ele>59.26</ele>
        <time>2014-05-10T16:38:54Z</time>
      </trkpt>
      <trkpt lat="44.46887" lon="0.92634">
        <ele>59.74</ele>
        <time>2014-05-10T16:38:55Z</time>
      </trkpt>
      <trkpt lat="44.46888" lon="0.9264">
        <ele>59.74</ele>
        <time>2014-05-10T16:38:56Z</time>
      </trkpt>
      <trkpt lat="44.46889" lon="0.92645">
        <ele>60.22</ele>
        <time>2014-05-10T16:38:57Z</time>
      </trkpt>
      <trkpt lat="44.46896" lon="0.92672">
        <ele>61.18</ele>
        <time>2014-05-10T16:39:02Z</time>
      </trkpt>
      <trkpt lat="44.46921" lon="0.92757">
        <ele>63.58</ele>
        <time>2014-05-10T16:39:17Z</time>
      </trkpt>
      <trkpt lat="44.46924" lon="0.92821">
        <ele>64.55</ele>
        <time>2014-05-10T16:39:27Z</time>
      </trkpt>
      <trkpt lat="44.46924" lon="0.92827">
        <ele>64.07</ele>
        <time>2014-05-10T16:39:28Z</time>
      </trkpt>
      <trkpt lat="44.46924" lon="0.92833">
        <ele>64.07</ele>
        <time>2014-05-10T16:39:29Z</time>
      </trkpt>
      <trkpt lat="44.46924" lon="0.9284">
        <ele>64.07</ele>
        <time>2014-05-10T16:39:30Z</time>
      </trkpt>
      <trkpt lat="44.46924" lon="0.92846">
        <ele>63.58</ele>
        <time>2014-05-10T16:39:31Z</time>
      </trkpt>
      <trkpt lat="44.46925" lon="0.92865">
        <ele>63.58</ele>
        <time>2014-05-10T16:39:34Z</time>
      </trkpt>
      <trkpt lat="44.46926" lon="0.92871">
        <ele>63.58</ele>
        <time>2014-05-10T16:39:35Z</time>
      </trkpt>
      <trkpt lat="44.46926" lon="0.92878">
        <ele>63.58</ele>
        <time>2014-05-10T16:39:36Z</time>
      </trkpt>
      <trkpt lat="44.46926" lon="0.9289">
        <ele>63.58</ele>
        <time>2014-05-10T16:39:38Z</time>
      </trkpt>
      <trkpt lat="44.46927" lon="0.92897">
        <ele>63.58</ele>
        <time>2014-05-10T16:39:39Z</time>
      </trkpt>
      <trkpt lat="44.46928" lon="0.92903">
        <ele>63.58</ele>
        <time>2014-05-10T16:39:40Z</time>
      </trkpt>
      <trkpt lat="44.46958" lon="0.93014">
        <ele>65.03</ele>
        <time>2014-05-10T16:39:57Z</time>
      </trkpt>
      <trkpt lat="44.46986" lon="0.93068">
        <ele>65.51</ele>
        <time>2014-05-10T16:40:06Z</time>
      </trkpt>
      <trkpt lat="44.46988" lon="0.93074">
        <ele>65.51</ele>
        <time>2014-05-10T16:40:07Z</time>
      </trkpt>
      <trkpt lat="44.47005" lon="0.93189">
        <ele>65.03</ele>
        <time>2014-05-10T16:40:23Z</time>
      </trkpt>
      <trkpt lat="44.47032" lon="0.93303">
        <ele>65.51</ele>
        <time>2014-05-10T16:40:39Z</time>
      </trkpt>
      <trkpt lat="44.47075" lon="0.93417">
        <ele>65.99</ele>
        <time>2014-05-10T16:40:56Z</time>
      </trkpt>
      <trkpt lat="44.47077" lon="0.93423">
        <ele>65.99</ele>
        <time>2014-05-10T16:40:57Z</time>
      </trkpt>
      <trkpt lat="44.47092" lon="0.93456">
        <ele>65.99</ele>
        <time>2014-05-10T16:41:03Z</time>
      </trkpt>
      <trkpt lat="44.47094" lon="0.93462">
        <ele>65.99</ele>
        <time>2014-05-10T16:41:04Z</time>
      </trkpt>
      <trkpt lat="44.47111" lon="0.93494">
        <ele>66.47</ele>
        <time>2014-05-10T16:41:12Z</time>
      </trkpt>
      <trkpt lat="44.47114" lon="0.93493">
        <ele>66.47</ele>
        <time>2014-05-10T16:41:13Z</time>
      </trkpt>
      <trkpt lat="44.47116" lon="0.93492">
        <ele>66.47</ele>
        <time>2014-05-10T16:41:14Z</time>
      </trkpt>
      <trkpt lat="44.47119" lon="0.9349">
        <ele>66.47</ele>
        <time>2014-05-10T16:41:15Z</time>
      </trkpt>
      <trkpt lat="44.47122" lon="0.93488">
        <ele>66.47</ele>
        <time>2014-05-10T16:41:16Z</time>
      </trkpt>
      <trkpt lat="44.47125" lon="0.93487">
        <ele>66.47</ele>
        <time>2014-05-10T16:41:17Z</time>
      </trkpt>
      <trkpt lat="44.47129" lon="0.93485">
        <ele>66.47</ele>
        <time>2014-05-10T16:41:18Z</time>
      </trkpt>
      <trkpt lat="44.47137" lon="0.93483">
        <ele>66.47</ele>
        <time>2014-05-10T16:41:20Z</time>
      </trkpt>
      <trkpt lat="44.47182" lon="0.93462">
        <ele>67.43</ele>
        <time>2014-05-10T16:41:30Z</time>
      </trkpt>
      <trkpt lat="44.47186" lon="0.93459">
        <ele>67.43</ele>
        <time>2014-05-10T16:41:31Z</time>
      </trkpt>
      <trkpt lat="44.47202" lon="0.9345">
        <ele>67.43</ele>
        <time>2014-05-10T16:41:35Z</time>
      </trkpt>
      <trkpt lat="44.47205" lon="0.93447">
        <ele>67.43</ele>
        <time>2014-05-10T16:41:36Z</time>
      </trkpt>
      <trkpt lat="44.47208" lon="0.93443">
        <ele>66.95</ele>
        <time>2014-05-10T16:41:37Z</time>
      </trkpt>
      <trkpt lat="44.47209" lon="0.93439">
        <ele>66.95</ele>
        <time>2014-05-10T16:41:38Z</time>
      </trkpt>
      <trkpt lat="44.4721" lon="0.93434">
        <ele>66.47</ele>
        <time>2014-05-10T16:41:39Z</time>
      </trkpt>
      <trkpt lat="44.4721" lon="0.9343">
        <ele>66.47</ele>
        <time>2014-05-10T16:41:40Z</time>
      </trkpt>
      <trkpt lat="44.4721" lon="0.93427">
        <ele>66.47</ele>
        <time>2014-05-10T16:41:41Z</time>
      </trkpt>
      <trkpt lat="44.47206" lon="0.93417">
        <ele>65.99</ele>
        <time>2014-05-10T16:41:53Z</time>
      </trkpt>
      <trkpt lat="44.47205" lon="0.93417">
        <ele>68.87</ele>
        <time>2014-05-10T16:42:09Z</time>
      </trkpt>
      <trkpt lat="44.47204" lon="0.93418">
        <ele>71.27</ele>
        <time>2014-05-10T16:42:35Z</time>
      </trkpt>
      <trkpt lat="44.47206" lon="0.93417">
        <ele>71.27</ele>
        <time>2014-05-10T16:43:05Z</time>
      </trkpt>
    </trkseg>
  </trk>
</gpx>